<?xml version="1.0" encoding="UTF-8" standalone="no" ?>
<gpx xmlns="http://www.topografix.com/GPX/1/1" xmlns:xsi="http://www.w3.org/2001/XMLSchema-instance" xsi:schemaLocation="http://www.topografix.com/GPX/1/1 http://www.topografix.com/GPX/1/1/gpx.xsd" version="1.1" creator="VisuGPX - https://www.visugpx.com">
  <metadata>
    <name>06-D-2014-13-04-St-Cézaire - Pont de la Siagne-Pont des Tuves</name>
    <desc><![CDATA[St-Cézaire - Pont de la Siagne-Pont des Tuves]]></desc>
  </metadata>
  <trk>
    <name><![CDATA[2014-04-13-st cezaire]]></name>
    <trkseg>
      <trkpt lat="43.62752" lon="6.81757">
        <ele>98.9</ele>
        <time>2014-04-13T07:17:37Z</time>
      </trkpt>
      <trkpt lat="43.62756" lon="6.81746">
        <ele>99.3</ele>
        <time>2014-04-13T07:18:13Z</time>
      </trkpt>
      <trkpt lat="43.62751" lon="6.81756">
        <ele>100.3</ele>
        <time>2014-04-13T07:18:37Z</time>
      </trkpt>
      <trkpt lat="43.62751" lon="6.81756">
        <ele>100</ele>
        <time>2014-04-13T07:18:38Z</time>
      </trkpt>
      <trkpt lat="43.62726" lon="6.81759">
        <ele>100</ele>
        <time>2014-04-13T07:19:12Z</time>
      </trkpt>
      <trkpt lat="43.62747" lon="6.81749">
        <ele>100</ele>
        <time>2014-04-13T07:19:24Z</time>
      </trkpt>
      <trkpt lat="43.62754" lon="6.81745">
        <ele>100.6</ele>
        <time>2014-04-13T07:19:30Z</time>
      </trkpt>
      <trkpt lat="43.62751" lon="6.81756">
        <ele>101.3</ele>
        <time>2014-04-13T07:20:02Z</time>
      </trkpt>
      <trkpt lat="43.6275" lon="6.81756">
        <ele>101.7</ele>
        <time>2014-04-13T07:20:03Z</time>
      </trkpt>
      <trkpt lat="43.62749" lon="6.81761">
        <ele>100.9</ele>
        <time>2014-04-13T07:20:48Z</time>
      </trkpt>
      <trkpt lat="43.62751" lon="6.8175">
        <ele>101.1</ele>
        <time>2014-04-13T07:21:39Z</time>
      </trkpt>
      <trkpt lat="43.62753" lon="6.81749">
        <ele>101.2</ele>
        <time>2014-04-13T07:21:40Z</time>
      </trkpt>
      <trkpt lat="43.62753" lon="6.81742">
        <ele>101.9</ele>
        <time>2014-04-13T07:23:40Z</time>
      </trkpt>
      <trkpt lat="43.62753" lon="6.81742">
        <ele>101.5</ele>
        <time>2014-04-13T07:23:41Z</time>
      </trkpt>
      <trkpt lat="43.62742" lon="6.81754">
        <ele>103.2</ele>
        <time>2014-04-13T07:24:10Z</time>
      </trkpt>
      <trkpt lat="43.62734" lon="6.8176">
        <ele>102.7</ele>
        <time>2014-04-13T07:24:15Z</time>
      </trkpt>
      <trkpt lat="43.62728" lon="6.81768">
        <ele>103</ele>
        <time>2014-04-13T07:24:23Z</time>
      </trkpt>
      <trkpt lat="43.62721" lon="6.81776">
        <ele>103.9</ele>
        <time>2014-04-13T07:24:34Z</time>
      </trkpt>
      <trkpt lat="43.62716" lon="6.81783">
        <ele>103.5</ele>
        <time>2014-04-13T07:24:41Z</time>
      </trkpt>
      <trkpt lat="43.62714" lon="6.81785">
        <ele>103.8</ele>
        <time>2014-04-13T07:24:42Z</time>
      </trkpt>
      <trkpt lat="43.62701" lon="6.81795">
        <ele>104.3</ele>
        <time>2014-04-13T07:24:58Z</time>
      </trkpt>
      <trkpt lat="43.62698" lon="6.81807">
        <ele>103.9</ele>
        <time>2014-04-13T07:25:37Z</time>
      </trkpt>
      <trkpt lat="43.627" lon="6.81794">
        <ele>105.2</ele>
        <time>2014-04-13T07:26:24Z</time>
      </trkpt>
      <trkpt lat="43.627" lon="6.81794">
        <ele>105</ele>
        <time>2014-04-13T07:26:25Z</time>
      </trkpt>
      <trkpt lat="43.62701" lon="6.81783">
        <ele>111.5</ele>
        <time>2014-04-13T07:27:08Z</time>
      </trkpt>
      <trkpt lat="43.62706" lon="6.81774">
        <ele>113.1</ele>
        <time>2014-04-13T07:27:24Z</time>
      </trkpt>
      <trkpt lat="43.62708" lon="6.81762">
        <ele>115</ele>
        <time>2014-04-13T07:27:40Z</time>
      </trkpt>
      <trkpt lat="43.62708" lon="6.81761">
        <ele>114.8</ele>
        <time>2014-04-13T07:27:41Z</time>
      </trkpt>
      <trkpt lat="43.6271" lon="6.81738">
        <ele>121.6</ele>
        <time>2014-04-13T07:28:20Z</time>
      </trkpt>
      <trkpt lat="43.62703" lon="6.81729">
        <ele>122.5</ele>
        <time>2014-04-13T07:28:29Z</time>
      </trkpt>
      <trkpt lat="43.62695" lon="6.81726">
        <ele>123.5</ele>
        <time>2014-04-13T07:28:38Z</time>
      </trkpt>
      <trkpt lat="43.62688" lon="6.81731">
        <ele>124.7</ele>
        <time>2014-04-13T07:28:50Z</time>
      </trkpt>
      <trkpt lat="43.62688" lon="6.81732">
        <ele>125.3</ele>
        <time>2014-04-13T07:28:51Z</time>
      </trkpt>
      <trkpt lat="43.62677" lon="6.81712">
        <ele>131.8</ele>
        <time>2014-04-13T07:29:44Z</time>
      </trkpt>
      <trkpt lat="43.62671" lon="6.81704">
        <ele>132.4</ele>
        <time>2014-04-13T07:29:57Z</time>
      </trkpt>
      <trkpt lat="43.6267" lon="6.81704">
        <ele>132.3</ele>
        <time>2014-04-13T07:29:58Z</time>
      </trkpt>
      <trkpt lat="43.62654" lon="6.81704">
        <ele>138</ele>
        <time>2014-04-13T07:30:43Z</time>
      </trkpt>
      <trkpt lat="43.62645" lon="6.81705">
        <ele>139.9</ele>
        <time>2014-04-13T07:30:59Z</time>
      </trkpt>
      <trkpt lat="43.62645" lon="6.81705">
        <ele>139.5</ele>
        <time>2014-04-13T07:31:00Z</time>
      </trkpt>
      <trkpt lat="43.62632" lon="6.81692">
        <ele>146.6</ele>
        <time>2014-04-13T07:32:10Z</time>
      </trkpt>
      <trkpt lat="43.62631" lon="6.81692">
        <ele>147.2</ele>
        <time>2014-04-13T07:32:11Z</time>
      </trkpt>
      <trkpt lat="43.62619" lon="6.81684">
        <ele>152.6</ele>
        <time>2014-04-13T07:32:46Z</time>
      </trkpt>
      <trkpt lat="43.62621" lon="6.81672">
        <ele>154.3</ele>
        <time>2014-04-13T07:33:01Z</time>
      </trkpt>
      <trkpt lat="43.62627" lon="6.81663">
        <ele>155.1</ele>
        <time>2014-04-13T07:33:32Z</time>
      </trkpt>
      <trkpt lat="43.62628" lon="6.81663">
        <ele>154.9</ele>
        <time>2014-04-13T07:33:33Z</time>
      </trkpt>
      <trkpt lat="43.6264" lon="6.81646">
        <ele>159.5</ele>
        <time>2014-04-13T07:34:15Z</time>
      </trkpt>
      <trkpt lat="43.62642" lon="6.81636">
        <ele>161.4</ele>
        <time>2014-04-13T07:34:25Z</time>
      </trkpt>
      <trkpt lat="43.62645" lon="6.81625">
        <ele>163.6</ele>
        <time>2014-04-13T07:34:33Z</time>
      </trkpt>
      <trkpt lat="43.62646" lon="6.81624">
        <ele>163.9</ele>
        <time>2014-04-13T07:34:34Z</time>
      </trkpt>
      <trkpt lat="43.62648" lon="6.81601">
        <ele>163.9</ele>
        <time>2014-04-13T07:35:52Z</time>
      </trkpt>
      <trkpt lat="43.62648" lon="6.816">
        <ele>163.7</ele>
        <time>2014-04-13T07:35:53Z</time>
      </trkpt>
      <trkpt lat="43.62654" lon="6.81591">
        <ele>164.5</ele>
        <time>2014-04-13T07:37:25Z</time>
      </trkpt>
      <trkpt lat="43.62663" lon="6.81571">
        <ele>166.2</ele>
        <time>2014-04-13T07:37:55Z</time>
      </trkpt>
      <trkpt lat="43.62668" lon="6.81562">
        <ele>165.9</ele>
        <time>2014-04-13T07:38:14Z</time>
      </trkpt>
      <trkpt lat="43.62675" lon="6.81554">
        <ele>167.6</ele>
        <time>2014-04-13T07:38:25Z</time>
      </trkpt>
      <trkpt lat="43.62676" lon="6.81552">
        <ele>167.3</ele>
        <time>2014-04-13T07:38:26Z</time>
      </trkpt>
      <trkpt lat="43.62684" lon="6.81535">
        <ele>170.9</ele>
        <time>2014-04-13T07:38:46Z</time>
      </trkpt>
      <trkpt lat="43.62692" lon="6.81528">
        <ele>173.1</ele>
        <time>2014-04-13T07:39:02Z</time>
      </trkpt>
      <trkpt lat="43.62697" lon="6.81519">
        <ele>175.2</ele>
        <time>2014-04-13T07:39:15Z</time>
      </trkpt>
      <trkpt lat="43.62703" lon="6.81511">
        <ele>176.6</ele>
        <time>2014-04-13T07:39:26Z</time>
      </trkpt>
      <trkpt lat="43.62704" lon="6.8151">
        <ele>176.9</ele>
        <time>2014-04-13T07:39:27Z</time>
      </trkpt>
      <trkpt lat="43.62718" lon="6.81502">
        <ele>178.1</ele>
        <time>2014-04-13T07:39:42Z</time>
      </trkpt>
      <trkpt lat="43.62723" lon="6.81492">
        <ele>178.2</ele>
        <time>2014-04-13T07:39:49Z</time>
      </trkpt>
      <trkpt lat="43.62725" lon="6.81481">
        <ele>178.5</ele>
        <time>2014-04-13T07:39:57Z</time>
      </trkpt>
      <trkpt lat="43.62727" lon="6.81469">
        <ele>177</ele>
        <time>2014-04-13T07:40:06Z</time>
      </trkpt>
      <trkpt lat="43.62729" lon="6.81458">
        <ele>176.9</ele>
        <time>2014-04-13T07:40:14Z</time>
      </trkpt>
      <trkpt lat="43.62734" lon="6.81448">
        <ele>175.9</ele>
        <time>2014-04-13T07:40:24Z</time>
      </trkpt>
      <trkpt lat="43.62734" lon="6.81436">
        <ele>176</ele>
        <time>2014-04-13T07:40:32Z</time>
      </trkpt>
      <trkpt lat="43.62734" lon="6.81435">
        <ele>176.1</ele>
        <time>2014-04-13T07:40:33Z</time>
      </trkpt>
      <trkpt lat="43.62737" lon="6.81413">
        <ele>175.5</ele>
        <time>2014-04-13T07:40:54Z</time>
      </trkpt>
      <trkpt lat="43.62738" lon="6.81401">
        <ele>173.3</ele>
        <time>2014-04-13T07:41:08Z</time>
      </trkpt>
      <trkpt lat="43.62739" lon="6.8139">
        <ele>173.6</ele>
        <time>2014-04-13T07:41:21Z</time>
      </trkpt>
      <trkpt lat="43.62742" lon="6.81379">
        <ele>172.5</ele>
        <time>2014-04-13T07:41:29Z</time>
      </trkpt>
      <trkpt lat="43.62745" lon="6.81368">
        <ele>170.4</ele>
        <time>2014-04-13T07:41:39Z</time>
      </trkpt>
      <trkpt lat="43.62746" lon="6.81367">
        <ele>170.6</ele>
        <time>2014-04-13T07:41:40Z</time>
      </trkpt>
      <trkpt lat="43.62746" lon="6.81345">
        <ele>170.2</ele>
        <time>2014-04-13T07:42:01Z</time>
      </trkpt>
      <trkpt lat="43.62748" lon="6.81334">
        <ele>170.8</ele>
        <time>2014-04-13T07:42:10Z</time>
      </trkpt>
      <trkpt lat="43.62746" lon="6.81323">
        <ele>171.2</ele>
        <time>2014-04-13T07:42:17Z</time>
      </trkpt>
      <trkpt lat="43.62749" lon="6.81312">
        <ele>171.2</ele>
        <time>2014-04-13T07:42:26Z</time>
      </trkpt>
      <trkpt lat="43.62755" lon="6.81303">
        <ele>170.7</ele>
        <time>2014-04-13T07:42:34Z</time>
      </trkpt>
      <trkpt lat="43.6276" lon="6.81294">
        <ele>171.3</ele>
        <time>2014-04-13T07:42:41Z</time>
      </trkpt>
      <trkpt lat="43.62761" lon="6.81293">
        <ele>170.5</ele>
        <time>2014-04-13T07:42:42Z</time>
      </trkpt>
      <trkpt lat="43.62768" lon="6.81275">
        <ele>171.8</ele>
        <time>2014-04-13T07:42:57Z</time>
      </trkpt>
      <trkpt lat="43.62771" lon="6.81265">
        <ele>171.7</ele>
        <time>2014-04-13T07:43:05Z</time>
      </trkpt>
      <trkpt lat="43.62774" lon="6.81253">
        <ele>171.7</ele>
        <time>2014-04-13T07:43:15Z</time>
      </trkpt>
      <trkpt lat="43.62778" lon="6.81243">
        <ele>172.8</ele>
        <time>2014-04-13T07:43:21Z</time>
      </trkpt>
      <trkpt lat="43.62783" lon="6.81234">
        <ele>173.8</ele>
        <time>2014-04-13T07:43:27Z</time>
      </trkpt>
      <trkpt lat="43.62787" lon="6.81223">
        <ele>173.6</ele>
        <time>2014-04-13T07:43:36Z</time>
      </trkpt>
      <trkpt lat="43.62794" lon="6.81216">
        <ele>171.9</ele>
        <time>2014-04-13T07:43:45Z</time>
      </trkpt>
      <trkpt lat="43.62794" lon="6.81215">
        <ele>171.7</ele>
        <time>2014-04-13T07:43:46Z</time>
      </trkpt>
      <trkpt lat="43.62811" lon="6.81215">
        <ele>168.8</ele>
        <time>2014-04-13T07:44:10Z</time>
      </trkpt>
      <trkpt lat="43.62819" lon="6.81215">
        <ele>166.4</ele>
        <time>2014-04-13T07:44:18Z</time>
      </trkpt>
      <trkpt lat="43.62828" lon="6.81213">
        <ele>167.2</ele>
        <time>2014-04-13T07:44:30Z</time>
      </trkpt>
      <trkpt lat="43.6283" lon="6.81202">
        <ele>167.2</ele>
        <time>2014-04-13T07:44:37Z</time>
      </trkpt>
      <trkpt lat="43.62828" lon="6.81191">
        <ele>167.1</ele>
        <time>2014-04-13T07:44:44Z</time>
      </trkpt>
      <trkpt lat="43.62825" lon="6.8118">
        <ele>166.8</ele>
        <time>2014-04-13T07:44:50Z</time>
      </trkpt>
      <trkpt lat="43.62824" lon="6.81179">
        <ele>166.9</ele>
        <time>2014-04-13T07:44:51Z</time>
      </trkpt>
      <trkpt lat="43.6282" lon="6.81158">
        <ele>169.5</ele>
        <time>2014-04-13T07:45:08Z</time>
      </trkpt>
      <trkpt lat="43.62817" lon="6.81148">
        <ele>168.5</ele>
        <time>2014-04-13T07:45:14Z</time>
      </trkpt>
      <trkpt lat="43.62816" lon="6.81136">
        <ele>168.3</ele>
        <time>2014-04-13T07:45:20Z</time>
      </trkpt>
      <trkpt lat="43.62814" lon="6.81125">
        <ele>168</ele>
        <time>2014-04-13T07:45:27Z</time>
      </trkpt>
      <trkpt lat="43.62811" lon="6.81114">
        <ele>168.7</ele>
        <time>2014-04-13T07:45:33Z</time>
      </trkpt>
      <trkpt lat="43.62805" lon="6.81107">
        <ele>168.7</ele>
        <time>2014-04-13T07:45:41Z</time>
      </trkpt>
      <trkpt lat="43.62801" lon="6.81097">
        <ele>168.5</ele>
        <time>2014-04-13T07:45:48Z</time>
      </trkpt>
      <trkpt lat="43.62797" lon="6.81086">
        <ele>167.5</ele>
        <time>2014-04-13T07:45:58Z</time>
      </trkpt>
      <trkpt lat="43.62797" lon="6.81085">
        <ele>167.6</ele>
        <time>2014-04-13T07:45:59Z</time>
      </trkpt>
      <trkpt lat="43.62792" lon="6.81063">
        <ele>164.8</ele>
        <time>2014-04-13T07:46:18Z</time>
      </trkpt>
      <trkpt lat="43.62792" lon="6.8105">
        <ele>163.5</ele>
        <time>2014-04-13T07:46:28Z</time>
      </trkpt>
      <trkpt lat="43.62791" lon="6.81039">
        <ele>162.4</ele>
        <time>2014-04-13T07:46:36Z</time>
      </trkpt>
      <trkpt lat="43.62791" lon="6.81027">
        <ele>162.4</ele>
        <time>2014-04-13T07:46:44Z</time>
      </trkpt>
      <trkpt lat="43.62789" lon="6.81015">
        <ele>162</ele>
        <time>2014-04-13T07:46:56Z</time>
      </trkpt>
      <trkpt lat="43.62787" lon="6.81005">
        <ele>161.9</ele>
        <time>2014-04-13T07:47:05Z</time>
      </trkpt>
      <trkpt lat="43.62787" lon="6.81003">
        <ele>161</ele>
        <time>2014-04-13T07:47:06Z</time>
      </trkpt>
      <trkpt lat="43.6278" lon="6.80985">
        <ele>161</ele>
        <time>2014-04-13T07:47:18Z</time>
      </trkpt>
      <trkpt lat="43.62778" lon="6.80974">
        <ele>160.2</ele>
        <time>2014-04-13T07:47:25Z</time>
      </trkpt>
      <trkpt lat="43.62774" lon="6.80965">
        <ele>159.6</ele>
        <time>2014-04-13T07:47:32Z</time>
      </trkpt>
      <trkpt lat="43.62772" lon="6.80953">
        <ele>159.5</ele>
        <time>2014-04-13T07:47:41Z</time>
      </trkpt>
      <trkpt lat="43.62768" lon="6.80942">
        <ele>159.4</ele>
        <time>2014-04-13T07:47:49Z</time>
      </trkpt>
      <trkpt lat="43.62765" lon="6.8093">
        <ele>157.7</ele>
        <time>2014-04-13T07:47:57Z</time>
      </trkpt>
      <trkpt lat="43.62769" lon="6.80919">
        <ele>157.7</ele>
        <time>2014-04-13T07:48:03Z</time>
      </trkpt>
      <trkpt lat="43.62773" lon="6.80909">
        <ele>156.9</ele>
        <time>2014-04-13T07:48:09Z</time>
      </trkpt>
      <trkpt lat="43.62772" lon="6.80908">
        <ele>156.6</ele>
        <time>2014-04-13T07:48:10Z</time>
      </trkpt>
      <trkpt lat="43.62773" lon="6.80885">
        <ele>156.3</ele>
        <time>2014-04-13T07:48:29Z</time>
      </trkpt>
      <trkpt lat="43.6277" lon="6.80873">
        <ele>155.1</ele>
        <time>2014-04-13T07:48:43Z</time>
      </trkpt>
      <trkpt lat="43.62763" lon="6.80867">
        <ele>154.3</ele>
        <time>2014-04-13T07:48:54Z</time>
      </trkpt>
      <trkpt lat="43.62756" lon="6.8086">
        <ele>153.5</ele>
        <time>2014-04-13T07:49:01Z</time>
      </trkpt>
      <trkpt lat="43.62748" lon="6.80857">
        <ele>151</ele>
        <time>2014-04-13T07:49:11Z</time>
      </trkpt>
      <trkpt lat="43.62747" lon="6.80856">
        <ele>150.5</ele>
        <time>2014-04-13T07:49:12Z</time>
      </trkpt>
      <trkpt lat="43.62736" lon="6.80842">
        <ele>149</ele>
        <time>2014-04-13T07:49:28Z</time>
      </trkpt>
      <trkpt lat="43.62728" lon="6.80837">
        <ele>150.5</ele>
        <time>2014-04-13T07:49:35Z</time>
      </trkpt>
      <trkpt lat="43.62721" lon="6.8083">
        <ele>151.6</ele>
        <time>2014-04-13T07:49:42Z</time>
      </trkpt>
      <trkpt lat="43.62714" lon="6.80825">
        <ele>150.7</ele>
        <time>2014-04-13T07:49:53Z</time>
      </trkpt>
      <trkpt lat="43.62707" lon="6.80819">
        <ele>151.5</ele>
        <time>2014-04-13T07:50:00Z</time>
      </trkpt>
      <trkpt lat="43.62701" lon="6.80811">
        <ele>150.2</ele>
        <time>2014-04-13T07:50:09Z</time>
      </trkpt>
      <trkpt lat="43.62693" lon="6.80804">
        <ele>151.1</ele>
        <time>2014-04-13T07:50:23Z</time>
      </trkpt>
      <trkpt lat="43.62693" lon="6.80803">
        <ele>151.6</ele>
        <time>2014-04-13T07:50:24Z</time>
      </trkpt>
      <trkpt lat="43.62689" lon="6.80781">
        <ele>150.4</ele>
        <time>2014-04-13T07:50:43Z</time>
      </trkpt>
      <trkpt lat="43.62687" lon="6.8077">
        <ele>150.8</ele>
        <time>2014-04-13T07:50:52Z</time>
      </trkpt>
      <trkpt lat="43.62681" lon="6.80762">
        <ele>149.6</ele>
        <time>2014-04-13T07:50:59Z</time>
      </trkpt>
      <trkpt lat="43.62676" lon="6.80752">
        <ele>151.2</ele>
        <time>2014-04-13T07:51:09Z</time>
      </trkpt>
      <trkpt lat="43.62672" lon="6.80742">
        <ele>151.2</ele>
        <time>2014-04-13T07:51:16Z</time>
      </trkpt>
      <trkpt lat="43.62669" lon="6.8073">
        <ele>150.5</ele>
        <time>2014-04-13T07:51:24Z</time>
      </trkpt>
      <trkpt lat="43.62669" lon="6.80729">
        <ele>150.7</ele>
        <time>2014-04-13T07:51:25Z</time>
      </trkpt>
      <trkpt lat="43.62663" lon="6.80709">
        <ele>150.2</ele>
        <time>2014-04-13T07:51:39Z</time>
      </trkpt>
      <trkpt lat="43.6266" lon="6.80698">
        <ele>151.3</ele>
        <time>2014-04-13T07:51:49Z</time>
      </trkpt>
      <trkpt lat="43.62656" lon="6.80688">
        <ele>151</ele>
        <time>2014-04-13T07:52:01Z</time>
      </trkpt>
      <trkpt lat="43.62652" lon="6.80678">
        <ele>151.5</ele>
        <time>2014-04-13T07:52:11Z</time>
      </trkpt>
      <trkpt lat="43.62648" lon="6.80668">
        <ele>151.1</ele>
        <time>2014-04-13T07:52:18Z</time>
      </trkpt>
      <trkpt lat="43.62642" lon="6.8066">
        <ele>150.7</ele>
        <time>2014-04-13T07:52:26Z</time>
      </trkpt>
      <trkpt lat="43.62642" lon="6.80659">
        <ele>150.7</ele>
        <time>2014-04-13T07:52:27Z</time>
      </trkpt>
      <trkpt lat="43.62636" lon="6.80639">
        <ele>151.1</ele>
        <time>2014-04-13T07:52:41Z</time>
      </trkpt>
      <trkpt lat="43.62631" lon="6.80631">
        <ele>150.8</ele>
        <time>2014-04-13T07:52:47Z</time>
      </trkpt>
      <trkpt lat="43.62626" lon="6.80621">
        <ele>150.6</ele>
        <time>2014-04-13T07:52:54Z</time>
      </trkpt>
      <trkpt lat="43.62622" lon="6.8061">
        <ele>150.7</ele>
        <time>2014-04-13T07:53:02Z</time>
      </trkpt>
      <trkpt lat="43.62618" lon="6.806">
        <ele>150.3</ele>
        <time>2014-04-13T07:53:08Z</time>
      </trkpt>
      <trkpt lat="43.62618" lon="6.80588">
        <ele>151.1</ele>
        <time>2014-04-13T07:53:16Z</time>
      </trkpt>
      <trkpt lat="43.62621" lon="6.80577">
        <ele>150.5</ele>
        <time>2014-04-13T07:53:23Z</time>
      </trkpt>
      <trkpt lat="43.62621" lon="6.80565">
        <ele>150.6</ele>
        <time>2014-04-13T07:53:31Z</time>
      </trkpt>
      <trkpt lat="43.6262" lon="6.80564">
        <ele>150.6</ele>
        <time>2014-04-13T07:53:32Z</time>
      </trkpt>
      <trkpt lat="43.62621" lon="6.80542">
        <ele>150.8</ele>
        <time>2014-04-13T07:53:46Z</time>
      </trkpt>
      <trkpt lat="43.62625" lon="6.80531">
        <ele>151</ele>
        <time>2014-04-13T07:53:53Z</time>
      </trkpt>
      <trkpt lat="43.62623" lon="6.8052">
        <ele>151.1</ele>
        <time>2014-04-13T07:54:01Z</time>
      </trkpt>
      <trkpt lat="43.62624" lon="6.80508">
        <ele>150.5</ele>
        <time>2014-04-13T07:54:12Z</time>
      </trkpt>
      <trkpt lat="43.62626" lon="6.80496">
        <ele>151.1</ele>
        <time>2014-04-13T07:54:21Z</time>
      </trkpt>
      <trkpt lat="43.62629" lon="6.80485">
        <ele>150.5</ele>
        <time>2014-04-13T07:54:27Z</time>
      </trkpt>
      <trkpt lat="43.62633" lon="6.80476">
        <ele>150.4</ele>
        <time>2014-04-13T07:54:32Z</time>
      </trkpt>
      <trkpt lat="43.62633" lon="6.80474">
        <ele>150.3</ele>
        <time>2014-04-13T07:54:33Z</time>
      </trkpt>
      <trkpt lat="43.62631" lon="6.80453">
        <ele>151</ele>
        <time>2014-04-13T07:54:47Z</time>
      </trkpt>
      <trkpt lat="43.62625" lon="6.80445">
        <ele>151.2</ele>
        <time>2014-04-13T07:54:53Z</time>
      </trkpt>
      <trkpt lat="43.62619" lon="6.80437">
        <ele>151.2</ele>
        <time>2014-04-13T07:55:00Z</time>
      </trkpt>
      <trkpt lat="43.62614" lon="6.80427">
        <ele>150.6</ele>
        <time>2014-04-13T07:55:09Z</time>
      </trkpt>
      <trkpt lat="43.6261" lon="6.80417">
        <ele>150.4</ele>
        <time>2014-04-13T07:55:25Z</time>
      </trkpt>
      <trkpt lat="43.6261" lon="6.80405">
        <ele>150.7</ele>
        <time>2014-04-13T07:55:40Z</time>
      </trkpt>
      <trkpt lat="43.6261" lon="6.80405">
        <ele>150.5</ele>
        <time>2014-04-13T07:55:41Z</time>
      </trkpt>
      <trkpt lat="43.62607" lon="6.80383">
        <ele>149.8</ele>
        <time>2014-04-13T07:55:59Z</time>
      </trkpt>
      <trkpt lat="43.62606" lon="6.80371">
        <ele>150.8</ele>
        <time>2014-04-13T07:56:10Z</time>
      </trkpt>
      <trkpt lat="43.62602" lon="6.80362">
        <ele>150.4</ele>
        <time>2014-04-13T07:56:17Z</time>
      </trkpt>
      <trkpt lat="43.62598" lon="6.80351">
        <ele>150.9</ele>
        <time>2014-04-13T07:56:26Z</time>
      </trkpt>
      <trkpt lat="43.62597" lon="6.80339">
        <ele>150.4</ele>
        <time>2014-04-13T07:56:37Z</time>
      </trkpt>
      <trkpt lat="43.62598" lon="6.80327">
        <ele>150.9</ele>
        <time>2014-04-13T07:56:46Z</time>
      </trkpt>
      <trkpt lat="43.62598" lon="6.80326">
        <ele>150.9</ele>
        <time>2014-04-13T07:56:47Z</time>
      </trkpt>
      <trkpt lat="43.62593" lon="6.80305">
        <ele>150.9</ele>
        <time>2014-04-13T07:57:02Z</time>
      </trkpt>
      <trkpt lat="43.62592" lon="6.80293">
        <ele>149.9</ele>
        <time>2014-04-13T07:57:10Z</time>
      </trkpt>
      <trkpt lat="43.62592" lon="6.80282">
        <ele>150.5</ele>
        <time>2014-04-13T07:57:19Z</time>
      </trkpt>
      <trkpt lat="43.62589" lon="6.80271">
        <ele>151.3</ele>
        <time>2014-04-13T07:57:29Z</time>
      </trkpt>
      <trkpt lat="43.62585" lon="6.80262">
        <ele>150.6</ele>
        <time>2014-04-13T07:57:43Z</time>
      </trkpt>
      <trkpt lat="43.62585" lon="6.8025">
        <ele>150.4</ele>
        <time>2014-04-13T07:57:57Z</time>
      </trkpt>
      <trkpt lat="43.62585" lon="6.80249">
        <ele>150.1</ele>
        <time>2014-04-13T07:57:58Z</time>
      </trkpt>
      <trkpt lat="43.62591" lon="6.80228">
        <ele>150.1</ele>
        <time>2014-04-13T07:58:22Z</time>
      </trkpt>
      <trkpt lat="43.62595" lon="6.80217">
        <ele>149.1</ele>
        <time>2014-04-13T07:59:15Z</time>
      </trkpt>
      <trkpt lat="43.62595" lon="6.80217">
        <ele>148.9</ele>
        <time>2014-04-13T07:59:16Z</time>
      </trkpt>
      <trkpt lat="43.62603" lon="6.80198">
        <ele>149.4</ele>
        <time>2014-04-13T07:59:36Z</time>
      </trkpt>
      <trkpt lat="43.62607" lon="6.80187">
        <ele>150.3</ele>
        <time>2014-04-13T07:59:42Z</time>
      </trkpt>
      <trkpt lat="43.62609" lon="6.80177">
        <ele>150.9</ele>
        <time>2014-04-13T07:59:48Z</time>
      </trkpt>
      <trkpt lat="43.62613" lon="6.80167">
        <ele>151.1</ele>
        <time>2014-04-13T07:59:55Z</time>
      </trkpt>
      <trkpt lat="43.62615" lon="6.80157">
        <ele>150.7</ele>
        <time>2014-04-13T08:00:03Z</time>
      </trkpt>
      <trkpt lat="43.62615" lon="6.80145">
        <ele>150.5</ele>
        <time>2014-04-13T08:00:12Z</time>
      </trkpt>
      <trkpt lat="43.62616" lon="6.80134">
        <ele>150.7</ele>
        <time>2014-04-13T08:00:20Z</time>
      </trkpt>
      <trkpt lat="43.62615" lon="6.80133">
        <ele>150.9</ele>
        <time>2014-04-13T08:00:21Z</time>
      </trkpt>
      <trkpt lat="43.62619" lon="6.80112">
        <ele>150.9</ele>
        <time>2014-04-13T08:00:34Z</time>
      </trkpt>
      <trkpt lat="43.62621" lon="6.801">
        <ele>150.5</ele>
        <time>2014-04-13T08:00:45Z</time>
      </trkpt>
      <trkpt lat="43.62624" lon="6.80089">
        <ele>150.4</ele>
        <time>2014-04-13T08:01:06Z</time>
      </trkpt>
      <trkpt lat="43.62626" lon="6.80078">
        <ele>150.2</ele>
        <time>2014-04-13T08:01:27Z</time>
      </trkpt>
      <trkpt lat="43.62626" lon="6.80077">
        <ele>150.3</ele>
        <time>2014-04-13T08:01:28Z</time>
      </trkpt>
      <trkpt lat="43.6263" lon="6.80056">
        <ele>150.6</ele>
        <time>2014-04-13T08:02:14Z</time>
      </trkpt>
      <trkpt lat="43.62634" lon="6.80045">
        <ele>150.3</ele>
        <time>2014-04-13T08:02:24Z</time>
      </trkpt>
      <trkpt lat="43.62637" lon="6.80034">
        <ele>151.1</ele>
        <time>2014-04-13T08:02:33Z</time>
      </trkpt>
      <trkpt lat="43.62637" lon="6.80033">
        <ele>150.9</ele>
        <time>2014-04-13T08:02:34Z</time>
      </trkpt>
      <trkpt lat="43.62647" lon="6.80015">
        <ele>151.1</ele>
        <time>2014-04-13T08:02:53Z</time>
      </trkpt>
      <trkpt lat="43.62649" lon="6.80004">
        <ele>151</ele>
        <time>2014-04-13T08:03:30Z</time>
      </trkpt>
      <trkpt lat="43.62656" lon="6.79997">
        <ele>150.6</ele>
        <time>2014-04-13T08:03:38Z</time>
      </trkpt>
      <trkpt lat="43.62657" lon="6.79996">
        <ele>150.9</ele>
        <time>2014-04-13T08:03:39Z</time>
      </trkpt>
      <trkpt lat="43.62669" lon="6.79981">
        <ele>149.7</ele>
        <time>2014-04-13T08:04:00Z</time>
      </trkpt>
      <trkpt lat="43.62675" lon="6.79972">
        <ele>149.8</ele>
        <time>2014-04-13T08:04:17Z</time>
      </trkpt>
      <trkpt lat="43.62684" lon="6.79973">
        <ele>150.6</ele>
        <time>2014-04-13T08:07:17Z</time>
      </trkpt>
      <trkpt lat="43.62685" lon="6.79974">
        <ele>150.4</ele>
        <time>2014-04-13T08:07:18Z</time>
      </trkpt>
      <trkpt lat="43.62674" lon="6.79974">
        <ele>148.4</ele>
        <time>2014-04-13T08:08:34Z</time>
      </trkpt>
      <trkpt lat="43.62687" lon="6.79958">
        <ele>148.3</ele>
        <time>2014-04-13T08:09:31Z</time>
      </trkpt>
      <trkpt lat="43.62692" lon="6.79949">
        <ele>149.1</ele>
        <time>2014-04-13T08:09:40Z</time>
      </trkpt>
      <trkpt lat="43.62693" lon="6.79948">
        <ele>149.1</ele>
        <time>2014-04-13T08:09:41Z</time>
      </trkpt>
      <trkpt lat="43.62698" lon="6.79927">
        <ele>149.8</ele>
        <time>2014-04-13T08:09:57Z</time>
      </trkpt>
      <trkpt lat="43.627" lon="6.79915">
        <ele>149.6</ele>
        <time>2014-04-13T08:10:06Z</time>
      </trkpt>
      <trkpt lat="43.62702" lon="6.79904">
        <ele>149.5</ele>
        <time>2014-04-13T08:10:13Z</time>
      </trkpt>
      <trkpt lat="43.62705" lon="6.79893">
        <ele>149.6</ele>
        <time>2014-04-13T08:10:21Z</time>
      </trkpt>
      <trkpt lat="43.6271" lon="6.79884">
        <ele>149.8</ele>
        <time>2014-04-13T08:10:28Z</time>
      </trkpt>
      <trkpt lat="43.62718" lon="6.79882">
        <ele>150.3</ele>
        <time>2014-04-13T08:10:45Z</time>
      </trkpt>
      <trkpt lat="43.62719" lon="6.79882">
        <ele>149.8</ele>
        <time>2014-04-13T08:10:46Z</time>
      </trkpt>
      <trkpt lat="43.62734" lon="6.79875">
        <ele>150.8</ele>
        <time>2014-04-13T08:11:00Z</time>
      </trkpt>
      <trkpt lat="43.62743" lon="6.79874">
        <ele>150.9</ele>
        <time>2014-04-13T08:11:11Z</time>
      </trkpt>
      <trkpt lat="43.62751" lon="6.79869">
        <ele>150.1</ele>
        <time>2014-04-13T08:11:19Z</time>
      </trkpt>
      <trkpt lat="43.62758" lon="6.79864">
        <ele>150</ele>
        <time>2014-04-13T08:11:26Z</time>
      </trkpt>
      <trkpt lat="43.62765" lon="6.79857">
        <ele>150.7</ele>
        <time>2014-04-13T08:11:34Z</time>
      </trkpt>
      <trkpt lat="43.62771" lon="6.79849">
        <ele>149.4</ele>
        <time>2014-04-13T08:11:40Z</time>
      </trkpt>
      <trkpt lat="43.62775" lon="6.7984">
        <ele>149.6</ele>
        <time>2014-04-13T08:11:46Z</time>
      </trkpt>
      <trkpt lat="43.62776" lon="6.79838">
        <ele>149.7</ele>
        <time>2014-04-13T08:11:47Z</time>
      </trkpt>
      <trkpt lat="43.62778" lon="6.79819">
        <ele>150.2</ele>
        <time>2014-04-13T08:12:05Z</time>
      </trkpt>
      <trkpt lat="43.62782" lon="6.79808">
        <ele>150</ele>
        <time>2014-04-13T08:12:12Z</time>
      </trkpt>
      <trkpt lat="43.62785" lon="6.79798">
        <ele>150.5</ele>
        <time>2014-04-13T08:12:19Z</time>
      </trkpt>
      <trkpt lat="43.6279" lon="6.79789">
        <ele>149.9</ele>
        <time>2014-04-13T08:12:27Z</time>
      </trkpt>
      <trkpt lat="43.62798" lon="6.79783">
        <ele>150.6</ele>
        <time>2014-04-13T08:12:35Z</time>
      </trkpt>
      <trkpt lat="43.62805" lon="6.79782">
        <ele>151.3</ele>
        <time>2014-04-13T08:12:43Z</time>
      </trkpt>
      <trkpt lat="43.62814" lon="6.79784">
        <ele>150.1</ele>
        <time>2014-04-13T08:12:51Z</time>
      </trkpt>
      <trkpt lat="43.62815" lon="6.79786">
        <ele>150.2</ele>
        <time>2014-04-13T08:12:52Z</time>
      </trkpt>
      <trkpt lat="43.6283" lon="6.79776">
        <ele>150.1</ele>
        <time>2014-04-13T08:13:06Z</time>
      </trkpt>
      <trkpt lat="43.62837" lon="6.7977">
        <ele>150.4</ele>
        <time>2014-04-13T08:13:11Z</time>
      </trkpt>
      <trkpt lat="43.62846" lon="6.7977">
        <ele>150.4</ele>
        <time>2014-04-13T08:13:18Z</time>
      </trkpt>
      <trkpt lat="43.62854" lon="6.79765">
        <ele>149.5</ele>
        <time>2014-04-13T08:13:24Z</time>
      </trkpt>
      <trkpt lat="43.62862" lon="6.79763">
        <ele>150.9</ele>
        <time>2014-04-13T08:13:33Z</time>
      </trkpt>
      <trkpt lat="43.6287" lon="6.79759">
        <ele>150</ele>
        <time>2014-04-13T08:13:39Z</time>
      </trkpt>
      <trkpt lat="43.62879" lon="6.79759">
        <ele>150.8</ele>
        <time>2014-04-13T08:13:47Z</time>
      </trkpt>
      <trkpt lat="43.62887" lon="6.79754">
        <ele>150.9</ele>
        <time>2014-04-13T08:13:54Z</time>
      </trkpt>
      <trkpt lat="43.62888" lon="6.79753">
        <ele>150.9</ele>
        <time>2014-04-13T08:13:55Z</time>
      </trkpt>
      <trkpt lat="43.629" lon="6.79742">
        <ele>151.6</ele>
        <time>2014-04-13T08:14:04Z</time>
      </trkpt>
      <trkpt lat="43.62908" lon="6.79737">
        <ele>149.9</ele>
        <time>2014-04-13T08:14:11Z</time>
      </trkpt>
      <trkpt lat="43.62915" lon="6.7973">
        <ele>150.2</ele>
        <time>2014-04-13T08:14:16Z</time>
      </trkpt>
      <trkpt lat="43.62922" lon="6.79723">
        <ele>150</ele>
        <time>2014-04-13T08:14:22Z</time>
      </trkpt>
      <trkpt lat="43.62929" lon="6.79718">
        <ele>151.3</ele>
        <time>2014-04-13T08:14:30Z</time>
      </trkpt>
      <trkpt lat="43.62936" lon="6.79712">
        <ele>150.2</ele>
        <time>2014-04-13T08:14:36Z</time>
      </trkpt>
      <trkpt lat="43.62943" lon="6.79706">
        <ele>150.5</ele>
        <time>2014-04-13T08:14:42Z</time>
      </trkpt>
      <trkpt lat="43.62948" lon="6.79697">
        <ele>149.3</ele>
        <time>2014-04-13T08:14:48Z</time>
      </trkpt>
      <trkpt lat="43.62952" lon="6.79689">
        <ele>149.8</ele>
        <time>2014-04-13T08:14:54Z</time>
      </trkpt>
      <trkpt lat="43.62959" lon="6.79681">
        <ele>150.3</ele>
        <time>2014-04-13T08:15:02Z</time>
      </trkpt>
      <trkpt lat="43.62959" lon="6.7968">
        <ele>150.7</ele>
        <time>2014-04-13T08:15:03Z</time>
      </trkpt>
      <trkpt lat="43.6297" lon="6.79664">
        <ele>150.3</ele>
        <time>2014-04-13T08:15:14Z</time>
      </trkpt>
      <trkpt lat="43.62978" lon="6.79658">
        <ele>150.7</ele>
        <time>2014-04-13T08:15:23Z</time>
      </trkpt>
      <trkpt lat="43.62986" lon="6.79654">
        <ele>151.1</ele>
        <time>2014-04-13T08:15:31Z</time>
      </trkpt>
      <trkpt lat="43.62993" lon="6.79649">
        <ele>150.6</ele>
        <time>2014-04-13T08:15:37Z</time>
      </trkpt>
      <trkpt lat="43.63001" lon="6.79644">
        <ele>151.3</ele>
        <time>2014-04-13T08:15:44Z</time>
      </trkpt>
      <trkpt lat="43.63009" lon="6.79637">
        <ele>151</ele>
        <time>2014-04-13T08:15:51Z</time>
      </trkpt>
      <trkpt lat="43.63016" lon="6.79632">
        <ele>150.2</ele>
        <time>2014-04-13T08:15:58Z</time>
      </trkpt>
      <trkpt lat="43.63024" lon="6.79628">
        <ele>150.7</ele>
        <time>2014-04-13T08:16:06Z</time>
      </trkpt>
      <trkpt lat="43.63026" lon="6.79628">
        <ele>151</ele>
        <time>2014-04-13T08:16:07Z</time>
      </trkpt>
      <trkpt lat="43.63038" lon="6.79617">
        <ele>151.4</ele>
        <time>2014-04-13T08:16:19Z</time>
      </trkpt>
      <trkpt lat="43.63044" lon="6.79609">
        <ele>151.6</ele>
        <time>2014-04-13T08:16:25Z</time>
      </trkpt>
      <trkpt lat="43.63052" lon="6.79605">
        <ele>151.6</ele>
        <time>2014-04-13T08:16:33Z</time>
      </trkpt>
      <trkpt lat="43.6306" lon="6.796">
        <ele>152.4</ele>
        <time>2014-04-13T08:16:41Z</time>
      </trkpt>
      <trkpt lat="43.63068" lon="6.79594">
        <ele>151.5</ele>
        <time>2014-04-13T08:16:47Z</time>
      </trkpt>
      <trkpt lat="43.63075" lon="6.7959">
        <ele>151.7</ele>
        <time>2014-04-13T08:16:54Z</time>
      </trkpt>
      <trkpt lat="43.63083" lon="6.79588">
        <ele>151.2</ele>
        <time>2014-04-13T08:17:00Z</time>
      </trkpt>
      <trkpt lat="43.63092" lon="6.79591">
        <ele>152</ele>
        <time>2014-04-13T08:17:09Z</time>
      </trkpt>
      <trkpt lat="43.63093" lon="6.79591">
        <ele>152.3</ele>
        <time>2014-04-13T08:17:10Z</time>
      </trkpt>
      <trkpt lat="43.63106" lon="6.79602">
        <ele>151.3</ele>
        <time>2014-04-13T08:17:22Z</time>
      </trkpt>
      <trkpt lat="43.63114" lon="6.79605">
        <ele>151.5</ele>
        <time>2014-04-13T08:17:32Z</time>
      </trkpt>
      <trkpt lat="43.6312" lon="6.79614">
        <ele>151.8</ele>
        <time>2014-04-13T08:17:39Z</time>
      </trkpt>
      <trkpt lat="43.63129" lon="6.79618">
        <ele>152.7</ele>
        <time>2014-04-13T08:17:48Z</time>
      </trkpt>
      <trkpt lat="43.63137" lon="6.79616">
        <ele>153.2</ele>
        <time>2014-04-13T08:17:54Z</time>
      </trkpt>
      <trkpt lat="43.63145" lon="6.79615">
        <ele>153.1</ele>
        <time>2014-04-13T08:18:01Z</time>
      </trkpt>
      <trkpt lat="43.63154" lon="6.79611">
        <ele>152.3</ele>
        <time>2014-04-13T08:18:08Z</time>
      </trkpt>
      <trkpt lat="43.63161" lon="6.79605">
        <ele>152.7</ele>
        <time>2014-04-13T08:18:14Z</time>
      </trkpt>
      <trkpt lat="43.63162" lon="6.79604">
        <ele>152.6</ele>
        <time>2014-04-13T08:18:15Z</time>
      </trkpt>
      <trkpt lat="43.63174" lon="6.7959">
        <ele>153.7</ele>
        <time>2014-04-13T08:18:27Z</time>
      </trkpt>
      <trkpt lat="43.63181" lon="6.79582">
        <ele>153.5</ele>
        <time>2014-04-13T08:18:45Z</time>
      </trkpt>
      <trkpt lat="43.63187" lon="6.79574">
        <ele>153.3</ele>
        <time>2014-04-13T08:20:15Z</time>
      </trkpt>
      <trkpt lat="43.63187" lon="6.79572">
        <ele>153.4</ele>
        <time>2014-04-13T08:20:16Z</time>
      </trkpt>
      <trkpt lat="43.63199" lon="6.79558">
        <ele>153.5</ele>
        <time>2014-04-13T08:20:35Z</time>
      </trkpt>
      <trkpt lat="43.63204" lon="6.7955">
        <ele>152.8</ele>
        <time>2014-04-13T08:20:42Z</time>
      </trkpt>
      <trkpt lat="43.63209" lon="6.7954">
        <ele>153.8</ele>
        <time>2014-04-13T08:20:51Z</time>
      </trkpt>
      <trkpt lat="43.63216" lon="6.79534">
        <ele>153.6</ele>
        <time>2014-04-13T08:21:01Z</time>
      </trkpt>
      <trkpt lat="43.63223" lon="6.79526">
        <ele>153.3</ele>
        <time>2014-04-13T08:21:10Z</time>
      </trkpt>
      <trkpt lat="43.6323" lon="6.79518">
        <ele>153.8</ele>
        <time>2014-04-13T08:21:18Z</time>
      </trkpt>
      <trkpt lat="43.63231" lon="6.79518">
        <ele>153.5</ele>
        <time>2014-04-13T08:21:19Z</time>
      </trkpt>
      <trkpt lat="43.63242" lon="6.79503">
        <ele>152.5</ele>
        <time>2014-04-13T08:21:32Z</time>
      </trkpt>
      <trkpt lat="43.63247" lon="6.79493">
        <ele>152.3</ele>
        <time>2014-04-13T08:21:38Z</time>
      </trkpt>
      <trkpt lat="43.63251" lon="6.79482">
        <ele>153.1</ele>
        <time>2014-04-13T08:21:45Z</time>
      </trkpt>
      <trkpt lat="43.63255" lon="6.79473">
        <ele>154.4</ele>
        <time>2014-04-13T08:21:52Z</time>
      </trkpt>
      <trkpt lat="43.63259" lon="6.79462">
        <ele>153.7</ele>
        <time>2014-04-13T08:21:59Z</time>
      </trkpt>
      <trkpt lat="43.63263" lon="6.79452">
        <ele>153.6</ele>
        <time>2014-04-13T08:22:05Z</time>
      </trkpt>
      <trkpt lat="43.63267" lon="6.79441">
        <ele>153.8</ele>
        <time>2014-04-13T08:22:14Z</time>
      </trkpt>
      <trkpt lat="43.63269" lon="6.7943">
        <ele>154.2</ele>
        <time>2014-04-13T08:22:25Z</time>
      </trkpt>
      <trkpt lat="43.63269" lon="6.79428">
        <ele>154.6</ele>
        <time>2014-04-13T08:22:26Z</time>
      </trkpt>
      <trkpt lat="43.63267" lon="6.79406">
        <ele>154.4</ele>
        <time>2014-04-13T08:22:40Z</time>
      </trkpt>
      <trkpt lat="43.63268" lon="6.79396">
        <ele>154.7</ele>
        <time>2014-04-13T08:22:47Z</time>
      </trkpt>
      <trkpt lat="43.6327" lon="6.79385">
        <ele>156</ele>
        <time>2014-04-13T08:22:54Z</time>
      </trkpt>
      <trkpt lat="43.63274" lon="6.79375">
        <ele>155.9</ele>
        <time>2014-04-13T08:23:00Z</time>
      </trkpt>
      <trkpt lat="43.63277" lon="6.79364">
        <ele>156.4</ele>
        <time>2014-04-13T08:23:09Z</time>
      </trkpt>
      <trkpt lat="43.63285" lon="6.79362">
        <ele>156.1</ele>
        <time>2014-04-13T08:23:21Z</time>
      </trkpt>
      <trkpt lat="43.63285" lon="6.7935">
        <ele>156.1</ele>
        <time>2014-04-13T08:23:34Z</time>
      </trkpt>
      <trkpt lat="43.63285" lon="6.79349">
        <ele>156.3</ele>
        <time>2014-04-13T08:23:35Z</time>
      </trkpt>
      <trkpt lat="43.63277" lon="6.79336">
        <ele>157.1</ele>
        <time>2014-04-13T08:25:53Z</time>
      </trkpt>
      <trkpt lat="43.63276" lon="6.79336">
        <ele>156.5</ele>
        <time>2014-04-13T08:25:54Z</time>
      </trkpt>
      <trkpt lat="43.63269" lon="6.79314">
        <ele>156.8</ele>
        <time>2014-04-13T08:26:47Z</time>
      </trkpt>
      <trkpt lat="43.63266" lon="6.79303">
        <ele>156.5</ele>
        <time>2014-04-13T08:27:28Z</time>
      </trkpt>
      <trkpt lat="43.63266" lon="6.79302">
        <ele>156.2</ele>
        <time>2014-04-13T08:27:29Z</time>
      </trkpt>
      <trkpt lat="43.63268" lon="6.79279">
        <ele>156</ele>
        <time>2014-04-13T08:27:45Z</time>
      </trkpt>
      <trkpt lat="43.6327" lon="6.79269">
        <ele>156.2</ele>
        <time>2014-04-13T08:27:53Z</time>
      </trkpt>
      <trkpt lat="43.63277" lon="6.79263">
        <ele>155.6</ele>
        <time>2014-04-13T08:27:57Z</time>
      </trkpt>
      <trkpt lat="43.63278" lon="6.79251">
        <ele>156.3</ele>
        <time>2014-04-13T08:28:07Z</time>
      </trkpt>
      <trkpt lat="43.6328" lon="6.7924">
        <ele>155.9</ele>
        <time>2014-04-13T08:28:16Z</time>
      </trkpt>
      <trkpt lat="43.63283" lon="6.79231">
        <ele>155.9</ele>
        <time>2014-04-13T08:28:22Z</time>
      </trkpt>
      <trkpt lat="43.63286" lon="6.79219">
        <ele>156.1</ele>
        <time>2014-04-13T08:28:31Z</time>
      </trkpt>
      <trkpt lat="43.63287" lon="6.79218">
        <ele>156.2</ele>
        <time>2014-04-13T08:28:32Z</time>
      </trkpt>
      <trkpt lat="43.63301" lon="6.79206">
        <ele>156.3</ele>
        <time>2014-04-13T08:28:54Z</time>
      </trkpt>
      <trkpt lat="43.63309" lon="6.79201">
        <ele>156.9</ele>
        <time>2014-04-13T08:29:26Z</time>
      </trkpt>
      <trkpt lat="43.63316" lon="6.79194">
        <ele>156.5</ele>
        <time>2014-04-13T08:29:32Z</time>
      </trkpt>
      <trkpt lat="43.63317" lon="6.79193">
        <ele>156.6</ele>
        <time>2014-04-13T08:29:33Z</time>
      </trkpt>
      <trkpt lat="43.6333" lon="6.7918">
        <ele>157.2</ele>
        <time>2014-04-13T08:30:04Z</time>
      </trkpt>
      <trkpt lat="43.6333" lon="6.79168">
        <ele>158.2</ele>
        <time>2014-04-13T08:30:17Z</time>
      </trkpt>
      <trkpt lat="43.63322" lon="6.7917">
        <ele>158.8</ele>
        <time>2014-04-13T08:30:42Z</time>
      </trkpt>
      <trkpt lat="43.63322" lon="6.7917">
        <ele>158.1</ele>
        <time>2014-04-13T08:30:43Z</time>
      </trkpt>
      <trkpt lat="43.63336" lon="6.79184">
        <ele>155.6</ele>
        <time>2014-04-13T08:31:21Z</time>
      </trkpt>
      <trkpt lat="43.63343" lon="6.79188">
        <ele>155.2</ele>
        <time>2014-04-13T08:31:28Z</time>
      </trkpt>
      <trkpt lat="43.63351" lon="6.79195">
        <ele>155.8</ele>
        <time>2014-04-13T08:31:36Z</time>
      </trkpt>
      <trkpt lat="43.63358" lon="6.79199">
        <ele>155.5</ele>
        <time>2014-04-13T08:31:42Z</time>
      </trkpt>
      <trkpt lat="43.63366" lon="6.79196">
        <ele>154.8</ele>
        <time>2014-04-13T08:31:48Z</time>
      </trkpt>
      <trkpt lat="43.63368" lon="6.79196">
        <ele>154.8</ele>
        <time>2014-04-13T08:31:49Z</time>
      </trkpt>
      <trkpt lat="43.63383" lon="6.79192">
        <ele>155.6</ele>
        <time>2014-04-13T08:32:00Z</time>
      </trkpt>
      <trkpt lat="43.63391" lon="6.79189">
        <ele>156.3</ele>
        <time>2014-04-13T08:32:09Z</time>
      </trkpt>
      <trkpt lat="43.63399" lon="6.79192">
        <ele>156.7</ele>
        <time>2014-04-13T08:32:20Z</time>
      </trkpt>
      <trkpt lat="43.63408" lon="6.79188">
        <ele>155.7</ele>
        <time>2014-04-13T08:32:31Z</time>
      </trkpt>
      <trkpt lat="43.63416" lon="6.7919">
        <ele>155.7</ele>
        <time>2014-04-13T08:32:52Z</time>
      </trkpt>
      <trkpt lat="43.63417" lon="6.79191">
        <ele>156.2</ele>
        <time>2014-04-13T08:32:53Z</time>
      </trkpt>
      <trkpt lat="43.63429" lon="6.79204">
        <ele>155.5</ele>
        <time>2014-04-13T08:33:07Z</time>
      </trkpt>
      <trkpt lat="43.63436" lon="6.7921">
        <ele>156.3</ele>
        <time>2014-04-13T08:33:15Z</time>
      </trkpt>
      <trkpt lat="43.63442" lon="6.79217">
        <ele>156.9</ele>
        <time>2014-04-13T08:33:22Z</time>
      </trkpt>
      <trkpt lat="43.63448" lon="6.79225">
        <ele>155.8</ele>
        <time>2014-04-13T08:33:27Z</time>
      </trkpt>
      <trkpt lat="43.63455" lon="6.79231">
        <ele>156.2</ele>
        <time>2014-04-13T08:33:36Z</time>
      </trkpt>
      <trkpt lat="43.63462" lon="6.79238">
        <ele>156.2</ele>
        <time>2014-04-13T08:33:43Z</time>
      </trkpt>
      <trkpt lat="43.63469" lon="6.7924">
        <ele>155.3</ele>
        <time>2014-04-13T08:33:50Z</time>
      </trkpt>
      <trkpt lat="43.63477" lon="6.79246">
        <ele>154.9</ele>
        <time>2014-04-13T08:34:25Z</time>
      </trkpt>
      <trkpt lat="43.63478" lon="6.79246">
        <ele>155.1</ele>
        <time>2014-04-13T08:34:26Z</time>
      </trkpt>
      <trkpt lat="43.63491" lon="6.79255">
        <ele>156.3</ele>
        <time>2014-04-13T08:34:40Z</time>
      </trkpt>
      <trkpt lat="43.63499" lon="6.79259">
        <ele>155.6</ele>
        <time>2014-04-13T08:34:58Z</time>
      </trkpt>
      <trkpt lat="43.63504" lon="6.79268">
        <ele>156.6</ele>
        <time>2014-04-13T08:35:07Z</time>
      </trkpt>
      <trkpt lat="43.63512" lon="6.79273">
        <ele>156.5</ele>
        <time>2014-04-13T08:35:16Z</time>
      </trkpt>
      <trkpt lat="43.6352" lon="6.79271">
        <ele>156</ele>
        <time>2014-04-13T08:35:21Z</time>
      </trkpt>
      <trkpt lat="43.63525" lon="6.7928">
        <ele>156.3</ele>
        <time>2014-04-13T08:35:25Z</time>
      </trkpt>
      <trkpt lat="43.63533" lon="6.79284">
        <ele>156.2</ele>
        <time>2014-04-13T08:35:31Z</time>
      </trkpt>
      <trkpt lat="43.63533" lon="6.79286">
        <ele>156.3</ele>
        <time>2014-04-13T08:35:32Z</time>
      </trkpt>
      <trkpt lat="43.63546" lon="6.79298">
        <ele>155.1</ele>
        <time>2014-04-13T08:35:45Z</time>
      </trkpt>
      <trkpt lat="43.63554" lon="6.79303">
        <ele>155.2</ele>
        <time>2014-04-13T08:35:51Z</time>
      </trkpt>
      <trkpt lat="43.63559" lon="6.79312">
        <ele>155.2</ele>
        <time>2014-04-13T08:35:57Z</time>
      </trkpt>
      <trkpt lat="43.63567" lon="6.79318">
        <ele>155.3</ele>
        <time>2014-04-13T08:36:06Z</time>
      </trkpt>
      <trkpt lat="43.63573" lon="6.79325">
        <ele>154.5</ele>
        <time>2014-04-13T08:36:11Z</time>
      </trkpt>
      <trkpt lat="43.6358" lon="6.79333">
        <ele>154.3</ele>
        <time>2014-04-13T08:36:18Z</time>
      </trkpt>
      <trkpt lat="43.63586" lon="6.7934">
        <ele>154.9</ele>
        <time>2014-04-13T08:36:22Z</time>
      </trkpt>
      <trkpt lat="43.63593" lon="6.79347">
        <ele>154.9</ele>
        <time>2014-04-13T08:36:29Z</time>
      </trkpt>
      <trkpt lat="43.636" lon="6.79355">
        <ele>155.5</ele>
        <time>2014-04-13T08:36:34Z</time>
      </trkpt>
      <trkpt lat="43.63601" lon="6.79357">
        <ele>155.4</ele>
        <time>2014-04-13T08:36:35Z</time>
      </trkpt>
      <trkpt lat="43.63615" lon="6.79364">
        <ele>154.7</ele>
        <time>2014-04-13T08:36:47Z</time>
      </trkpt>
      <trkpt lat="43.6362" lon="6.79372">
        <ele>154.1</ele>
        <time>2014-04-13T08:36:52Z</time>
      </trkpt>
      <trkpt lat="43.63625" lon="6.7938">
        <ele>155.1</ele>
        <time>2014-04-13T08:36:59Z</time>
      </trkpt>
      <trkpt lat="43.63631" lon="6.79387">
        <ele>154.9</ele>
        <time>2014-04-13T08:37:06Z</time>
      </trkpt>
      <trkpt lat="43.63639" lon="6.79393">
        <ele>154.6</ele>
        <time>2014-04-13T08:37:12Z</time>
      </trkpt>
      <trkpt lat="43.63646" lon="6.79399">
        <ele>154.6</ele>
        <time>2014-04-13T08:37:19Z</time>
      </trkpt>
      <trkpt lat="43.63654" lon="6.79402">
        <ele>154.2</ele>
        <time>2014-04-13T08:37:26Z</time>
      </trkpt>
      <trkpt lat="43.63662" lon="6.794">
        <ele>154.8</ele>
        <time>2014-04-13T08:37:33Z</time>
      </trkpt>
      <trkpt lat="43.6367" lon="6.79402">
        <ele>154.8</ele>
        <time>2014-04-13T08:37:37Z</time>
      </trkpt>
      <trkpt lat="43.63672" lon="6.79401">
        <ele>154.8</ele>
        <time>2014-04-13T08:37:38Z</time>
      </trkpt>
      <trkpt lat="43.63685" lon="6.79394">
        <ele>155.7</ele>
        <time>2014-04-13T08:37:48Z</time>
      </trkpt>
      <trkpt lat="43.63692" lon="6.7939">
        <ele>155.7</ele>
        <time>2014-04-13T08:37:53Z</time>
      </trkpt>
      <trkpt lat="43.63699" lon="6.79385">
        <ele>155</ele>
        <time>2014-04-13T08:38:00Z</time>
      </trkpt>
      <trkpt lat="43.63697" lon="6.79396">
        <ele>152.4</ele>
        <time>2014-04-13T08:38:31Z</time>
      </trkpt>
      <trkpt lat="43.63691" lon="6.79406">
        <ele>154.4</ele>
        <time>2014-04-13T08:38:41Z</time>
      </trkpt>
      <trkpt lat="43.63691" lon="6.79407">
        <ele>154.2</ele>
        <time>2014-04-13T08:38:42Z</time>
      </trkpt>
      <trkpt lat="43.63705" lon="6.79392">
        <ele>154.4</ele>
        <time>2014-04-13T08:39:04Z</time>
      </trkpt>
      <trkpt lat="43.63713" lon="6.79387">
        <ele>154.2</ele>
        <time>2014-04-13T08:39:11Z</time>
      </trkpt>
      <trkpt lat="43.6372" lon="6.79383">
        <ele>155.2</ele>
        <time>2014-04-13T08:39:18Z</time>
      </trkpt>
      <trkpt lat="43.63726" lon="6.79375">
        <ele>155.8</ele>
        <time>2014-04-13T08:39:31Z</time>
      </trkpt>
      <trkpt lat="43.63734" lon="6.79378">
        <ele>156.3</ele>
        <time>2014-04-13T08:39:58Z</time>
      </trkpt>
      <trkpt lat="43.63735" lon="6.79379">
        <ele>156.2</ele>
        <time>2014-04-13T08:39:59Z</time>
      </trkpt>
      <trkpt lat="43.6375" lon="6.79381">
        <ele>160.7</ele>
        <time>2014-04-13T08:40:16Z</time>
      </trkpt>
      <trkpt lat="43.63757" lon="6.79377">
        <ele>160.7</ele>
        <time>2014-04-13T08:40:24Z</time>
      </trkpt>
      <trkpt lat="43.63765" lon="6.79378">
        <ele>160.7</ele>
        <time>2014-04-13T08:40:29Z</time>
      </trkpt>
      <trkpt lat="43.63772" lon="6.79377">
        <ele>160.9</ele>
        <time>2014-04-13T08:40:34Z</time>
      </trkpt>
      <trkpt lat="43.6378" lon="6.79375">
        <ele>160.1</ele>
        <time>2014-04-13T08:40:44Z</time>
      </trkpt>
      <trkpt lat="43.63787" lon="6.79369">
        <ele>160.9</ele>
        <time>2014-04-13T08:40:50Z</time>
      </trkpt>
      <trkpt lat="43.63795" lon="6.7937">
        <ele>160.3</ele>
        <time>2014-04-13T08:40:58Z</time>
      </trkpt>
      <trkpt lat="43.63803" lon="6.79368">
        <ele>158.8</ele>
        <time>2014-04-13T08:41:05Z</time>
      </trkpt>
      <trkpt lat="43.63805" lon="6.79369">
        <ele>158.9</ele>
        <time>2014-04-13T08:41:06Z</time>
      </trkpt>
      <trkpt lat="43.63819" lon="6.79375">
        <ele>158.9</ele>
        <time>2014-04-13T08:41:17Z</time>
      </trkpt>
      <trkpt lat="43.63826" lon="6.79371">
        <ele>158.6</ele>
        <time>2014-04-13T08:41:23Z</time>
      </trkpt>
      <trkpt lat="43.63835" lon="6.79368">
        <ele>159.1</ele>
        <time>2014-04-13T08:41:28Z</time>
      </trkpt>
      <trkpt lat="43.63843" lon="6.79365">
        <ele>159.5</ele>
        <time>2014-04-13T08:41:35Z</time>
      </trkpt>
      <trkpt lat="43.6385" lon="6.79363">
        <ele>158.9</ele>
        <time>2014-04-13T08:41:42Z</time>
      </trkpt>
      <trkpt lat="43.63858" lon="6.79361">
        <ele>159.1</ele>
        <time>2014-04-13T08:41:49Z</time>
      </trkpt>
      <trkpt lat="43.63866" lon="6.79356">
        <ele>157.9</ele>
        <time>2014-04-13T08:41:55Z</time>
      </trkpt>
      <trkpt lat="43.63875" lon="6.79355">
        <ele>157.4</ele>
        <time>2014-04-13T08:42:01Z</time>
      </trkpt>
      <trkpt lat="43.63883" lon="6.79357">
        <ele>157.5</ele>
        <time>2014-04-13T08:42:09Z</time>
      </trkpt>
      <trkpt lat="43.63884" lon="6.79358">
        <ele>157.2</ele>
        <time>2014-04-13T08:42:10Z</time>
      </trkpt>
      <trkpt lat="43.63897" lon="6.79353">
        <ele>157.4</ele>
        <time>2014-04-13T08:42:22Z</time>
      </trkpt>
      <trkpt lat="43.63904" lon="6.79349">
        <ele>156.9</ele>
        <time>2014-04-13T08:42:29Z</time>
      </trkpt>
      <trkpt lat="43.63911" lon="6.79343">
        <ele>157.1</ele>
        <time>2014-04-13T08:42:35Z</time>
      </trkpt>
      <trkpt lat="43.63918" lon="6.79346">
        <ele>156.9</ele>
        <time>2014-04-13T08:42:41Z</time>
      </trkpt>
      <trkpt lat="43.63927" lon="6.79342">
        <ele>156.2</ele>
        <time>2014-04-13T08:42:48Z</time>
      </trkpt>
      <trkpt lat="43.63935" lon="6.79341">
        <ele>156</ele>
        <time>2014-04-13T08:42:56Z</time>
      </trkpt>
      <trkpt lat="43.63944" lon="6.79343">
        <ele>156.7</ele>
        <time>2014-04-13T08:43:06Z</time>
      </trkpt>
      <trkpt lat="43.63952" lon="6.79339">
        <ele>156.8</ele>
        <time>2014-04-13T08:43:14Z</time>
      </trkpt>
      <trkpt lat="43.63953" lon="6.79339">
        <ele>156.4</ele>
        <time>2014-04-13T08:43:15Z</time>
      </trkpt>
      <trkpt lat="43.63969" lon="6.79334">
        <ele>155.3</ele>
        <time>2014-04-13T08:43:32Z</time>
      </trkpt>
      <trkpt lat="43.63976" lon="6.79328">
        <ele>156.2</ele>
        <time>2014-04-13T08:43:38Z</time>
      </trkpt>
      <trkpt lat="43.63982" lon="6.79322">
        <ele>156.2</ele>
        <time>2014-04-13T08:43:45Z</time>
      </trkpt>
      <trkpt lat="43.63988" lon="6.79313">
        <ele>157.6</ele>
        <time>2014-04-13T08:43:51Z</time>
      </trkpt>
      <trkpt lat="43.63996" lon="6.79308">
        <ele>156.7</ele>
        <time>2014-04-13T08:43:57Z</time>
      </trkpt>
      <trkpt lat="43.64002" lon="6.79301">
        <ele>156.7</ele>
        <time>2014-04-13T08:44:01Z</time>
      </trkpt>
      <trkpt lat="43.64009" lon="6.79294">
        <ele>157.5</ele>
        <time>2014-04-13T08:44:07Z</time>
      </trkpt>
      <trkpt lat="43.64016" lon="6.79287">
        <ele>158</ele>
        <time>2014-04-13T08:44:17Z</time>
      </trkpt>
      <trkpt lat="43.64017" lon="6.79286">
        <ele>158.3</ele>
        <time>2014-04-13T08:44:18Z</time>
      </trkpt>
      <trkpt lat="43.64029" lon="6.79272">
        <ele>159.6</ele>
        <time>2014-04-13T08:44:30Z</time>
      </trkpt>
      <trkpt lat="43.64034" lon="6.79264">
        <ele>159.5</ele>
        <time>2014-04-13T08:44:37Z</time>
      </trkpt>
      <trkpt lat="43.64041" lon="6.79256">
        <ele>160.6</ele>
        <time>2014-04-13T08:44:46Z</time>
      </trkpt>
      <trkpt lat="43.64046" lon="6.79248">
        <ele>160.5</ele>
        <time>2014-04-13T08:44:56Z</time>
      </trkpt>
      <trkpt lat="43.64053" lon="6.79241">
        <ele>160.8</ele>
        <time>2014-04-13T08:45:02Z</time>
      </trkpt>
      <trkpt lat="43.64059" lon="6.79234">
        <ele>163.4</ele>
        <time>2014-04-13T08:45:12Z</time>
      </trkpt>
      <trkpt lat="43.64064" lon="6.79224">
        <ele>162.6</ele>
        <time>2014-04-13T08:45:19Z</time>
      </trkpt>
      <trkpt lat="43.64065" lon="6.79224">
        <ele>162.6</ele>
        <time>2014-04-13T08:45:20Z</time>
      </trkpt>
      <trkpt lat="43.64078" lon="6.79211">
        <ele>162.9</ele>
        <time>2014-04-13T08:45:32Z</time>
      </trkpt>
      <trkpt lat="43.64086" lon="6.79208">
        <ele>163.3</ele>
        <time>2014-04-13T08:45:40Z</time>
      </trkpt>
      <trkpt lat="43.64093" lon="6.79201">
        <ele>163.5</ele>
        <time>2014-04-13T08:45:46Z</time>
      </trkpt>
      <trkpt lat="43.641" lon="6.79195">
        <ele>162.8</ele>
        <time>2014-04-13T08:45:56Z</time>
      </trkpt>
      <trkpt lat="43.64109" lon="6.79193">
        <ele>162.7</ele>
        <time>2014-04-13T08:46:06Z</time>
      </trkpt>
      <trkpt lat="43.64115" lon="6.79185">
        <ele>163</ele>
        <time>2014-04-13T08:46:13Z</time>
      </trkpt>
      <trkpt lat="43.64121" lon="6.79178">
        <ele>164.5</ele>
        <time>2014-04-13T08:46:18Z</time>
      </trkpt>
      <trkpt lat="43.64127" lon="6.7917">
        <ele>162.6</ele>
        <time>2014-04-13T08:46:26Z</time>
      </trkpt>
      <trkpt lat="43.64128" lon="6.79169">
        <ele>162.9</ele>
        <time>2014-04-13T08:46:27Z</time>
      </trkpt>
      <trkpt lat="43.64142" lon="6.79163">
        <ele>165</ele>
        <time>2014-04-13T08:46:48Z</time>
      </trkpt>
      <trkpt lat="43.64149" lon="6.79155">
        <ele>165.5</ele>
        <time>2014-04-13T08:46:54Z</time>
      </trkpt>
      <trkpt lat="43.64152" lon="6.79144">
        <ele>167.6</ele>
        <time>2014-04-13T08:47:11Z</time>
      </trkpt>
      <trkpt lat="43.64158" lon="6.79134">
        <ele>171.2</ele>
        <time>2014-04-13T08:47:23Z</time>
      </trkpt>
      <trkpt lat="43.64165" lon="6.79127">
        <ele>172.4</ele>
        <time>2014-04-13T08:47:33Z</time>
      </trkpt>
      <trkpt lat="43.64165" lon="6.79126">
        <ele>172.4</ele>
        <time>2014-04-13T08:47:34Z</time>
      </trkpt>
      <trkpt lat="43.64178" lon="6.79113">
        <ele>173.9</ele>
        <time>2014-04-13T08:48:32Z</time>
      </trkpt>
      <trkpt lat="43.64186" lon="6.79108">
        <ele>174.3</ele>
        <time>2014-04-13T08:48:51Z</time>
      </trkpt>
      <trkpt lat="43.64187" lon="6.79107">
        <ele>174.4</ele>
        <time>2014-04-13T08:48:52Z</time>
      </trkpt>
      <trkpt lat="43.64198" lon="6.79092">
        <ele>175.4</ele>
        <time>2014-04-13T08:49:15Z</time>
      </trkpt>
      <trkpt lat="43.64207" lon="6.79089">
        <ele>176.1</ele>
        <time>2014-04-13T08:49:50Z</time>
      </trkpt>
      <trkpt lat="43.64213" lon="6.79081">
        <ele>175.7</ele>
        <time>2014-04-13T08:50:06Z</time>
      </trkpt>
      <trkpt lat="43.64214" lon="6.79081">
        <ele>175.3</ele>
        <time>2014-04-13T08:50:07Z</time>
      </trkpt>
      <trkpt lat="43.64227" lon="6.79069">
        <ele>177.2</ele>
        <time>2014-04-13T08:50:23Z</time>
      </trkpt>
      <trkpt lat="43.64235" lon="6.79064">
        <ele>175.4</ele>
        <time>2014-04-13T08:50:33Z</time>
      </trkpt>
      <trkpt lat="43.64244" lon="6.79063">
        <ele>176.3</ele>
        <time>2014-04-13T08:51:17Z</time>
      </trkpt>
      <trkpt lat="43.64245" lon="6.79062">
        <ele>176.2</ele>
        <time>2014-04-13T08:51:18Z</time>
      </trkpt>
      <trkpt lat="43.64259" lon="6.79054">
        <ele>176.3</ele>
        <time>2014-04-13T08:51:28Z</time>
      </trkpt>
      <trkpt lat="43.64266" lon="6.79047">
        <ele>176</ele>
        <time>2014-04-13T08:51:36Z</time>
      </trkpt>
      <trkpt lat="43.64273" lon="6.79039">
        <ele>175.5</ele>
        <time>2014-04-13T08:51:44Z</time>
      </trkpt>
      <trkpt lat="43.64278" lon="6.79031">
        <ele>175.1</ele>
        <time>2014-04-13T08:51:50Z</time>
      </trkpt>
      <trkpt lat="43.64285" lon="6.79023">
        <ele>174.6</ele>
        <time>2014-04-13T08:52:05Z</time>
      </trkpt>
      <trkpt lat="43.6429" lon="6.79014">
        <ele>175.6</ele>
        <time>2014-04-13T08:52:13Z</time>
      </trkpt>
      <trkpt lat="43.64291" lon="6.79002">
        <ele>175.3</ele>
        <time>2014-04-13T08:52:29Z</time>
      </trkpt>
      <trkpt lat="43.64289" lon="6.78999">
        <ele>175.2</ele>
        <time>2014-04-13T08:52:30Z</time>
      </trkpt>
      <trkpt lat="43.64297" lon="6.78991">
        <ele>166.5</ele>
        <time>2014-04-13T08:54:05Z</time>
      </trkpt>
      <trkpt lat="43.64312" lon="6.78999">
        <ele>162.3</ele>
        <time>2014-04-13T08:54:24Z</time>
      </trkpt>
      <trkpt lat="43.6432" lon="6.79003">
        <ele>161.9</ele>
        <time>2014-04-13T08:54:36Z</time>
      </trkpt>
      <trkpt lat="43.64328" lon="6.79008">
        <ele>159.5</ele>
        <time>2014-04-13T08:54:46Z</time>
      </trkpt>
      <trkpt lat="43.64337" lon="6.79008">
        <ele>157.9</ele>
        <time>2014-04-13T08:54:57Z</time>
      </trkpt>
      <trkpt lat="43.64345" lon="6.79004">
        <ele>157.4</ele>
        <time>2014-04-13T08:55:13Z</time>
      </trkpt>
      <trkpt lat="43.64346" lon="6.79004">
        <ele>157.6</ele>
        <time>2014-04-13T08:55:14Z</time>
      </trkpt>
      <trkpt lat="43.64344" lon="6.78993">
        <ele>157.7</ele>
        <time>2014-04-13T08:56:33Z</time>
      </trkpt>
      <trkpt lat="43.64344" lon="6.78992">
        <ele>157.9</ele>
        <time>2014-04-13T08:56:34Z</time>
      </trkpt>
      <trkpt lat="43.64343" lon="6.7898">
        <ele>157</ele>
        <time>2014-04-13T08:57:06Z</time>
      </trkpt>
      <trkpt lat="43.64341" lon="6.78968">
        <ele>157.3</ele>
        <time>2014-04-13T08:57:45Z</time>
      </trkpt>
      <trkpt lat="43.6434" lon="6.78968">
        <ele>157.7</ele>
        <time>2014-04-13T08:57:46Z</time>
      </trkpt>
      <trkpt lat="43.64325" lon="6.78979">
        <ele>158.7</ele>
        <time>2014-04-13T08:58:19Z</time>
      </trkpt>
      <trkpt lat="43.64321" lon="6.78989">
        <ele>160.9</ele>
        <time>2014-04-13T08:58:45Z</time>
      </trkpt>
      <trkpt lat="43.64322" lon="6.79001">
        <ele>160.4</ele>
        <time>2014-04-13T08:58:58Z</time>
      </trkpt>
      <trkpt lat="43.64323" lon="6.79002">
        <ele>160.4</ele>
        <time>2014-04-13T08:58:59Z</time>
      </trkpt>
      <trkpt lat="43.64329" lon="6.79021">
        <ele>159.9</ele>
        <time>2014-04-13T08:59:17Z</time>
      </trkpt>
      <trkpt lat="43.64327" lon="6.79033">
        <ele>159.3</ele>
        <time>2014-04-13T08:59:34Z</time>
      </trkpt>
      <trkpt lat="43.64326" lon="6.79045">
        <ele>159.3</ele>
        <time>2014-04-13T09:00:28Z</time>
      </trkpt>
      <trkpt lat="43.64325" lon="6.79046">
        <ele>159.6</ele>
        <time>2014-04-13T09:00:29Z</time>
      </trkpt>
      <trkpt lat="43.64338" lon="6.79061">
        <ele>159.6</ele>
        <time>2014-04-13T09:01:13Z</time>
      </trkpt>
      <trkpt lat="43.64346" lon="6.7906">
        <ele>158.8</ele>
        <time>2014-04-13T09:02:23Z</time>
      </trkpt>
      <trkpt lat="43.64347" lon="6.7906">
        <ele>158.8</ele>
        <time>2014-04-13T09:02:24Z</time>
      </trkpt>
      <trkpt lat="43.64347" lon="6.79059">
        <ele>159.4</ele>
        <time>2014-04-13T09:03:18Z</time>
      </trkpt>
      <trkpt lat="43.64341" lon="6.79069">
        <ele>159.7</ele>
        <time>2014-04-13T09:03:31Z</time>
      </trkpt>
      <trkpt lat="43.64341" lon="6.7907">
        <ele>159.2</ele>
        <time>2014-04-13T09:03:32Z</time>
      </trkpt>
      <trkpt lat="43.64326" lon="6.79081">
        <ele>159.3</ele>
        <time>2014-04-13T09:04:25Z</time>
      </trkpt>
      <trkpt lat="43.64318" lon="6.79082">
        <ele>158.3</ele>
        <time>2014-04-13T09:04:32Z</time>
      </trkpt>
      <trkpt lat="43.64317" lon="6.79082">
        <ele>158.6</ele>
        <time>2014-04-13T09:04:33Z</time>
      </trkpt>
      <trkpt lat="43.64318" lon="6.79087">
        <ele>161.3</ele>
        <time>2014-04-13T09:05:21Z</time>
      </trkpt>
      <trkpt lat="43.64325" lon="6.79095">
        <ele>159</ele>
        <time>2014-04-13T09:06:09Z</time>
      </trkpt>
      <trkpt lat="43.64325" lon="6.79095">
        <ele>158.8</ele>
        <time>2014-04-13T09:06:10Z</time>
      </trkpt>
      <trkpt lat="43.64337" lon="6.79079">
        <ele>157.3</ele>
        <time>2014-04-13T09:06:31Z</time>
      </trkpt>
      <trkpt lat="43.64342" lon="6.7907">
        <ele>160.2</ele>
        <time>2014-04-13T09:06:58Z</time>
      </trkpt>
      <trkpt lat="43.6435" lon="6.79076">
        <ele>161.4</ele>
        <time>2014-04-13T09:07:35Z</time>
      </trkpt>
      <trkpt lat="43.6435" lon="6.79076">
        <ele>160.9</ele>
        <time>2014-04-13T09:07:36Z</time>
      </trkpt>
      <trkpt lat="43.64354" lon="6.79065">
        <ele>161.4</ele>
        <time>2014-04-13T09:08:40Z</time>
      </trkpt>
      <trkpt lat="43.64344" lon="6.79063">
        <ele>159</ele>
        <time>2014-04-13T09:09:31Z</time>
      </trkpt>
      <trkpt lat="43.64348" lon="6.79073">
        <ele>161.6</ele>
        <time>2014-04-13T09:09:42Z</time>
      </trkpt>
      <trkpt lat="43.64349" lon="6.79074">
        <ele>161.6</ele>
        <time>2014-04-13T09:09:43Z</time>
      </trkpt>
      <trkpt lat="43.64352" lon="6.79061">
        <ele>160.3</ele>
        <time>2014-04-13T09:10:45Z</time>
      </trkpt>
      <trkpt lat="43.64343" lon="6.79062">
        <ele>156.4</ele>
        <time>2014-04-13T09:12:22Z</time>
      </trkpt>
      <trkpt lat="43.64329" lon="6.79075">
        <ele>157.5</ele>
        <time>2014-04-13T09:12:56Z</time>
      </trkpt>
      <trkpt lat="43.64322" lon="6.79068">
        <ele>158.4</ele>
        <time>2014-04-13T09:14:36Z</time>
      </trkpt>
      <trkpt lat="43.64322" lon="6.79067">
        <ele>158.3</ele>
        <time>2014-04-13T09:14:37Z</time>
      </trkpt>
      <trkpt lat="43.64325" lon="6.7909">
        <ele>158.9</ele>
        <time>2014-04-13T09:16:39Z</time>
      </trkpt>
      <trkpt lat="43.64326" lon="6.79091">
        <ele>158.3</ele>
        <time>2014-04-13T09:16:40Z</time>
      </trkpt>
      <trkpt lat="43.64324" lon="6.79076">
        <ele>157.6</ele>
        <time>2014-04-13T09:19:55Z</time>
      </trkpt>
      <trkpt lat="43.64325" lon="6.79075">
        <ele>157.5</ele>
        <time>2014-04-13T09:20:59Z</time>
      </trkpt>
      <trkpt lat="43.64325" lon="6.79074">
        <ele>157.3</ele>
        <time>2014-04-13T09:21:00Z</time>
      </trkpt>
      <trkpt lat="43.64329" lon="6.79086">
        <ele>156.4</ele>
        <time>2014-04-13T09:22:15Z</time>
      </trkpt>
      <trkpt lat="43.64316" lon="6.79102">
        <ele>158.1</ele>
        <time>2014-04-13T09:22:46Z</time>
      </trkpt>
      <trkpt lat="43.6431" lon="6.7911">
        <ele>159.2</ele>
        <time>2014-04-13T09:22:58Z</time>
      </trkpt>
      <trkpt lat="43.64312" lon="6.79122">
        <ele>159.8</ele>
        <time>2014-04-13T09:23:24Z</time>
      </trkpt>
      <trkpt lat="43.64312" lon="6.79123">
        <ele>159.4</ele>
        <time>2014-04-13T09:23:25Z</time>
      </trkpt>
      <trkpt lat="43.64299" lon="6.79132">
        <ele>161.7</ele>
        <time>2014-04-13T09:24:24Z</time>
      </trkpt>
      <trkpt lat="43.64298" lon="6.79143">
        <ele>162.6</ele>
        <time>2014-04-13T09:24:36Z</time>
      </trkpt>
      <trkpt lat="43.64299" lon="6.79146">
        <ele>163.3</ele>
        <time>2014-04-13T09:24:37Z</time>
      </trkpt>
      <trkpt lat="43.64289" lon="6.79163">
        <ele>163.9</ele>
        <time>2014-04-13T09:25:22Z</time>
      </trkpt>
      <trkpt lat="43.6429" lon="6.79175">
        <ele>166.2</ele>
        <time>2014-04-13T09:27:00Z</time>
      </trkpt>
      <trkpt lat="43.6429" lon="6.79176">
        <ele>166.3</ele>
        <time>2014-04-13T09:27:01Z</time>
      </trkpt>
      <trkpt lat="43.64292" lon="6.79193">
        <ele>169.3</ele>
        <time>2014-04-13T09:27:56Z</time>
      </trkpt>
      <trkpt lat="43.64289" lon="6.79204">
        <ele>170.8</ele>
        <time>2014-04-13T09:29:06Z</time>
      </trkpt>
      <trkpt lat="43.64288" lon="6.79205">
        <ele>171.2</ele>
        <time>2014-04-13T09:29:07Z</time>
      </trkpt>
      <trkpt lat="43.64273" lon="6.79198">
        <ele>174</ele>
        <time>2014-04-13T09:29:57Z</time>
      </trkpt>
      <trkpt lat="43.64265" lon="6.79194">
        <ele>175.9</ele>
        <time>2014-04-13T09:30:09Z</time>
      </trkpt>
      <trkpt lat="43.64264" lon="6.79194">
        <ele>175.7</ele>
        <time>2014-04-13T09:30:10Z</time>
      </trkpt>
      <trkpt lat="43.6425" lon="6.79203">
        <ele>177.9</ele>
        <time>2014-04-13T09:30:41Z</time>
      </trkpt>
      <trkpt lat="43.64249" lon="6.79214">
        <ele>178.9</ele>
        <time>2014-04-13T09:30:53Z</time>
      </trkpt>
      <trkpt lat="43.64245" lon="6.79224">
        <ele>177.6</ele>
        <time>2014-04-13T09:31:01Z</time>
      </trkpt>
      <trkpt lat="43.64238" lon="6.79229">
        <ele>178.1</ele>
        <time>2014-04-13T09:31:12Z</time>
      </trkpt>
      <trkpt lat="43.64237" lon="6.7923">
        <ele>177.7</ele>
        <time>2014-04-13T09:31:13Z</time>
      </trkpt>
      <trkpt lat="43.64226" lon="6.79246">
        <ele>177.3</ele>
        <time>2014-04-13T09:31:33Z</time>
      </trkpt>
      <trkpt lat="43.64218" lon="6.79251">
        <ele>174.5</ele>
        <time>2014-04-13T09:31:45Z</time>
      </trkpt>
      <trkpt lat="43.64213" lon="6.7926">
        <ele>174.8</ele>
        <time>2014-04-13T09:31:53Z</time>
      </trkpt>
      <trkpt lat="43.64208" lon="6.79269">
        <ele>173.9</ele>
        <time>2014-04-13T09:32:00Z</time>
      </trkpt>
      <trkpt lat="43.64206" lon="6.7928">
        <ele>174.9</ele>
        <time>2014-04-13T09:32:07Z</time>
      </trkpt>
      <trkpt lat="43.64203" lon="6.79291">
        <ele>173.9</ele>
        <time>2014-04-13T09:32:16Z</time>
      </trkpt>
      <trkpt lat="43.64203" lon="6.79292">
        <ele>174.1</ele>
        <time>2014-04-13T09:32:17Z</time>
      </trkpt>
      <trkpt lat="43.64201" lon="6.79315">
        <ele>178.4</ele>
        <time>2014-04-13T09:33:06Z</time>
      </trkpt>
      <trkpt lat="43.64197" lon="6.79325">
        <ele>181.1</ele>
        <time>2014-04-13T09:33:18Z</time>
      </trkpt>
      <trkpt lat="43.64196" lon="6.79326">
        <ele>181.3</ele>
        <time>2014-04-13T09:33:19Z</time>
      </trkpt>
      <trkpt lat="43.64198" lon="6.79346">
        <ele>186.8</ele>
        <time>2014-04-13T09:34:05Z</time>
      </trkpt>
      <trkpt lat="43.64197" lon="6.79358">
        <ele>189.4</ele>
        <time>2014-04-13T09:34:27Z</time>
      </trkpt>
      <trkpt lat="43.64198" lon="6.79359">
        <ele>188.8</ele>
        <time>2014-04-13T09:34:28Z</time>
      </trkpt>
      <trkpt lat="43.64196" lon="6.79361">
        <ele>193.7</ele>
        <time>2014-04-13T09:35:17Z</time>
      </trkpt>
      <trkpt lat="43.64191" lon="6.79352">
        <ele>195.1</ele>
        <time>2014-04-13T09:35:32Z</time>
      </trkpt>
      <trkpt lat="43.6419" lon="6.7935">
        <ele>194.9</ele>
        <time>2014-04-13T09:35:33Z</time>
      </trkpt>
      <trkpt lat="43.64184" lon="6.79365">
        <ele>198.3</ele>
        <time>2014-04-13T09:35:58Z</time>
      </trkpt>
      <trkpt lat="43.64176" lon="6.79364">
        <ele>204.8</ele>
        <time>2014-04-13T09:36:50Z</time>
      </trkpt>
      <trkpt lat="43.64175" lon="6.79364">
        <ele>205.1</ele>
        <time>2014-04-13T09:36:51Z</time>
      </trkpt>
      <trkpt lat="43.64167" lon="6.79375">
        <ele>209.5</ele>
        <time>2014-04-13T09:37:31Z</time>
      </trkpt>
      <trkpt lat="43.64173" lon="6.79385">
        <ele>211.9</ele>
        <time>2014-04-13T09:37:48Z</time>
      </trkpt>
      <trkpt lat="43.64174" lon="6.79397">
        <ele>215.2</ele>
        <time>2014-04-13T09:38:20Z</time>
      </trkpt>
      <trkpt lat="43.64174" lon="6.79397">
        <ele>215.4</ele>
        <time>2014-04-13T09:38:21Z</time>
      </trkpt>
      <trkpt lat="43.64157" lon="6.79398">
        <ele>218.5</ele>
        <time>2014-04-13T09:38:50Z</time>
      </trkpt>
      <trkpt lat="43.64155" lon="6.7941">
        <ele>220.3</ele>
        <time>2014-04-13T09:39:03Z</time>
      </trkpt>
      <trkpt lat="43.64157" lon="6.79422">
        <ele>223.1</ele>
        <time>2014-04-13T09:39:22Z</time>
      </trkpt>
      <trkpt lat="43.64157" lon="6.79422">
        <ele>222.9</ele>
        <time>2014-04-13T09:39:23Z</time>
      </trkpt>
      <trkpt lat="43.6415" lon="6.79441">
        <ele>224.8</ele>
        <time>2014-04-13T09:40:00Z</time>
      </trkpt>
      <trkpt lat="43.64149" lon="6.79452">
        <ele>226.4</ele>
        <time>2014-04-13T09:40:10Z</time>
      </trkpt>
      <trkpt lat="43.64146" lon="6.79464">
        <ele>227.3</ele>
        <time>2014-04-13T09:40:26Z</time>
      </trkpt>
      <trkpt lat="43.64146" lon="6.79464">
        <ele>227.4</ele>
        <time>2014-04-13T09:40:27Z</time>
      </trkpt>
      <trkpt lat="43.64143" lon="6.79487">
        <ele>228.8</ele>
        <time>2014-04-13T09:41:11Z</time>
      </trkpt>
      <trkpt lat="43.64146" lon="6.79475">
        <ele>229.6</ele>
        <time>2014-04-13T09:48:18Z</time>
      </trkpt>
      <trkpt lat="43.64145" lon="6.79475">
        <ele>229.3</ele>
        <time>2014-04-13T09:48:19Z</time>
      </trkpt>
      <trkpt lat="43.64141" lon="6.79486">
        <ele>229.1</ele>
        <time>2014-04-13T09:49:27Z</time>
      </trkpt>
      <trkpt lat="43.64138" lon="6.79501">
        <ele>228</ele>
        <time>2014-04-13T09:52:07Z</time>
      </trkpt>
      <trkpt lat="43.64137" lon="6.79502">
        <ele>228</ele>
        <time>2014-04-13T09:52:08Z</time>
      </trkpt>
      <trkpt lat="43.64144" lon="6.79479">
        <ele>229.7</ele>
        <time>2014-04-13T09:55:08Z</time>
      </trkpt>
      <trkpt lat="43.64144" lon="6.79478">
        <ele>229.4</ele>
        <time>2014-04-13T09:55:09Z</time>
      </trkpt>
      <trkpt lat="43.64145" lon="6.79491">
        <ele>228.8</ele>
        <time>2014-04-13T10:03:54Z</time>
      </trkpt>
      <trkpt lat="43.6414" lon="6.79479">
        <ele>229.6</ele>
        <time>2014-04-13T10:06:40Z</time>
      </trkpt>
      <trkpt lat="43.64147" lon="6.79487">
        <ele>229.7</ele>
        <time>2014-04-13T10:07:42Z</time>
      </trkpt>
      <trkpt lat="43.64147" lon="6.79477">
        <ele>230.3</ele>
        <time>2014-04-13T10:10:56Z</time>
      </trkpt>
      <trkpt lat="43.64147" lon="6.79477">
        <ele>230.1</ele>
        <time>2014-04-13T10:10:57Z</time>
      </trkpt>
      <trkpt lat="43.64141" lon="6.79478">
        <ele>230.7</ele>
        <time>2014-04-13T10:13:48Z</time>
      </trkpt>
      <trkpt lat="43.64141" lon="6.79477">
        <ele>230.6</ele>
        <time>2014-04-13T10:13:49Z</time>
      </trkpt>
      <trkpt lat="43.64138" lon="6.79477">
        <ele>229.7</ele>
        <time>2014-04-13T10:16:13Z</time>
      </trkpt>
      <trkpt lat="43.64138" lon="6.79476">
        <ele>230</ele>
        <time>2014-04-13T10:16:14Z</time>
      </trkpt>
      <trkpt lat="43.64149" lon="6.79484">
        <ele>230.4</ele>
        <time>2014-04-13T10:19:05Z</time>
      </trkpt>
      <trkpt lat="43.64149" lon="6.79483">
        <ele>230.3</ele>
        <time>2014-04-13T10:19:06Z</time>
      </trkpt>
      <trkpt lat="43.64141" lon="6.79477">
        <ele>231.2</ele>
        <time>2014-04-13T10:21:46Z</time>
      </trkpt>
      <trkpt lat="43.64147" lon="6.79487">
        <ele>231.7</ele>
        <time>2014-04-13T10:27:49Z</time>
      </trkpt>
      <trkpt lat="43.6414" lon="6.79483">
        <ele>231.1</ele>
        <time>2014-04-13T10:31:20Z</time>
      </trkpt>
      <trkpt lat="43.64137" lon="6.7948">
        <ele>231.3</ele>
        <time>2014-04-13T10:31:21Z</time>
      </trkpt>
      <trkpt lat="43.6414" lon="6.79482">
        <ele>230</ele>
        <time>2014-04-13T10:32:47Z</time>
      </trkpt>
      <trkpt lat="43.6414" lon="6.79482">
        <ele>230.7</ele>
        <time>2014-04-13T10:32:51Z</time>
      </trkpt>
      <trkpt lat="43.64149" lon="6.7948">
        <ele>231.4</ele>
        <time>2014-04-13T10:35:49Z</time>
      </trkpt>
      <trkpt lat="43.64137" lon="6.79483">
        <ele>231.4</ele>
        <time>2014-04-13T10:40:01Z</time>
      </trkpt>
      <trkpt lat="43.64136" lon="6.79482">
        <ele>231.3</ele>
        <time>2014-04-13T10:40:02Z</time>
      </trkpt>
      <trkpt lat="43.64138" lon="6.79482">
        <ele>231.1</ele>
        <time>2014-04-13T10:42:15Z</time>
      </trkpt>
      <trkpt lat="43.64137" lon="6.79481">
        <ele>231.1</ele>
        <time>2014-04-13T10:42:16Z</time>
      </trkpt>
      <trkpt lat="43.64135" lon="6.79478">
        <ele>231</ele>
        <time>2014-04-13T10:43:14Z</time>
      </trkpt>
      <trkpt lat="43.64134" lon="6.79479">
        <ele>231.9</ele>
        <time>2014-04-13T10:43:18Z</time>
      </trkpt>
      <trkpt lat="43.64131" lon="6.79498">
        <ele>230</ele>
        <time>2014-04-13T10:44:10Z</time>
      </trkpt>
      <trkpt lat="43.64138" lon="6.79487">
        <ele>230</ele>
        <time>2014-04-13T10:44:40Z</time>
      </trkpt>
      <trkpt lat="43.64135" lon="6.79491">
        <ele>230.5</ele>
        <time>2014-04-13T10:44:42Z</time>
      </trkpt>
      <trkpt lat="43.6415" lon="6.79497">
        <ele>231.2</ele>
        <time>2014-04-13T10:46:54Z</time>
      </trkpt>
      <trkpt lat="43.64151" lon="6.79498">
        <ele>231.4</ele>
        <time>2014-04-13T10:46:55Z</time>
      </trkpt>
      <trkpt lat="43.6414" lon="6.79482">
        <ele>231.2</ele>
        <time>2014-04-13T10:47:58Z</time>
      </trkpt>
      <trkpt lat="43.64139" lon="6.79481">
        <ele>231.1</ele>
        <time>2014-04-13T10:47:59Z</time>
      </trkpt>
      <trkpt lat="43.64124" lon="6.79492">
        <ele>231.7</ele>
        <time>2014-04-13T10:48:49Z</time>
      </trkpt>
      <trkpt lat="43.64116" lon="6.79492">
        <ele>232.7</ele>
        <time>2014-04-13T10:48:58Z</time>
      </trkpt>
      <trkpt lat="43.64107" lon="6.79494">
        <ele>234.3</ele>
        <time>2014-04-13T10:49:10Z</time>
      </trkpt>
      <trkpt lat="43.64106" lon="6.79494">
        <ele>234.2</ele>
        <time>2014-04-13T10:49:11Z</time>
      </trkpt>
      <trkpt lat="43.64093" lon="6.79506">
        <ele>236.8</ele>
        <time>2014-04-13T10:50:17Z</time>
      </trkpt>
      <trkpt lat="43.64092" lon="6.79506">
        <ele>236.8</ele>
        <time>2014-04-13T10:50:18Z</time>
      </trkpt>
      <trkpt lat="43.64085" lon="6.79525">
        <ele>240.3</ele>
        <time>2014-04-13T10:50:39Z</time>
      </trkpt>
      <trkpt lat="43.64091" lon="6.79533">
        <ele>241.5</ele>
        <time>2014-04-13T10:50:49Z</time>
      </trkpt>
      <trkpt lat="43.64099" lon="6.79532">
        <ele>242.8</ele>
        <time>2014-04-13T10:50:58Z</time>
      </trkpt>
      <trkpt lat="43.64107" lon="6.79534">
        <ele>244.7</ele>
        <time>2014-04-13T10:51:13Z</time>
      </trkpt>
      <trkpt lat="43.641" lon="6.79534">
        <ele>248.4</ele>
        <time>2014-04-13T10:51:44Z</time>
      </trkpt>
      <trkpt lat="43.64098" lon="6.79534">
        <ele>248.2</ele>
        <time>2014-04-13T10:51:45Z</time>
      </trkpt>
      <trkpt lat="43.64085" lon="6.79544">
        <ele>249.8</ele>
        <time>2014-04-13T10:52:04Z</time>
      </trkpt>
      <trkpt lat="43.64088" lon="6.79554">
        <ele>253.7</ele>
        <time>2014-04-13T10:52:22Z</time>
      </trkpt>
      <trkpt lat="43.64083" lon="6.79565">
        <ele>256.1</ele>
        <time>2014-04-13T10:52:48Z</time>
      </trkpt>
      <trkpt lat="43.64083" lon="6.79565">
        <ele>256.2</ele>
        <time>2014-04-13T10:52:49Z</time>
      </trkpt>
      <trkpt lat="43.64067" lon="6.79573">
        <ele>260.2</ele>
        <time>2014-04-13T10:53:21Z</time>
      </trkpt>
      <trkpt lat="43.64073" lon="6.79582">
        <ele>260.9</ele>
        <time>2014-04-13T10:53:48Z</time>
      </trkpt>
      <trkpt lat="43.64067" lon="6.79591">
        <ele>261.8</ele>
        <time>2014-04-13T10:54:15Z</time>
      </trkpt>
      <trkpt lat="43.64066" lon="6.79592">
        <ele>262</ele>
        <time>2014-04-13T10:54:16Z</time>
      </trkpt>
      <trkpt lat="43.64061" lon="6.79591">
        <ele>264.4</ele>
        <time>2014-04-13T10:54:54Z</time>
      </trkpt>
      <trkpt lat="43.64059" lon="6.79603">
        <ele>265.4</ele>
        <time>2014-04-13T10:55:01Z</time>
      </trkpt>
      <trkpt lat="43.64055" lon="6.79615">
        <ele>266.2</ele>
        <time>2014-04-13T10:55:11Z</time>
      </trkpt>
      <trkpt lat="43.64047" lon="6.79616">
        <ele>267.9</ele>
        <time>2014-04-13T10:55:24Z</time>
      </trkpt>
      <trkpt lat="43.64045" lon="6.79615">
        <ele>268.1</ele>
        <time>2014-04-13T10:55:25Z</time>
      </trkpt>
      <trkpt lat="43.64034" lon="6.79632">
        <ele>272.3</ele>
        <time>2014-04-13T10:55:49Z</time>
      </trkpt>
      <trkpt lat="43.64026" lon="6.79635">
        <ele>273.3</ele>
        <time>2014-04-13T10:56:02Z</time>
      </trkpt>
      <trkpt lat="43.64019" lon="6.79641">
        <ele>276</ele>
        <time>2014-04-13T10:56:20Z</time>
      </trkpt>
      <trkpt lat="43.64017" lon="6.79651">
        <ele>277</ele>
        <time>2014-04-13T10:56:26Z</time>
      </trkpt>
      <trkpt lat="43.64016" lon="6.79653">
        <ele>277.1</ele>
        <time>2014-04-13T10:56:27Z</time>
      </trkpt>
      <trkpt lat="43.64004" lon="6.79664">
        <ele>275.8</ele>
        <time>2014-04-13T10:56:40Z</time>
      </trkpt>
      <trkpt lat="43.63996" lon="6.79665">
        <ele>275</ele>
        <time>2014-04-13T10:56:47Z</time>
      </trkpt>
      <trkpt lat="43.6399" lon="6.79674">
        <ele>273.5</ele>
        <time>2014-04-13T10:56:55Z</time>
      </trkpt>
      <trkpt lat="43.63991" lon="6.79686">
        <ele>273.3</ele>
        <time>2014-04-13T10:57:04Z</time>
      </trkpt>
      <trkpt lat="43.63986" lon="6.79677">
        <ele>273.8</ele>
        <time>2014-04-13T10:57:47Z</time>
      </trkpt>
      <trkpt lat="43.63985" lon="6.79676">
        <ele>273.6</ele>
        <time>2014-04-13T10:57:48Z</time>
      </trkpt>
      <trkpt lat="43.63989" lon="6.79689">
        <ele>274.3</ele>
        <time>2014-04-13T10:59:25Z</time>
      </trkpt>
      <trkpt lat="43.63985" lon="6.79676">
        <ele>275.8</ele>
        <time>2014-04-13T11:00:45Z</time>
      </trkpt>
      <trkpt lat="43.63981" lon="6.79694">
        <ele>276.9</ele>
        <time>2014-04-13T11:01:47Z</time>
      </trkpt>
      <trkpt lat="43.6398" lon="6.79696">
        <ele>276.6</ele>
        <time>2014-04-13T11:01:48Z</time>
      </trkpt>
      <trkpt lat="43.63965" lon="6.79705">
        <ele>277</ele>
        <time>2014-04-13T11:02:13Z</time>
      </trkpt>
      <trkpt lat="43.63959" lon="6.79712">
        <ele>277.7</ele>
        <time>2014-04-13T11:02:23Z</time>
      </trkpt>
      <trkpt lat="43.63953" lon="6.7972">
        <ele>279.3</ele>
        <time>2014-04-13T11:02:35Z</time>
      </trkpt>
      <trkpt lat="43.63946" lon="6.79727">
        <ele>280.5</ele>
        <time>2014-04-13T11:02:43Z</time>
      </trkpt>
      <trkpt lat="43.63938" lon="6.79732">
        <ele>280.9</ele>
        <time>2014-04-13T11:02:57Z</time>
      </trkpt>
      <trkpt lat="43.63937" lon="6.79733">
        <ele>280.8</ele>
        <time>2014-04-13T11:02:58Z</time>
      </trkpt>
      <trkpt lat="43.63921" lon="6.79737">
        <ele>279.6</ele>
        <time>2014-04-13T11:03:13Z</time>
      </trkpt>
      <trkpt lat="43.63915" lon="6.79744">
        <ele>279.4</ele>
        <time>2014-04-13T11:03:21Z</time>
      </trkpt>
      <trkpt lat="43.63908" lon="6.79751">
        <ele>281.4</ele>
        <time>2014-04-13T11:03:34Z</time>
      </trkpt>
      <trkpt lat="43.63902" lon="6.7976">
        <ele>282</ele>
        <time>2014-04-13T11:03:43Z</time>
      </trkpt>
      <trkpt lat="43.63894" lon="6.79762">
        <ele>281.1</ele>
        <time>2014-04-13T11:03:50Z</time>
      </trkpt>
      <trkpt lat="43.6389" lon="6.79772">
        <ele>279</ele>
        <time>2014-04-13T11:04:02Z</time>
      </trkpt>
      <trkpt lat="43.6389" lon="6.79774">
        <ele>279.2</ele>
        <time>2014-04-13T11:04:03Z</time>
      </trkpt>
      <trkpt lat="43.63873" lon="6.79773">
        <ele>278.7</ele>
        <time>2014-04-13T11:04:21Z</time>
      </trkpt>
      <trkpt lat="43.63866" lon="6.79766">
        <ele>277.4</ele>
        <time>2014-04-13T11:04:26Z</time>
      </trkpt>
      <trkpt lat="43.63858" lon="6.7976">
        <ele>274</ele>
        <time>2014-04-13T11:04:53Z</time>
      </trkpt>
      <trkpt lat="43.63851" lon="6.79755">
        <ele>271.4</ele>
        <time>2014-04-13T11:05:06Z</time>
      </trkpt>
      <trkpt lat="43.6385" lon="6.79754">
        <ele>271.3</ele>
        <time>2014-04-13T11:05:07Z</time>
      </trkpt>
      <trkpt lat="43.63837" lon="6.79743">
        <ele>268</ele>
        <time>2014-04-13T11:05:39Z</time>
      </trkpt>
      <trkpt lat="43.63829" lon="6.79737">
        <ele>265.6</ele>
        <time>2014-04-13T11:05:55Z</time>
      </trkpt>
      <trkpt lat="43.63822" lon="6.79737">
        <ele>263.5</ele>
        <time>2014-04-13T11:06:06Z</time>
      </trkpt>
      <trkpt lat="43.63813" lon="6.79737">
        <ele>261.4</ele>
        <time>2014-04-13T11:06:14Z</time>
      </trkpt>
      <trkpt lat="43.63812" lon="6.79738">
        <ele>261.7</ele>
        <time>2014-04-13T11:06:15Z</time>
      </trkpt>
      <trkpt lat="43.63797" lon="6.79746">
        <ele>262.3</ele>
        <time>2014-04-13T11:06:31Z</time>
      </trkpt>
      <trkpt lat="43.63798" lon="6.79758">
        <ele>261.8</ele>
        <time>2014-04-13T11:06:45Z</time>
      </trkpt>
      <trkpt lat="43.63791" lon="6.79762">
        <ele>260.8</ele>
        <time>2014-04-13T11:07:02Z</time>
      </trkpt>
      <trkpt lat="43.63786" lon="6.79771">
        <ele>260.3</ele>
        <time>2014-04-13T11:07:14Z</time>
      </trkpt>
      <trkpt lat="43.63778" lon="6.79772">
        <ele>259.7</ele>
        <time>2014-04-13T11:07:20Z</time>
      </trkpt>
      <trkpt lat="43.63777" lon="6.79771">
        <ele>260.2</ele>
        <time>2014-04-13T11:07:21Z</time>
      </trkpt>
      <trkpt lat="43.63761" lon="6.79771">
        <ele>260.9</ele>
        <time>2014-04-13T11:07:39Z</time>
      </trkpt>
      <trkpt lat="43.63754" lon="6.79777">
        <ele>260.5</ele>
        <time>2014-04-13T11:07:51Z</time>
      </trkpt>
      <trkpt lat="43.63747" lon="6.7977">
        <ele>260.2</ele>
        <time>2014-04-13T11:07:57Z</time>
      </trkpt>
      <trkpt lat="43.63743" lon="6.7976">
        <ele>258.7</ele>
        <time>2014-04-13T11:08:12Z</time>
      </trkpt>
      <trkpt lat="43.63736" lon="6.79755">
        <ele>259.9</ele>
        <time>2014-04-13T11:08:19Z</time>
      </trkpt>
      <trkpt lat="43.63728" lon="6.79756">
        <ele>260.1</ele>
        <time>2014-04-13T11:08:24Z</time>
      </trkpt>
      <trkpt lat="43.63727" lon="6.79757">
        <ele>259.8</ele>
        <time>2014-04-13T11:08:25Z</time>
      </trkpt>
      <trkpt lat="43.63716" lon="6.7974">
        <ele>260.2</ele>
        <time>2014-04-13T11:08:46Z</time>
      </trkpt>
      <trkpt lat="43.6371" lon="6.79733">
        <ele>261.2</ele>
        <time>2014-04-13T11:08:54Z</time>
      </trkpt>
      <trkpt lat="43.63706" lon="6.79722">
        <ele>261.7</ele>
        <time>2014-04-13T11:09:06Z</time>
      </trkpt>
      <trkpt lat="43.63701" lon="6.79716">
        <ele>261.3</ele>
        <time>2014-04-13T11:09:09Z</time>
      </trkpt>
      <trkpt lat="43.63694" lon="6.79711">
        <ele>261.4</ele>
        <time>2014-04-13T11:09:12Z</time>
      </trkpt>
      <trkpt lat="43.63686" lon="6.79707">
        <ele>261.9</ele>
        <time>2014-04-13T11:09:19Z</time>
      </trkpt>
      <trkpt lat="43.63678" lon="6.79707">
        <ele>262.1</ele>
        <time>2014-04-13T11:09:25Z</time>
      </trkpt>
      <trkpt lat="43.63677" lon="6.79706">
        <ele>261.9</ele>
        <time>2014-04-13T11:09:26Z</time>
      </trkpt>
      <trkpt lat="43.63663" lon="6.79695">
        <ele>259.6</ele>
        <time>2014-04-13T11:09:41Z</time>
      </trkpt>
      <trkpt lat="43.63655" lon="6.79689">
        <ele>258.1</ele>
        <time>2014-04-13T11:09:52Z</time>
      </trkpt>
      <trkpt lat="43.63648" lon="6.79684">
        <ele>254.7</ele>
        <time>2014-04-13T11:10:04Z</time>
      </trkpt>
      <trkpt lat="43.6364" lon="6.79679">
        <ele>252.9</ele>
        <time>2014-04-13T11:10:18Z</time>
      </trkpt>
      <trkpt lat="43.63633" lon="6.79671">
        <ele>252.2</ele>
        <time>2014-04-13T11:10:30Z</time>
      </trkpt>
      <trkpt lat="43.63632" lon="6.79669">
        <ele>251.9</ele>
        <time>2014-04-13T11:10:31Z</time>
      </trkpt>
      <trkpt lat="43.63618" lon="6.79665">
        <ele>250.8</ele>
        <time>2014-04-13T11:11:13Z</time>
      </trkpt>
      <trkpt lat="43.63626" lon="6.79661">
        <ele>251.9</ele>
        <time>2014-04-13T11:11:40Z</time>
      </trkpt>
      <trkpt lat="43.63627" lon="6.79661">
        <ele>251.9</ele>
        <time>2014-04-13T11:11:41Z</time>
      </trkpt>
      <trkpt lat="43.6361" lon="6.79657">
        <ele>252.5</ele>
        <time>2014-04-13T11:12:04Z</time>
      </trkpt>
      <trkpt lat="43.63604" lon="6.79648">
        <ele>253.4</ele>
        <time>2014-04-13T11:12:40Z</time>
      </trkpt>
      <trkpt lat="43.63597" lon="6.79645">
        <ele>252.8</ele>
        <time>2014-04-13T11:12:46Z</time>
      </trkpt>
      <trkpt lat="43.63595" lon="6.79645">
        <ele>252.9</ele>
        <time>2014-04-13T11:12:47Z</time>
      </trkpt>
      <trkpt lat="43.63582" lon="6.79637">
        <ele>251.3</ele>
        <time>2014-04-13T11:13:03Z</time>
      </trkpt>
      <trkpt lat="43.63573" lon="6.79634">
        <ele>251.8</ele>
        <time>2014-04-13T11:13:08Z</time>
      </trkpt>
      <trkpt lat="43.63567" lon="6.79628">
        <ele>251.2</ele>
        <time>2014-04-13T11:13:16Z</time>
      </trkpt>
      <trkpt lat="43.6356" lon="6.7962">
        <ele>251.7</ele>
        <time>2014-04-13T11:13:26Z</time>
      </trkpt>
      <trkpt lat="43.63554" lon="6.79611">
        <ele>251.9</ele>
        <time>2014-04-13T11:13:34Z</time>
      </trkpt>
      <trkpt lat="43.63547" lon="6.79605">
        <ele>251.5</ele>
        <time>2014-04-13T11:13:44Z</time>
      </trkpt>
      <trkpt lat="43.63538" lon="6.79605">
        <ele>252.4</ele>
        <time>2014-04-13T11:13:53Z</time>
      </trkpt>
      <trkpt lat="43.63538" lon="6.79606">
        <ele>252.5</ele>
        <time>2014-04-13T11:13:54Z</time>
      </trkpt>
      <trkpt lat="43.63525" lon="6.79617">
        <ele>250.4</ele>
        <time>2014-04-13T11:14:13Z</time>
      </trkpt>
      <trkpt lat="43.63518" lon="6.79625">
        <ele>249.2</ele>
        <time>2014-04-13T11:14:23Z</time>
      </trkpt>
      <trkpt lat="43.6351" lon="6.79626">
        <ele>247.8</ele>
        <time>2014-04-13T11:14:39Z</time>
      </trkpt>
      <trkpt lat="43.63502" lon="6.79632">
        <ele>247.2</ele>
        <time>2014-04-13T11:14:47Z</time>
      </trkpt>
      <trkpt lat="43.63494" lon="6.79638">
        <ele>247.4</ele>
        <time>2014-04-13T11:14:57Z</time>
      </trkpt>
      <trkpt lat="43.63493" lon="6.79638">
        <ele>247.4</ele>
        <time>2014-04-13T11:14:58Z</time>
      </trkpt>
      <trkpt lat="43.63479" lon="6.79643">
        <ele>245.9</ele>
        <time>2014-04-13T11:15:17Z</time>
      </trkpt>
      <trkpt lat="43.63471" lon="6.79639">
        <ele>244.8</ele>
        <time>2014-04-13T11:15:23Z</time>
      </trkpt>
      <trkpt lat="43.63462" lon="6.79644">
        <ele>241.9</ele>
        <time>2014-04-13T11:15:41Z</time>
      </trkpt>
      <trkpt lat="43.63454" lon="6.79642">
        <ele>239.5</ele>
        <time>2014-04-13T11:15:52Z</time>
      </trkpt>
      <trkpt lat="43.63447" lon="6.79648">
        <ele>238.8</ele>
        <time>2014-04-13T11:16:00Z</time>
      </trkpt>
      <trkpt lat="43.63446" lon="6.79648">
        <ele>238.7</ele>
        <time>2014-04-13T11:16:01Z</time>
      </trkpt>
      <trkpt lat="43.63434" lon="6.79662">
        <ele>235.3</ele>
        <time>2014-04-13T11:16:24Z</time>
      </trkpt>
      <trkpt lat="43.63427" lon="6.79667">
        <ele>233.5</ele>
        <time>2014-04-13T11:16:37Z</time>
      </trkpt>
      <trkpt lat="43.63418" lon="6.79671">
        <ele>232.7</ele>
        <time>2014-04-13T11:17:04Z</time>
      </trkpt>
      <trkpt lat="43.63418" lon="6.79672">
        <ele>232.5</ele>
        <time>2014-04-13T11:17:05Z</time>
      </trkpt>
      <trkpt lat="43.63416" lon="6.79658">
        <ele>226.5</ele>
        <time>2014-04-13T11:19:17Z</time>
      </trkpt>
      <trkpt lat="43.63416" lon="6.79656">
        <ele>226.5</ele>
        <time>2014-04-13T11:19:18Z</time>
      </trkpt>
      <trkpt lat="43.63404" lon="6.7966">
        <ele>226.2</ele>
        <time>2014-04-13T11:19:32Z</time>
      </trkpt>
      <trkpt lat="43.63396" lon="6.79656">
        <ele>216</ele>
        <time>2014-04-13T11:20:18Z</time>
      </trkpt>
      <trkpt lat="43.63395" lon="6.79656">
        <ele>216</ele>
        <time>2014-04-13T11:20:19Z</time>
      </trkpt>
      <trkpt lat="43.63386" lon="6.79669">
        <ele>213.3</ele>
        <time>2014-04-13T11:21:04Z</time>
      </trkpt>
      <trkpt lat="43.63381" lon="6.79679">
        <ele>211.7</ele>
        <time>2014-04-13T11:21:39Z</time>
      </trkpt>
      <trkpt lat="43.63381" lon="6.7968">
        <ele>211.9</ele>
        <time>2014-04-13T11:21:40Z</time>
      </trkpt>
      <trkpt lat="43.63371" lon="6.79696">
        <ele>208.5</ele>
        <time>2014-04-13T11:21:59Z</time>
      </trkpt>
      <trkpt lat="43.63366" lon="6.79706">
        <ele>205.9</ele>
        <time>2014-04-13T11:22:21Z</time>
      </trkpt>
      <trkpt lat="43.63359" lon="6.797">
        <ele>206.6</ele>
        <time>2014-04-13T11:22:48Z</time>
      </trkpt>
      <trkpt lat="43.63358" lon="6.79699">
        <ele>206.5</ele>
        <time>2014-04-13T11:22:49Z</time>
      </trkpt>
      <trkpt lat="43.63348" lon="6.79715">
        <ele>202.8</ele>
        <time>2014-04-13T11:23:25Z</time>
      </trkpt>
      <trkpt lat="43.63343" lon="6.79724">
        <ele>203.6</ele>
        <time>2014-04-13T11:23:40Z</time>
      </trkpt>
      <trkpt lat="43.63336" lon="6.79732">
        <ele>200.5</ele>
        <time>2014-04-13T11:24:10Z</time>
      </trkpt>
      <trkpt lat="43.63335" lon="6.79732">
        <ele>200.7</ele>
        <time>2014-04-13T11:24:11Z</time>
      </trkpt>
      <trkpt lat="43.63318" lon="6.79735">
        <ele>195.7</ele>
        <time>2014-04-13T11:24:38Z</time>
      </trkpt>
      <trkpt lat="43.6331" lon="6.79731">
        <ele>191.6</ele>
        <time>2014-04-13T11:25:06Z</time>
      </trkpt>
      <trkpt lat="43.63309" lon="6.79743">
        <ele>189.9</ele>
        <time>2014-04-13T11:25:21Z</time>
      </trkpt>
      <trkpt lat="43.63309" lon="6.79743">
        <ele>190</ele>
        <time>2014-04-13T11:25:22Z</time>
      </trkpt>
      <trkpt lat="43.63293" lon="6.79751">
        <ele>188.9</ele>
        <time>2014-04-13T11:25:40Z</time>
      </trkpt>
      <trkpt lat="43.63286" lon="6.79757">
        <ele>188.8</ele>
        <time>2014-04-13T11:25:51Z</time>
      </trkpt>
      <trkpt lat="43.63279" lon="6.79763">
        <ele>188.6</ele>
        <time>2014-04-13T11:25:58Z</time>
      </trkpt>
      <trkpt lat="43.63274" lon="6.79772">
        <ele>189.5</ele>
        <time>2014-04-13T11:26:06Z</time>
      </trkpt>
      <trkpt lat="43.63269" lon="6.79782">
        <ele>189.9</ele>
        <time>2014-04-13T11:26:17Z</time>
      </trkpt>
      <trkpt lat="43.63266" lon="6.79793">
        <ele>190.6</ele>
        <time>2014-04-13T11:26:25Z</time>
      </trkpt>
      <trkpt lat="43.63266" lon="6.79794">
        <ele>190.2</ele>
        <time>2014-04-13T11:26:26Z</time>
      </trkpt>
      <trkpt lat="43.63258" lon="6.79815">
        <ele>190.4</ele>
        <time>2014-04-13T11:26:43Z</time>
      </trkpt>
      <trkpt lat="43.63255" lon="6.79826">
        <ele>191.8</ele>
        <time>2014-04-13T11:26:53Z</time>
      </trkpt>
      <trkpt lat="43.63251" lon="6.79836">
        <ele>190.4</ele>
        <time>2014-04-13T11:27:03Z</time>
      </trkpt>
      <trkpt lat="43.63246" lon="6.79845">
        <ele>189.7</ele>
        <time>2014-04-13T11:27:13Z</time>
      </trkpt>
      <trkpt lat="43.63241" lon="6.79855">
        <ele>190.8</ele>
        <time>2014-04-13T11:27:22Z</time>
      </trkpt>
      <trkpt lat="43.63234" lon="6.79864">
        <ele>190.9</ele>
        <time>2014-04-13T11:27:40Z</time>
      </trkpt>
      <trkpt lat="43.63234" lon="6.79864">
        <ele>190.7</ele>
        <time>2014-04-13T11:27:41Z</time>
      </trkpt>
      <trkpt lat="43.6322" lon="6.79875">
        <ele>191.7</ele>
        <time>2014-04-13T11:28:03Z</time>
      </trkpt>
      <trkpt lat="43.63213" lon="6.79881">
        <ele>192.7</ele>
        <time>2014-04-13T11:28:18Z</time>
      </trkpt>
      <trkpt lat="43.63205" lon="6.79887">
        <ele>191.1</ele>
        <time>2014-04-13T11:28:32Z</time>
      </trkpt>
      <trkpt lat="43.63198" lon="6.79889">
        <ele>191.6</ele>
        <time>2014-04-13T11:28:42Z</time>
      </trkpt>
      <trkpt lat="43.63197" lon="6.79889">
        <ele>191.7</ele>
        <time>2014-04-13T11:28:43Z</time>
      </trkpt>
      <trkpt lat="43.63181" lon="6.79893">
        <ele>188.8</ele>
        <time>2014-04-13T11:29:07Z</time>
      </trkpt>
      <trkpt lat="43.63173" lon="6.79896">
        <ele>188.7</ele>
        <time>2014-04-13T11:29:25Z</time>
      </trkpt>
      <trkpt lat="43.63165" lon="6.79897">
        <ele>186</ele>
        <time>2014-04-13T11:29:33Z</time>
      </trkpt>
      <trkpt lat="43.6316" lon="6.79907">
        <ele>185.2</ele>
        <time>2014-04-13T11:29:42Z</time>
      </trkpt>
      <trkpt lat="43.63155" lon="6.79917">
        <ele>185</ele>
        <time>2014-04-13T11:29:50Z</time>
      </trkpt>
      <trkpt lat="43.63154" lon="6.79918">
        <ele>185.1</ele>
        <time>2014-04-13T11:29:51Z</time>
      </trkpt>
      <trkpt lat="43.63138" lon="6.79919">
        <ele>183.5</ele>
        <time>2014-04-13T11:30:22Z</time>
      </trkpt>
      <trkpt lat="43.63132" lon="6.79929">
        <ele>182.1</ele>
        <time>2014-04-13T11:30:36Z</time>
      </trkpt>
      <trkpt lat="43.63124" lon="6.79933">
        <ele>183.1</ele>
        <time>2014-04-13T11:30:50Z</time>
      </trkpt>
      <trkpt lat="43.63115" lon="6.79931">
        <ele>186.9</ele>
        <time>2014-04-13T11:31:07Z</time>
      </trkpt>
      <trkpt lat="43.63115" lon="6.79931">
        <ele>187.3</ele>
        <time>2014-04-13T11:31:08Z</time>
      </trkpt>
      <trkpt lat="43.631" lon="6.79934">
        <ele>186.8</ele>
        <time>2014-04-13T11:31:28Z</time>
      </trkpt>
      <trkpt lat="43.63091" lon="6.79931">
        <ele>186.7</ele>
        <time>2014-04-13T11:31:38Z</time>
      </trkpt>
      <trkpt lat="43.63083" lon="6.79931">
        <ele>185.7</ele>
        <time>2014-04-13T11:31:47Z</time>
      </trkpt>
      <trkpt lat="43.63076" lon="6.79938">
        <ele>186.2</ele>
        <time>2014-04-13T11:31:56Z</time>
      </trkpt>
      <trkpt lat="43.63071" lon="6.79946">
        <ele>186.1</ele>
        <time>2014-04-13T11:32:03Z</time>
      </trkpt>
      <trkpt lat="43.63069" lon="6.79958">
        <ele>188.1</ele>
        <time>2014-04-13T11:32:14Z</time>
      </trkpt>
      <trkpt lat="43.63069" lon="6.79959">
        <ele>188</ele>
        <time>2014-04-13T11:32:15Z</time>
      </trkpt>
      <trkpt lat="43.63061" lon="6.79973">
        <ele>188.8</ele>
        <time>2014-04-13T11:32:29Z</time>
      </trkpt>
      <trkpt lat="43.63053" lon="6.79978">
        <ele>188.7</ele>
        <time>2014-04-13T11:32:40Z</time>
      </trkpt>
      <trkpt lat="43.63046" lon="6.79982">
        <ele>190.3</ele>
        <time>2014-04-13T11:32:48Z</time>
      </trkpt>
      <trkpt lat="43.63041" lon="6.79992">
        <ele>190.1</ele>
        <time>2014-04-13T11:32:57Z</time>
      </trkpt>
      <trkpt lat="43.63035" lon="6.80001">
        <ele>191.6</ele>
        <time>2014-04-13T11:33:06Z</time>
      </trkpt>
      <trkpt lat="43.63028" lon="6.80007">
        <ele>192.1</ele>
        <time>2014-04-13T11:33:13Z</time>
      </trkpt>
      <trkpt lat="43.6302" lon="6.8001">
        <ele>192.5</ele>
        <time>2014-04-13T11:33:24Z</time>
      </trkpt>
      <trkpt lat="43.6302" lon="6.80011">
        <ele>192.8</ele>
        <time>2014-04-13T11:33:25Z</time>
      </trkpt>
      <trkpt lat="43.63005" lon="6.80015">
        <ele>194.3</ele>
        <time>2014-04-13T11:33:41Z</time>
      </trkpt>
      <trkpt lat="43.62996" lon="6.80017">
        <ele>194.3</ele>
        <time>2014-04-13T11:33:50Z</time>
      </trkpt>
      <trkpt lat="43.62988" lon="6.8002">
        <ele>194.9</ele>
        <time>2014-04-13T11:34:02Z</time>
      </trkpt>
      <trkpt lat="43.6298" lon="6.80025">
        <ele>195.7</ele>
        <time>2014-04-13T11:34:13Z</time>
      </trkpt>
      <trkpt lat="43.62973" lon="6.80032">
        <ele>197.5</ele>
        <time>2014-04-13T11:34:27Z</time>
      </trkpt>
      <trkpt lat="43.62972" lon="6.80033">
        <ele>197.7</ele>
        <time>2014-04-13T11:34:28Z</time>
      </trkpt>
      <trkpt lat="43.62969" lon="6.80056">
        <ele>197.9</ele>
        <time>2014-04-13T11:34:48Z</time>
      </trkpt>
      <trkpt lat="43.62966" lon="6.80067">
        <ele>198.2</ele>
        <time>2014-04-13T11:35:00Z</time>
      </trkpt>
      <trkpt lat="43.62962" lon="6.80078">
        <ele>199.2</ele>
        <time>2014-04-13T11:35:52Z</time>
      </trkpt>
      <trkpt lat="43.62962" lon="6.80079">
        <ele>199.3</ele>
        <time>2014-04-13T11:35:53Z</time>
      </trkpt>
      <trkpt lat="43.62958" lon="6.80098">
        <ele>199.8</ele>
        <time>2014-04-13T11:36:20Z</time>
      </trkpt>
      <trkpt lat="43.6296" lon="6.8011">
        <ele>198.6</ele>
        <time>2014-04-13T11:36:33Z</time>
      </trkpt>
      <trkpt lat="43.62953" lon="6.80119">
        <ele>197</ele>
        <time>2014-04-13T11:36:47Z</time>
      </trkpt>
      <trkpt lat="43.62947" lon="6.80127">
        <ele>196.4</ele>
        <time>2014-04-13T11:37:00Z</time>
      </trkpt>
      <trkpt lat="43.62947" lon="6.80128">
        <ele>196</ele>
        <time>2014-04-13T11:37:01Z</time>
      </trkpt>
      <trkpt lat="43.62939" lon="6.80148">
        <ele>193.7</ele>
        <time>2014-04-13T11:37:23Z</time>
      </trkpt>
      <trkpt lat="43.62931" lon="6.8015">
        <ele>193.1</ele>
        <time>2014-04-13T11:37:34Z</time>
      </trkpt>
      <trkpt lat="43.62928" lon="6.80161">
        <ele>191.1</ele>
        <time>2014-04-13T11:37:46Z</time>
      </trkpt>
      <trkpt lat="43.62931" lon="6.80171">
        <ele>189.7</ele>
        <time>2014-04-13T11:37:58Z</time>
      </trkpt>
      <trkpt lat="43.62934" lon="6.80182">
        <ele>188</ele>
        <time>2014-04-13T11:38:08Z</time>
      </trkpt>
      <trkpt lat="43.62934" lon="6.80184">
        <ele>187.3</ele>
        <time>2014-04-13T11:38:09Z</time>
      </trkpt>
      <trkpt lat="43.62922" lon="6.80198">
        <ele>183.6</ele>
        <time>2014-04-13T11:38:30Z</time>
      </trkpt>
      <trkpt lat="43.62913" lon="6.80198">
        <ele>179.3</ele>
        <time>2014-04-13T11:38:45Z</time>
      </trkpt>
      <trkpt lat="43.62905" lon="6.80202">
        <ele>177.4</ele>
        <time>2014-04-13T11:38:57Z</time>
      </trkpt>
      <trkpt lat="43.62897" lon="6.80205">
        <ele>175.3</ele>
        <time>2014-04-13T11:39:17Z</time>
      </trkpt>
      <trkpt lat="43.62897" lon="6.80205">
        <ele>175</ele>
        <time>2014-04-13T11:39:18Z</time>
      </trkpt>
      <trkpt lat="43.62882" lon="6.80211">
        <ele>168.8</ele>
        <time>2014-04-13T11:39:47Z</time>
      </trkpt>
      <trkpt lat="43.62874" lon="6.80205">
        <ele>166.2</ele>
        <time>2014-04-13T11:40:12Z</time>
      </trkpt>
      <trkpt lat="43.62867" lon="6.802">
        <ele>163</ele>
        <time>2014-04-13T11:40:26Z</time>
      </trkpt>
      <trkpt lat="43.62866" lon="6.802">
        <ele>162.7</ele>
        <time>2014-04-13T11:40:27Z</time>
      </trkpt>
      <trkpt lat="43.62854" lon="6.80183">
        <ele>160.5</ele>
        <time>2014-04-13T11:40:44Z</time>
      </trkpt>
      <trkpt lat="43.6285" lon="6.80174">
        <ele>159.6</ele>
        <time>2014-04-13T11:40:53Z</time>
      </trkpt>
      <trkpt lat="43.62842" lon="6.80167">
        <ele>159.6</ele>
        <time>2014-04-13T11:41:03Z</time>
      </trkpt>
      <trkpt lat="43.62836" lon="6.8016">
        <ele>158.7</ele>
        <time>2014-04-13T11:41:24Z</time>
      </trkpt>
      <trkpt lat="43.62831" lon="6.8015">
        <ele>155.5</ele>
        <time>2014-04-13T11:42:05Z</time>
      </trkpt>
      <trkpt lat="43.6283" lon="6.80149">
        <ele>155.9</ele>
        <time>2014-04-13T11:42:06Z</time>
      </trkpt>
      <trkpt lat="43.62815" lon="6.80137">
        <ele>155.8</ele>
        <time>2014-04-13T11:42:46Z</time>
      </trkpt>
      <trkpt lat="43.62822" lon="6.80137">
        <ele>155.5</ele>
        <time>2014-04-13T11:42:48Z</time>
      </trkpt>
      <trkpt lat="43.6283" lon="6.80141">
        <ele>156.3</ele>
        <time>2014-04-13T11:42:52Z</time>
      </trkpt>
      <trkpt lat="43.62838" lon="6.8014">
        <ele>156.4</ele>
        <time>2014-04-13T11:43:03Z</time>
      </trkpt>
      <trkpt lat="43.62832" lon="6.80147">
        <ele>155.9</ele>
        <time>2014-04-13T11:46:42Z</time>
      </trkpt>
      <trkpt lat="43.62831" lon="6.80148">
        <ele>156.2</ele>
        <time>2014-04-13T11:46:43Z</time>
      </trkpt>
      <trkpt lat="43.62824" lon="6.80154">
        <ele>156.6</ele>
        <time>2014-04-13T11:47:54Z</time>
      </trkpt>
      <trkpt lat="43.62832" lon="6.80144">
        <ele>156.5</ele>
        <time>2014-04-13T11:50:45Z</time>
      </trkpt>
      <trkpt lat="43.62834" lon="6.80163">
        <ele>156.5</ele>
        <time>2014-04-13T11:52:25Z</time>
      </trkpt>
      <trkpt lat="43.62834" lon="6.80163">
        <ele>156.5</ele>
        <time>2014-04-13T11:52:26Z</time>
      </trkpt>
      <trkpt lat="43.62841" lon="6.80184">
        <ele>160.2</ele>
        <time>2014-04-13T11:53:12Z</time>
      </trkpt>
      <trkpt lat="43.62847" lon="6.80193">
        <ele>161</ele>
        <time>2014-04-13T11:53:26Z</time>
      </trkpt>
      <trkpt lat="43.62847" lon="6.80194">
        <ele>161.7</ele>
        <time>2014-04-13T11:53:27Z</time>
      </trkpt>
      <trkpt lat="43.62862" lon="6.80204">
        <ele>164.2</ele>
        <time>2014-04-13T11:53:52Z</time>
      </trkpt>
      <trkpt lat="43.62871" lon="6.80208">
        <ele>166.6</ele>
        <time>2014-04-13T11:54:05Z</time>
      </trkpt>
      <trkpt lat="43.62878" lon="6.80214">
        <ele>166.3</ele>
        <time>2014-04-13T11:54:16Z</time>
      </trkpt>
      <trkpt lat="43.62884" lon="6.80223">
        <ele>169.5</ele>
        <time>2014-04-13T11:54:31Z</time>
      </trkpt>
      <trkpt lat="43.62884" lon="6.80224">
        <ele>169.7</ele>
        <time>2014-04-13T11:54:32Z</time>
      </trkpt>
      <trkpt lat="43.62887" lon="6.80246">
        <ele>170.3</ele>
        <time>2014-04-13T11:54:59Z</time>
      </trkpt>
      <trkpt lat="43.62884" lon="6.80257">
        <ele>170.8</ele>
        <time>2014-04-13T11:55:07Z</time>
      </trkpt>
      <trkpt lat="43.62884" lon="6.80269">
        <ele>171.3</ele>
        <time>2014-04-13T11:55:16Z</time>
      </trkpt>
      <trkpt lat="43.62885" lon="6.8028">
        <ele>170.4</ele>
        <time>2014-04-13T11:55:26Z</time>
      </trkpt>
      <trkpt lat="43.62884" lon="6.80292">
        <ele>170.5</ele>
        <time>2014-04-13T11:55:34Z</time>
      </trkpt>
      <trkpt lat="43.62883" lon="6.80293">
        <ele>170.8</ele>
        <time>2014-04-13T11:55:35Z</time>
      </trkpt>
      <trkpt lat="43.62881" lon="6.80314">
        <ele>171.9</ele>
        <time>2014-04-13T11:55:50Z</time>
      </trkpt>
      <trkpt lat="43.62884" lon="6.80325">
        <ele>172.9</ele>
        <time>2014-04-13T11:55:56Z</time>
      </trkpt>
      <trkpt lat="43.62887" lon="6.80336">
        <ele>174</ele>
        <time>2014-04-13T11:56:08Z</time>
      </trkpt>
      <trkpt lat="43.62888" lon="6.80347">
        <ele>174.3</ele>
        <time>2014-04-13T11:56:18Z</time>
      </trkpt>
      <trkpt lat="43.62891" lon="6.80359">
        <ele>174.8</ele>
        <time>2014-04-13T11:56:24Z</time>
      </trkpt>
      <trkpt lat="43.62898" lon="6.80367">
        <ele>174.5</ele>
        <time>2014-04-13T11:56:32Z</time>
      </trkpt>
      <trkpt lat="43.62904" lon="6.80374">
        <ele>174.8</ele>
        <time>2014-04-13T11:56:39Z</time>
      </trkpt>
      <trkpt lat="43.62904" lon="6.80375">
        <ele>174.4</ele>
        <time>2014-04-13T11:56:40Z</time>
      </trkpt>
      <trkpt lat="43.62914" lon="6.80394">
        <ele>172.4</ele>
        <time>2014-04-13T11:56:55Z</time>
      </trkpt>
      <trkpt lat="43.62919" lon="6.80404">
        <ele>172.8</ele>
        <time>2014-04-13T11:57:01Z</time>
      </trkpt>
      <trkpt lat="43.62925" lon="6.80411">
        <ele>172.7</ele>
        <time>2014-04-13T11:57:09Z</time>
      </trkpt>
      <trkpt lat="43.62929" lon="6.80422">
        <ele>172.6</ele>
        <time>2014-04-13T11:57:17Z</time>
      </trkpt>
      <trkpt lat="43.62933" lon="6.8043">
        <ele>172.6</ele>
        <time>2014-04-13T11:57:24Z</time>
      </trkpt>
      <trkpt lat="43.62934" lon="6.80443">
        <ele>172.1</ele>
        <time>2014-04-13T11:57:32Z</time>
      </trkpt>
      <trkpt lat="43.62941" lon="6.80448">
        <ele>171</ele>
        <time>2014-04-13T11:57:46Z</time>
      </trkpt>
      <trkpt lat="43.62942" lon="6.80449">
        <ele>171.3</ele>
        <time>2014-04-13T11:57:47Z</time>
      </trkpt>
      <trkpt lat="43.62948" lon="6.8047">
        <ele>170.8</ele>
        <time>2014-04-13T11:58:07Z</time>
      </trkpt>
      <trkpt lat="43.62952" lon="6.80481">
        <ele>171.7</ele>
        <time>2014-04-13T11:58:15Z</time>
      </trkpt>
      <trkpt lat="43.62956" lon="6.80491">
        <ele>171.8</ele>
        <time>2014-04-13T11:58:23Z</time>
      </trkpt>
      <trkpt lat="43.62962" lon="6.80499">
        <ele>172.4</ele>
        <time>2014-04-13T11:58:31Z</time>
      </trkpt>
      <trkpt lat="43.62967" lon="6.80508">
        <ele>174.1</ele>
        <time>2014-04-13T11:58:37Z</time>
      </trkpt>
      <trkpt lat="43.62974" lon="6.80514">
        <ele>174.5</ele>
        <time>2014-04-13T11:58:44Z</time>
      </trkpt>
      <trkpt lat="43.62978" lon="6.80523">
        <ele>174.4</ele>
        <time>2014-04-13T11:58:51Z</time>
      </trkpt>
      <trkpt lat="43.62979" lon="6.80525">
        <ele>174.4</ele>
        <time>2014-04-13T11:58:52Z</time>
      </trkpt>
      <trkpt lat="43.62983" lon="6.80545">
        <ele>173.4</ele>
        <time>2014-04-13T11:59:09Z</time>
      </trkpt>
      <trkpt lat="43.62989" lon="6.80554">
        <ele>174.6</ele>
        <time>2014-04-13T11:59:16Z</time>
      </trkpt>
      <trkpt lat="43.62992" lon="6.80564">
        <ele>173.1</ele>
        <time>2014-04-13T11:59:23Z</time>
      </trkpt>
      <trkpt lat="43.62991" lon="6.80575">
        <ele>173.2</ele>
        <time>2014-04-13T11:59:29Z</time>
      </trkpt>
      <trkpt lat="43.62993" lon="6.80586">
        <ele>173</ele>
        <time>2014-04-13T11:59:38Z</time>
      </trkpt>
      <trkpt lat="43.62994" lon="6.80597">
        <ele>171</ele>
        <time>2014-04-13T11:59:44Z</time>
      </trkpt>
      <trkpt lat="43.62993" lon="6.80609">
        <ele>172.2</ele>
        <time>2014-04-13T11:59:49Z</time>
      </trkpt>
      <trkpt lat="43.62998" lon="6.80617">
        <ele>172.1</ele>
        <time>2014-04-13T11:59:55Z</time>
      </trkpt>
      <trkpt lat="43.62999" lon="6.80619">
        <ele>172.1</ele>
        <time>2014-04-13T11:59:56Z</time>
      </trkpt>
      <trkpt lat="43.63008" lon="6.80636">
        <ele>172.6</ele>
        <time>2014-04-13T12:00:12Z</time>
      </trkpt>
      <trkpt lat="43.63012" lon="6.80648">
        <ele>172</ele>
        <time>2014-04-13T12:00:21Z</time>
      </trkpt>
      <trkpt lat="43.63016" lon="6.80658">
        <ele>172.4</ele>
        <time>2014-04-13T12:00:28Z</time>
      </trkpt>
      <trkpt lat="43.63016" lon="6.8067">
        <ele>171.9</ele>
        <time>2014-04-13T12:00:35Z</time>
      </trkpt>
      <trkpt lat="43.63021" lon="6.8068">
        <ele>172.4</ele>
        <time>2014-04-13T12:00:43Z</time>
      </trkpt>
      <trkpt lat="43.63022" lon="6.80692">
        <ele>172.4</ele>
        <time>2014-04-13T12:00:52Z</time>
      </trkpt>
      <trkpt lat="43.63023" lon="6.80703">
        <ele>171.9</ele>
        <time>2014-04-13T12:00:57Z</time>
      </trkpt>
      <trkpt lat="43.63023" lon="6.80706">
        <ele>171.9</ele>
        <time>2014-04-13T12:00:58Z</time>
      </trkpt>
      <trkpt lat="43.63031" lon="6.80723">
        <ele>171.2</ele>
        <time>2014-04-13T12:01:10Z</time>
      </trkpt>
      <trkpt lat="43.63035" lon="6.80734">
        <ele>172.5</ele>
        <time>2014-04-13T12:01:18Z</time>
      </trkpt>
      <trkpt lat="43.6304" lon="6.80743">
        <ele>172.2</ele>
        <time>2014-04-13T12:01:24Z</time>
      </trkpt>
      <trkpt lat="43.63043" lon="6.80753">
        <ele>171.5</ele>
        <time>2014-04-13T12:01:31Z</time>
      </trkpt>
      <trkpt lat="43.63049" lon="6.80763">
        <ele>171.8</ele>
        <time>2014-04-13T12:01:38Z</time>
      </trkpt>
      <trkpt lat="43.63056" lon="6.80768">
        <ele>171.5</ele>
        <time>2014-04-13T12:01:43Z</time>
      </trkpt>
      <trkpt lat="43.63064" lon="6.80771">
        <ele>170.8</ele>
        <time>2014-04-13T12:01:48Z</time>
      </trkpt>
      <trkpt lat="43.63069" lon="6.80778">
        <ele>170.7</ele>
        <time>2014-04-13T12:01:53Z</time>
      </trkpt>
      <trkpt lat="43.63076" lon="6.80785">
        <ele>170.7</ele>
        <time>2014-04-13T12:01:59Z</time>
      </trkpt>
      <trkpt lat="43.63077" lon="6.80786">
        <ele>170.5</ele>
        <time>2014-04-13T12:02:00Z</time>
      </trkpt>
      <trkpt lat="43.63086" lon="6.80804">
        <ele>171.1</ele>
        <time>2014-04-13T12:02:20Z</time>
      </trkpt>
      <trkpt lat="43.63093" lon="6.8081">
        <ele>171.7</ele>
        <time>2014-04-13T12:02:29Z</time>
      </trkpt>
      <trkpt lat="43.631" lon="6.80818">
        <ele>171.6</ele>
        <time>2014-04-13T12:02:39Z</time>
      </trkpt>
      <trkpt lat="43.63106" lon="6.80826">
        <ele>171.4</ele>
        <time>2014-04-13T12:03:14Z</time>
      </trkpt>
      <trkpt lat="43.63106" lon="6.80827">
        <ele>171.4</ele>
        <time>2014-04-13T12:03:15Z</time>
      </trkpt>
      <trkpt lat="43.63112" lon="6.80847">
        <ele>171</ele>
        <time>2014-04-13T12:04:02Z</time>
      </trkpt>
      <trkpt lat="43.63111" lon="6.80859">
        <ele>169.2</ele>
        <time>2014-04-13T12:04:12Z</time>
      </trkpt>
      <trkpt lat="43.63117" lon="6.80868">
        <ele>167.8</ele>
        <time>2014-04-13T12:04:20Z</time>
      </trkpt>
      <trkpt lat="43.63117" lon="6.80869">
        <ele>167.5</ele>
        <time>2014-04-13T12:04:21Z</time>
      </trkpt>
      <trkpt lat="43.63124" lon="6.80889">
        <ele>165.8</ele>
        <time>2014-04-13T12:04:47Z</time>
      </trkpt>
      <trkpt lat="43.6312" lon="6.80899">
        <ele>164.3</ele>
        <time>2014-04-13T12:05:00Z</time>
      </trkpt>
      <trkpt lat="43.63125" lon="6.80909">
        <ele>163.3</ele>
        <time>2014-04-13T12:05:11Z</time>
      </trkpt>
      <trkpt lat="43.63127" lon="6.8092">
        <ele>162.2</ele>
        <time>2014-04-13T12:05:24Z</time>
      </trkpt>
      <trkpt lat="43.63127" lon="6.80921">
        <ele>162</ele>
        <time>2014-04-13T12:05:25Z</time>
      </trkpt>
      <trkpt lat="43.63135" lon="6.80941">
        <ele>163.1</ele>
        <time>2014-04-13T12:05:48Z</time>
      </trkpt>
      <trkpt lat="43.63134" lon="6.80952">
        <ele>162.7</ele>
        <time>2014-04-13T12:06:02Z</time>
      </trkpt>
      <trkpt lat="43.63135" lon="6.80964">
        <ele>161.9</ele>
        <time>2014-04-13T12:06:11Z</time>
      </trkpt>
      <trkpt lat="43.63136" lon="6.80977">
        <ele>162</ele>
        <time>2014-04-13T12:06:20Z</time>
      </trkpt>
      <trkpt lat="43.63143" lon="6.80971">
        <ele>161.2</ele>
        <time>2014-04-13T12:06:56Z</time>
      </trkpt>
      <trkpt lat="43.63144" lon="6.80971">
        <ele>161.3</ele>
        <time>2014-04-13T12:06:57Z</time>
      </trkpt>
      <trkpt lat="43.63142" lon="6.80984">
        <ele>161.5</ele>
        <time>2014-04-13T12:09:13Z</time>
      </trkpt>
      <trkpt lat="43.63159" lon="6.8099">
        <ele>163.2</ele>
        <time>2014-04-13T12:10:23Z</time>
      </trkpt>
      <trkpt lat="43.6316" lon="6.8099">
        <ele>163.3</ele>
        <time>2014-04-13T12:10:24Z</time>
      </trkpt>
      <trkpt lat="43.6315" lon="6.80997">
        <ele>162.9</ele>
        <time>2014-04-13T12:12:17Z</time>
      </trkpt>
      <trkpt lat="43.63148" lon="6.81017">
        <ele>165.6</ele>
        <time>2014-04-13T12:12:37Z</time>
      </trkpt>
      <trkpt lat="43.63149" lon="6.81028">
        <ele>166.4</ele>
        <time>2014-04-13T12:12:42Z</time>
      </trkpt>
      <trkpt lat="43.63152" lon="6.81039">
        <ele>166.8</ele>
        <time>2014-04-13T12:12:49Z</time>
      </trkpt>
      <trkpt lat="43.63153" lon="6.81051">
        <ele>167</ele>
        <time>2014-04-13T12:12:55Z</time>
      </trkpt>
      <trkpt lat="43.63155" lon="6.81063">
        <ele>167.6</ele>
        <time>2014-04-13T12:13:01Z</time>
      </trkpt>
      <trkpt lat="43.63157" lon="6.81073">
        <ele>166.4</ele>
        <time>2014-04-13T12:13:09Z</time>
      </trkpt>
      <trkpt lat="43.63158" lon="6.81085">
        <ele>165.1</ele>
        <time>2014-04-13T12:13:19Z</time>
      </trkpt>
      <trkpt lat="43.63157" lon="6.81087">
        <ele>165</ele>
        <time>2014-04-13T12:13:20Z</time>
      </trkpt>
      <trkpt lat="43.6316" lon="6.81108">
        <ele>163.7</ele>
        <time>2014-04-13T12:13:41Z</time>
      </trkpt>
      <trkpt lat="43.63162" lon="6.81119">
        <ele>162.9</ele>
        <time>2014-04-13T12:13:55Z</time>
      </trkpt>
      <trkpt lat="43.63165" lon="6.8113">
        <ele>161.3</ele>
        <time>2014-04-13T12:14:46Z</time>
      </trkpt>
      <trkpt lat="43.63166" lon="6.81131">
        <ele>160.9</ele>
        <time>2014-04-13T12:14:47Z</time>
      </trkpt>
      <trkpt lat="43.63169" lon="6.81153">
        <ele>161.4</ele>
        <time>2014-04-13T12:14:58Z</time>
      </trkpt>
      <trkpt lat="43.63172" lon="6.81164">
        <ele>161.3</ele>
        <time>2014-04-13T12:15:05Z</time>
      </trkpt>
      <trkpt lat="43.63176" lon="6.81176">
        <ele>161.8</ele>
        <time>2014-04-13T12:15:13Z</time>
      </trkpt>
      <trkpt lat="43.6318" lon="6.81187">
        <ele>164</ele>
        <time>2014-04-13T12:15:23Z</time>
      </trkpt>
      <trkpt lat="43.63185" lon="6.81197">
        <ele>163.2</ele>
        <time>2014-04-13T12:15:41Z</time>
      </trkpt>
      <trkpt lat="43.63186" lon="6.81209">
        <ele>163.4</ele>
        <time>2014-04-13T12:15:51Z</time>
      </trkpt>
      <trkpt lat="43.63187" lon="6.8121">
        <ele>163.7</ele>
        <time>2014-04-13T12:15:52Z</time>
      </trkpt>
      <trkpt lat="43.63192" lon="6.81231">
        <ele>164.5</ele>
        <time>2014-04-13T12:16:07Z</time>
      </trkpt>
      <trkpt lat="43.63194" lon="6.81243">
        <ele>164.6</ele>
        <time>2014-04-13T12:16:14Z</time>
      </trkpt>
      <trkpt lat="43.63193" lon="6.81255">
        <ele>165.4</ele>
        <time>2014-04-13T12:16:21Z</time>
      </trkpt>
      <trkpt lat="43.63192" lon="6.81266">
        <ele>167.1</ele>
        <time>2014-04-13T12:16:30Z</time>
      </trkpt>
      <trkpt lat="43.63194" lon="6.81278">
        <ele>165.7</ele>
        <time>2014-04-13T12:17:10Z</time>
      </trkpt>
      <trkpt lat="43.63195" lon="6.81279">
        <ele>166</ele>
        <time>2014-04-13T12:17:11Z</time>
      </trkpt>
      <trkpt lat="43.63197" lon="6.813">
        <ele>164.3</ele>
        <time>2014-04-13T12:18:03Z</time>
      </trkpt>
      <trkpt lat="43.63196" lon="6.81312">
        <ele>164.4</ele>
        <time>2014-04-13T12:18:07Z</time>
      </trkpt>
      <trkpt lat="43.63198" lon="6.81321">
        <ele>163.8</ele>
        <time>2014-04-13T12:18:11Z</time>
      </trkpt>
      <trkpt lat="43.63199" lon="6.81324">
        <ele>163.8</ele>
        <time>2014-04-13T12:18:12Z</time>
      </trkpt>
      <trkpt lat="43.63198" lon="6.81343">
        <ele>163.6</ele>
        <time>2014-04-13T12:18:18Z</time>
      </trkpt>
      <trkpt lat="43.63196" lon="6.81354">
        <ele>163.2</ele>
        <time>2014-04-13T12:18:30Z</time>
      </trkpt>
      <trkpt lat="43.63199" lon="6.81365">
        <ele>163</ele>
        <time>2014-04-13T12:18:36Z</time>
      </trkpt>
      <trkpt lat="43.63198" lon="6.81376">
        <ele>162.7</ele>
        <time>2014-04-13T12:18:43Z</time>
      </trkpt>
      <trkpt lat="43.63198" lon="6.81388">
        <ele>162.2</ele>
        <time>2014-04-13T12:18:57Z</time>
      </trkpt>
      <trkpt lat="43.63195" lon="6.81398">
        <ele>161.9</ele>
        <time>2014-04-13T12:19:06Z</time>
      </trkpt>
      <trkpt lat="43.63194" lon="6.8141">
        <ele>162.6</ele>
        <time>2014-04-13T12:19:13Z</time>
      </trkpt>
      <trkpt lat="43.63194" lon="6.81411">
        <ele>162.1</ele>
        <time>2014-04-13T12:19:14Z</time>
      </trkpt>
      <trkpt lat="43.63191" lon="6.81422">
        <ele>161.4</ele>
        <time>2014-04-13T12:20:56Z</time>
      </trkpt>
      <trkpt lat="43.63185" lon="6.81442">
        <ele>160.4</ele>
        <time>2014-04-13T12:21:08Z</time>
      </trkpt>
      <trkpt lat="43.63185" lon="6.81454">
        <ele>160.6</ele>
        <time>2014-04-13T12:21:18Z</time>
      </trkpt>
      <trkpt lat="43.63186" lon="6.81467">
        <ele>159.9</ele>
        <time>2014-04-13T12:21:27Z</time>
      </trkpt>
      <trkpt lat="43.63189" lon="6.81478">
        <ele>159.7</ele>
        <time>2014-04-13T12:21:35Z</time>
      </trkpt>
      <trkpt lat="43.63196" lon="6.81486">
        <ele>158.1</ele>
        <time>2014-04-13T12:21:42Z</time>
      </trkpt>
      <trkpt lat="43.63199" lon="6.81497">
        <ele>157.4</ele>
        <time>2014-04-13T12:22:07Z</time>
      </trkpt>
      <trkpt lat="43.63199" lon="6.81497">
        <ele>157.3</ele>
        <time>2014-04-13T12:22:08Z</time>
      </trkpt>
      <trkpt lat="43.63207" lon="6.81516">
        <ele>149.9</ele>
        <time>2014-04-13T12:22:36Z</time>
      </trkpt>
      <trkpt lat="43.63206" lon="6.81529">
        <ele>149</ele>
        <time>2014-04-13T12:22:43Z</time>
      </trkpt>
      <trkpt lat="43.63214" lon="6.81533">
        <ele>147.7</ele>
        <time>2014-04-13T12:22:52Z</time>
      </trkpt>
      <trkpt lat="43.63222" lon="6.81538">
        <ele>147.4</ele>
        <time>2014-04-13T12:22:56Z</time>
      </trkpt>
      <trkpt lat="43.63228" lon="6.81547">
        <ele>146.8</ele>
        <time>2014-04-13T12:23:04Z</time>
      </trkpt>
      <trkpt lat="43.63236" lon="6.81552">
        <ele>147</ele>
        <time>2014-04-13T12:23:09Z</time>
      </trkpt>
      <trkpt lat="43.63237" lon="6.81552">
        <ele>146.7</ele>
        <time>2014-04-13T12:23:10Z</time>
      </trkpt>
      <trkpt lat="43.63248" lon="6.81565">
        <ele>146.4</ele>
        <time>2014-04-13T12:23:26Z</time>
      </trkpt>
      <trkpt lat="43.63257" lon="6.81568">
        <ele>144.7</ele>
        <time>2014-04-13T12:23:42Z</time>
      </trkpt>
      <trkpt lat="43.63258" lon="6.8158">
        <ele>143.2</ele>
        <time>2014-04-13T12:23:55Z</time>
      </trkpt>
      <trkpt lat="43.63264" lon="6.81587">
        <ele>143.8</ele>
        <time>2014-04-13T12:23:59Z</time>
      </trkpt>
      <trkpt lat="43.6327" lon="6.81594">
        <ele>142.3</ele>
        <time>2014-04-13T12:24:11Z</time>
      </trkpt>
      <trkpt lat="43.63271" lon="6.81595">
        <ele>142.1</ele>
        <time>2014-04-13T12:24:12Z</time>
      </trkpt>
      <trkpt lat="43.63273" lon="6.81617">
        <ele>140.3</ele>
        <time>2014-04-13T12:24:44Z</time>
      </trkpt>
      <trkpt lat="43.63271" lon="6.81627">
        <ele>139.4</ele>
        <time>2014-04-13T12:24:53Z</time>
      </trkpt>
      <trkpt lat="43.63269" lon="6.81639">
        <ele>140</ele>
        <time>2014-04-13T12:25:20Z</time>
      </trkpt>
      <trkpt lat="43.63269" lon="6.81639">
        <ele>139.8</ele>
        <time>2014-04-13T12:25:21Z</time>
      </trkpt>
      <trkpt lat="43.63266" lon="6.8165">
        <ele>136.7</ele>
        <time>2014-04-13T12:26:51Z</time>
      </trkpt>
      <trkpt lat="43.63252" lon="6.81662">
        <ele>135.6</ele>
        <time>2014-04-13T12:27:25Z</time>
      </trkpt>
      <trkpt lat="43.63252" lon="6.81674">
        <ele>134.6</ele>
        <time>2014-04-13T12:27:35Z</time>
      </trkpt>
      <trkpt lat="43.63258" lon="6.81666">
        <ele>134</ele>
        <time>2014-04-13T12:27:55Z</time>
      </trkpt>
      <trkpt lat="43.63259" lon="6.81665">
        <ele>133.4</ele>
        <time>2014-04-13T12:27:56Z</time>
      </trkpt>
      <trkpt lat="43.63244" lon="6.81655">
        <ele>133.6</ele>
        <time>2014-04-13T12:28:10Z</time>
      </trkpt>
      <trkpt lat="43.63238" lon="6.81648">
        <ele>132.2</ele>
        <time>2014-04-13T12:28:14Z</time>
      </trkpt>
      <trkpt lat="43.63232" lon="6.81642">
        <ele>132.5</ele>
        <time>2014-04-13T12:28:17Z</time>
      </trkpt>
      <trkpt lat="43.63224" lon="6.81638">
        <ele>133.4</ele>
        <time>2014-04-13T12:28:20Z</time>
      </trkpt>
      <trkpt lat="43.63216" lon="6.81636">
        <ele>132.7</ele>
        <time>2014-04-13T12:28:24Z</time>
      </trkpt>
      <trkpt lat="43.6321" lon="6.81639">
        <ele>133.6</ele>
        <time>2014-04-13T12:28:28Z</time>
      </trkpt>
      <trkpt lat="43.63201" lon="6.81639">
        <ele>133.7</ele>
        <time>2014-04-13T12:28:35Z</time>
      </trkpt>
      <trkpt lat="43.63193" lon="6.81644">
        <ele>134.1</ele>
        <time>2014-04-13T12:28:44Z</time>
      </trkpt>
      <trkpt lat="43.63186" lon="6.81647">
        <ele>134.9</ele>
        <time>2014-04-13T12:28:50Z</time>
      </trkpt>
      <trkpt lat="43.6318" lon="6.81656">
        <ele>135.8</ele>
        <time>2014-04-13T12:28:59Z</time>
      </trkpt>
      <trkpt lat="43.6318" lon="6.81657">
        <ele>135.9</ele>
        <time>2014-04-13T12:29:00Z</time>
      </trkpt>
      <trkpt lat="43.6317" lon="6.81667">
        <ele>135.7</ele>
        <time>2014-04-13T12:29:41Z</time>
      </trkpt>
      <trkpt lat="43.63163" lon="6.81672">
        <ele>136.9</ele>
        <time>2014-04-13T12:29:48Z</time>
      </trkpt>
      <trkpt lat="43.63155" lon="6.81675">
        <ele>137.4</ele>
        <time>2014-04-13T12:29:57Z</time>
      </trkpt>
      <trkpt lat="43.63148" lon="6.8168">
        <ele>137.1</ele>
        <time>2014-04-13T12:30:03Z</time>
      </trkpt>
      <trkpt lat="43.63147" lon="6.8168">
        <ele>137</ele>
        <time>2014-04-13T12:30:04Z</time>
      </trkpt>
      <trkpt lat="43.63138" lon="6.81697">
        <ele>137.4</ele>
        <time>2014-04-13T12:30:29Z</time>
      </trkpt>
      <trkpt lat="43.63135" lon="6.81707">
        <ele>136.5</ele>
        <time>2014-04-13T12:30:42Z</time>
      </trkpt>
      <trkpt lat="43.63128" lon="6.81713">
        <ele>134.8</ele>
        <time>2014-04-13T12:30:51Z</time>
      </trkpt>
      <trkpt lat="43.63122" lon="6.8172">
        <ele>135</ele>
        <time>2014-04-13T12:30:56Z</time>
      </trkpt>
      <trkpt lat="43.63115" lon="6.81727">
        <ele>134.8</ele>
        <time>2014-04-13T12:31:00Z</time>
      </trkpt>
      <trkpt lat="43.63109" lon="6.81734">
        <ele>133.5</ele>
        <time>2014-04-13T12:31:07Z</time>
      </trkpt>
      <trkpt lat="43.63108" lon="6.81735">
        <ele>133.6</ele>
        <time>2014-04-13T12:31:08Z</time>
      </trkpt>
      <trkpt lat="43.63101" lon="6.81754">
        <ele>133.8</ele>
        <time>2014-04-13T12:32:15Z</time>
      </trkpt>
      <trkpt lat="43.631" lon="6.81756">
        <ele>133.7</ele>
        <time>2014-04-13T12:32:16Z</time>
      </trkpt>
      <trkpt lat="43.63106" lon="6.81775">
        <ele>136</ele>
        <time>2014-04-13T12:33:37Z</time>
      </trkpt>
      <trkpt lat="43.63106" lon="6.81776">
        <ele>136.1</ele>
        <time>2014-04-13T12:33:38Z</time>
      </trkpt>
      <trkpt lat="43.63099" lon="6.81797">
        <ele>134.4</ele>
        <time>2014-04-13T12:34:26Z</time>
      </trkpt>
      <trkpt lat="43.63097" lon="6.81806">
        <ele>134.8</ele>
        <time>2014-04-13T12:34:31Z</time>
      </trkpt>
      <trkpt lat="43.63095" lon="6.81817">
        <ele>134.5</ele>
        <time>2014-04-13T12:34:38Z</time>
      </trkpt>
      <trkpt lat="43.63095" lon="6.81819">
        <ele>134.4</ele>
        <time>2014-04-13T12:34:39Z</time>
      </trkpt>
      <trkpt lat="43.63084" lon="6.81833">
        <ele>134.7</ele>
        <time>2014-04-13T12:34:54Z</time>
      </trkpt>
      <trkpt lat="43.63076" lon="6.81837">
        <ele>135.2</ele>
        <time>2014-04-13T12:35:02Z</time>
      </trkpt>
      <trkpt lat="43.63068" lon="6.81839">
        <ele>135.6</ele>
        <time>2014-04-13T12:35:09Z</time>
      </trkpt>
      <trkpt lat="43.6306" lon="6.81843">
        <ele>135.1</ele>
        <time>2014-04-13T12:35:16Z</time>
      </trkpt>
      <trkpt lat="43.63054" lon="6.81849">
        <ele>135.8</ele>
        <time>2014-04-13T12:35:21Z</time>
      </trkpt>
      <trkpt lat="43.63045" lon="6.81847">
        <ele>135.3</ele>
        <time>2014-04-13T12:35:28Z</time>
      </trkpt>
      <trkpt lat="43.63037" lon="6.81848">
        <ele>136.8</ele>
        <time>2014-04-13T12:35:37Z</time>
      </trkpt>
      <trkpt lat="43.63029" lon="6.81851">
        <ele>136.2</ele>
        <time>2014-04-13T12:35:46Z</time>
      </trkpt>
      <trkpt lat="43.63028" lon="6.81851">
        <ele>136</ele>
        <time>2014-04-13T12:35:47Z</time>
      </trkpt>
      <trkpt lat="43.63013" lon="6.81859">
        <ele>139.1</ele>
        <time>2014-04-13T12:36:12Z</time>
      </trkpt>
      <trkpt lat="43.63005" lon="6.81865">
        <ele>139.6</ele>
        <time>2014-04-13T12:36:59Z</time>
      </trkpt>
      <trkpt lat="43.63005" lon="6.81865">
        <ele>139.6</ele>
        <time>2014-04-13T12:37:00Z</time>
      </trkpt>
      <trkpt lat="43.63004" lon="6.81852">
        <ele>138.2</ele>
        <time>2014-04-13T12:38:05Z</time>
      </trkpt>
      <trkpt lat="43.62991" lon="6.81835">
        <ele>136.1</ele>
        <time>2014-04-13T12:38:24Z</time>
      </trkpt>
      <trkpt lat="43.62986" lon="6.81826">
        <ele>134.3</ele>
        <time>2014-04-13T12:38:39Z</time>
      </trkpt>
      <trkpt lat="43.62982" lon="6.81816">
        <ele>132.9</ele>
        <time>2014-04-13T12:38:52Z</time>
      </trkpt>
      <trkpt lat="43.62976" lon="6.81807">
        <ele>130.9</ele>
        <time>2014-04-13T12:38:58Z</time>
      </trkpt>
      <trkpt lat="43.6297" lon="6.81802">
        <ele>131</ele>
        <time>2014-04-13T12:39:04Z</time>
      </trkpt>
      <trkpt lat="43.62963" lon="6.81797">
        <ele>130.3</ele>
        <time>2014-04-13T12:39:11Z</time>
      </trkpt>
      <trkpt lat="43.62962" lon="6.81796">
        <ele>130.3</ele>
        <time>2014-04-13T12:39:12Z</time>
      </trkpt>
      <trkpt lat="43.62951" lon="6.81784">
        <ele>126.7</ele>
        <time>2014-04-13T12:39:32Z</time>
      </trkpt>
      <trkpt lat="43.62943" lon="6.81784">
        <ele>124.4</ele>
        <time>2014-04-13T12:39:49Z</time>
      </trkpt>
      <trkpt lat="43.62935" lon="6.81784">
        <ele>122.9</ele>
        <time>2014-04-13T12:39:58Z</time>
      </trkpt>
      <trkpt lat="43.62926" lon="6.81784">
        <ele>121</ele>
        <time>2014-04-13T12:40:11Z</time>
      </trkpt>
      <trkpt lat="43.62918" lon="6.81789">
        <ele>116.9</ele>
        <time>2014-04-13T12:40:34Z</time>
      </trkpt>
      <trkpt lat="43.62918" lon="6.8179">
        <ele>116.6</ele>
        <time>2014-04-13T12:40:35Z</time>
      </trkpt>
      <trkpt lat="43.62906" lon="6.81806">
        <ele>114.6</ele>
        <time>2014-04-13T12:41:04Z</time>
      </trkpt>
      <trkpt lat="43.62899" lon="6.81815">
        <ele>112</ele>
        <time>2014-04-13T12:41:19Z</time>
      </trkpt>
      <trkpt lat="43.62894" lon="6.81824">
        <ele>110.6</ele>
        <time>2014-04-13T12:41:45Z</time>
      </trkpt>
      <trkpt lat="43.62893" lon="6.81825">
        <ele>110.1</ele>
        <time>2014-04-13T12:41:46Z</time>
      </trkpt>
      <trkpt lat="43.6288" lon="6.81836">
        <ele>109.8</ele>
        <time>2014-04-13T12:42:07Z</time>
      </trkpt>
      <trkpt lat="43.62874" lon="6.81844">
        <ele>108.8</ele>
        <time>2014-04-13T12:42:16Z</time>
      </trkpt>
      <trkpt lat="43.6287" lon="6.81855">
        <ele>108.6</ele>
        <time>2014-04-13T12:42:30Z</time>
      </trkpt>
      <trkpt lat="43.62862" lon="6.81859">
        <ele>107.9</ele>
        <time>2014-04-13T12:42:39Z</time>
      </trkpt>
      <trkpt lat="43.62854" lon="6.8186">
        <ele>107.3</ele>
        <time>2014-04-13T12:42:51Z</time>
      </trkpt>
      <trkpt lat="43.62852" lon="6.8186">
        <ele>107.2</ele>
        <time>2014-04-13T12:42:52Z</time>
      </trkpt>
      <trkpt lat="43.62837" lon="6.81864">
        <ele>106.3</ele>
        <time>2014-04-13T12:43:04Z</time>
      </trkpt>
      <trkpt lat="43.62828" lon="6.81866">
        <ele>104.9</ele>
        <time>2014-04-13T12:43:13Z</time>
      </trkpt>
      <trkpt lat="43.6282" lon="6.81866">
        <ele>104.3</ele>
        <time>2014-04-13T12:43:26Z</time>
      </trkpt>
      <trkpt lat="43.62811" lon="6.81864">
        <ele>104.4</ele>
        <time>2014-04-13T12:43:34Z</time>
      </trkpt>
      <trkpt lat="43.62805" lon="6.81865">
        <ele>103.9</ele>
        <time>2014-04-13T12:43:39Z</time>
      </trkpt>
      <trkpt lat="43.62797" lon="6.81871">
        <ele>103.2</ele>
        <time>2014-04-13T12:43:44Z</time>
      </trkpt>
      <trkpt lat="43.6279" lon="6.81875">
        <ele>101.1</ele>
        <time>2014-04-13T12:43:51Z</time>
      </trkpt>
      <trkpt lat="43.62781" lon="6.81876">
        <ele>100.8</ele>
        <time>2014-04-13T12:43:57Z</time>
      </trkpt>
      <trkpt lat="43.62779" lon="6.81876">
        <ele>100.4</ele>
        <time>2014-04-13T12:43:58Z</time>
      </trkpt>
      <trkpt lat="43.62766" lon="6.81882">
        <ele>99.6</ele>
        <time>2014-04-13T12:44:08Z</time>
      </trkpt>
      <trkpt lat="43.62759" lon="6.8189">
        <ele>97.4</ele>
        <time>2014-04-13T12:44:19Z</time>
      </trkpt>
      <trkpt lat="43.62767" lon="6.81886">
        <ele>97.5</ele>
        <time>2014-04-13T12:44:31Z</time>
      </trkpt>
      <trkpt lat="43.62775" lon="6.81882">
        <ele>96.9</ele>
        <time>2014-04-13T12:44:38Z</time>
      </trkpt>
      <trkpt lat="43.62779" lon="6.81871">
        <ele>96</ele>
        <time>2014-04-13T12:45:11Z</time>
      </trkpt>
      <trkpt lat="43.6278" lon="6.8187">
        <ele>95.9</ele>
        <time>2014-04-13T12:45:12Z</time>
      </trkpt>
      <trkpt lat="43.62793" lon="6.81864">
        <ele>96.2</ele>
        <time>2014-04-13T12:45:29Z</time>
      </trkpt>
      <trkpt lat="43.628" lon="6.81857">
        <ele>95.9</ele>
        <time>2014-04-13T12:45:36Z</time>
      </trkpt>
      <trkpt lat="43.62807" lon="6.81849">
        <ele>94.6</ele>
        <time>2014-04-13T12:45:47Z</time>
      </trkpt>
      <trkpt lat="43.62815" lon="6.81845">
        <ele>93.7</ele>
        <time>2014-04-13T12:45:53Z</time>
      </trkpt>
      <trkpt lat="43.62819" lon="6.81835">
        <ele>95.1</ele>
        <time>2014-04-13T12:46:05Z</time>
      </trkpt>
      <trkpt lat="43.62824" lon="6.81826">
        <ele>94.7</ele>
        <time>2014-04-13T12:46:11Z</time>
      </trkpt>
      <trkpt lat="43.62826" lon="6.81815">
        <ele>93.2</ele>
        <time>2014-04-13T12:46:18Z</time>
      </trkpt>
      <trkpt lat="43.62826" lon="6.81813">
        <ele>93.3</ele>
        <time>2014-04-13T12:46:19Z</time>
      </trkpt>
      <trkpt lat="43.62838" lon="6.81806">
        <ele>93.6</ele>
        <time>2014-04-13T12:46:30Z</time>
      </trkpt>
      <trkpt lat="43.62833" lon="6.81796">
        <ele>92.8</ele>
        <time>2014-04-13T12:46:44Z</time>
      </trkpt>
      <trkpt lat="43.62826" lon="6.81792">
        <ele>92.9</ele>
        <time>2014-04-13T12:46:51Z</time>
      </trkpt>
      <trkpt lat="43.6282" lon="6.81784">
        <ele>93</ele>
        <time>2014-04-13T12:46:59Z</time>
      </trkpt>
      <trkpt lat="43.62814" lon="6.81775">
        <ele>93</ele>
        <time>2014-04-13T12:47:07Z</time>
      </trkpt>
      <trkpt lat="43.62809" lon="6.81766">
        <ele>92.8</ele>
        <time>2014-04-13T12:47:15Z</time>
      </trkpt>
      <trkpt lat="43.62803" lon="6.81757">
        <ele>93.2</ele>
        <time>2014-04-13T12:47:25Z</time>
      </trkpt>
      <trkpt lat="43.62802" lon="6.81757">
        <ele>92.8</ele>
        <time>2014-04-13T12:47:26Z</time>
      </trkpt>
      <trkpt lat="43.62791" lon="6.81742">
        <ele>93</ele>
        <time>2014-04-13T12:47:41Z</time>
      </trkpt>
      <trkpt lat="43.62786" lon="6.81731">
        <ele>93.1</ele>
        <time>2014-04-13T12:47:47Z</time>
      </trkpt>
      <trkpt lat="43.62778" lon="6.81729">
        <ele>93.3</ele>
        <time>2014-04-13T12:47:57Z</time>
      </trkpt>
      <trkpt lat="43.6277" lon="6.81732">
        <ele>94.2</ele>
        <time>2014-04-13T12:48:04Z</time>
      </trkpt>
      <trkpt lat="43.62762" lon="6.81734">
        <ele>94</ele>
        <time>2014-04-13T12:48:10Z</time>
      </trkpt>
      <trkpt lat="43.62757" lon="6.81744">
        <ele>94</ele>
        <time>2014-04-13T12:48:21Z</time>
      </trkpt>
      <trkpt lat="43.62754" lon="6.81756">
        <ele>94.6</ele>
        <time>2014-04-13T12:49:01Z</time>
      </trkpt>
      <trkpt lat="43.62754" lon="6.81756">
        <ele>94.4</ele>
        <time>2014-04-13T12:49:02Z</time>
      </trkpt>
      <trkpt lat="43.62759" lon="6.81743">
        <ele>94.5</ele>
        <time>2014-04-13T12:52:43Z</time>
      </trkpt>
      <trkpt lat="43.62775" lon="6.81737">
        <ele>94.5</ele>
        <time>2014-04-13T12:53:23Z</time>
      </trkpt>
      <trkpt lat="43.62782" lon="6.81742">
        <ele>93.8</ele>
        <time>2014-04-13T12:53:56Z</time>
      </trkpt>
      <trkpt lat="43.62783" lon="6.81742">
        <ele>93.9</ele>
        <time>2014-04-13T12:53:57Z</time>
      </trkpt>
      <trkpt lat="43.62797" lon="6.8173">
        <ele>94.8</ele>
        <time>2014-04-13T12:54:48Z</time>
      </trkpt>
      <trkpt lat="43.62803" lon="6.81721">
        <ele>93</ele>
        <time>2014-04-13T12:55:08Z</time>
      </trkpt>
      <trkpt lat="43.62805" lon="6.8172">
        <ele>93.3</ele>
        <time>2014-04-13T12:55:10Z</time>
      </trkpt>
      <trkpt lat="43.62814" lon="6.81706">
        <ele>94.2</ele>
        <time>2014-04-13T12:55:43Z</time>
      </trkpt>
      <trkpt lat="43.62815" lon="6.81694">
        <ele>94.3</ele>
        <time>2014-04-13T12:55:52Z</time>
      </trkpt>
      <trkpt lat="43.62818" lon="6.81683">
        <ele>94.7</ele>
        <time>2014-04-13T12:56:01Z</time>
      </trkpt>
      <trkpt lat="43.62816" lon="6.81672">
        <ele>95</ele>
        <time>2014-04-13T12:56:24Z</time>
      </trkpt>
      <trkpt lat="43.62816" lon="6.81671">
        <ele>94.8</ele>
        <time>2014-04-13T12:56:25Z</time>
      </trkpt>
      <trkpt lat="43.62816" lon="6.8166">
        <ele>94.3</ele>
        <time>2014-04-13T12:58:00Z</time>
      </trkpt>
      <trkpt lat="43.62817" lon="6.81656">
        <ele>94.4</ele>
        <time>2014-04-13T12:59:16Z</time>
      </trkpt>
      <trkpt lat="43.62816" lon="6.81656">
        <ele>94.2</ele>
        <time>2014-04-13T12:59:17Z</time>
      </trkpt>
      <trkpt lat="43.62811" lon="6.81646">
        <ele>94.2</ele>
        <time>2014-04-13T13:01:42Z</time>
      </trkpt>
      <trkpt lat="43.62813" lon="6.81659">
        <ele>94.1</ele>
        <time>2014-04-13T13:03:34Z</time>
      </trkpt>
      <trkpt lat="43.62829" lon="6.81654">
        <ele>93.8</ele>
        <time>2014-04-13T13:04:06Z</time>
      </trkpt>
      <trkpt lat="43.62824" lon="6.81663">
        <ele>94</ele>
        <time>2014-04-13T13:05:09Z</time>
      </trkpt>
      <trkpt lat="43.62823" lon="6.81664">
        <ele>93.8</ele>
        <time>2014-04-13T13:05:10Z</time>
      </trkpt>
      <trkpt lat="43.62817" lon="6.81655">
        <ele>92.6</ele>
        <time>2014-04-13T13:08:49Z</time>
      </trkpt>
      <trkpt lat="43.62833" lon="6.81648">
        <ele>92.5</ele>
        <time>2014-04-13T13:10:11Z</time>
      </trkpt>
      <trkpt lat="43.62834" lon="6.81647">
        <ele>92.5</ele>
        <time>2014-04-13T13:10:12Z</time>
      </trkpt>
      <trkpt lat="43.62848" lon="6.81638">
        <ele>92.1</ele>
        <time>2014-04-13T13:10:35Z</time>
      </trkpt>
      <trkpt lat="43.62855" lon="6.81637">
        <ele>91.1</ele>
        <time>2014-04-13T13:10:41Z</time>
      </trkpt>
      <trkpt lat="43.62862" lon="6.81634">
        <ele>91.1</ele>
        <time>2014-04-13T13:10:48Z</time>
      </trkpt>
      <trkpt lat="43.6287" lon="6.81631">
        <ele>90.3</ele>
        <time>2014-04-13T13:11:17Z</time>
      </trkpt>
      <trkpt lat="43.62871" lon="6.81631">
        <ele>90</ele>
        <time>2014-04-13T13:11:18Z</time>
      </trkpt>
      <trkpt lat="43.62886" lon="6.81631">
        <ele>89.7</ele>
        <time>2014-04-13T13:12:07Z</time>
      </trkpt>
      <trkpt lat="43.62877" lon="6.81631">
        <ele>88.4</ele>
        <time>2014-04-13T13:15:20Z</time>
      </trkpt>
      <trkpt lat="43.62877" lon="6.8163">
        <ele>88.1</ele>
        <time>2014-04-13T13:15:21Z</time>
      </trkpt>
      <trkpt lat="43.62889" lon="6.8163">
        <ele>89.6</ele>
        <time>2014-04-13T13:16:46Z</time>
      </trkpt>
      <trkpt lat="43.62878" lon="6.8163">
        <ele>89.5</ele>
        <time>2014-04-13T13:18:04Z</time>
      </trkpt>
      <trkpt lat="43.62888" lon="6.81627">
        <ele>89.7</ele>
        <time>2014-04-13T13:19:05Z</time>
      </trkpt>
      <trkpt lat="43.62883" lon="6.81638">
        <ele>90.7</ele>
        <time>2014-04-13T13:20:38Z</time>
      </trkpt>
      <trkpt lat="43.62883" lon="6.81639">
        <ele>90.1</ele>
        <time>2014-04-13T13:20:39Z</time>
      </trkpt>
      <trkpt lat="43.62874" lon="6.81649">
        <ele>90</ele>
        <time>2014-04-13T13:22:01Z</time>
      </trkpt>
      <trkpt lat="43.62874" lon="6.81649">
        <ele>90.1</ele>
        <time>2014-04-13T13:22:02Z</time>
      </trkpt>
      <trkpt lat="43.62866" lon="6.81656">
        <ele>89.8</ele>
        <time>2014-04-13T13:23:27Z</time>
      </trkpt>
      <trkpt lat="43.62872" lon="6.81645">
        <ele>89.6</ele>
        <time>2014-04-13T13:25:37Z</time>
      </trkpt>
      <trkpt lat="43.62869" lon="6.81659">
        <ele>90.4</ele>
        <time>2014-04-13T13:26:50Z</time>
      </trkpt>
      <trkpt lat="43.62875" lon="6.8165">
        <ele>91</ele>
        <time>2014-04-13T13:28:53Z</time>
      </trkpt>
      <trkpt lat="43.62861" lon="6.81637">
        <ele>89.9</ele>
        <time>2014-04-13T13:29:27Z</time>
      </trkpt>
      <trkpt lat="43.62853" lon="6.81643">
        <ele>89.6</ele>
        <time>2014-04-13T13:29:40Z</time>
      </trkpt>
      <trkpt lat="43.62846" lon="6.8165">
        <ele>89.3</ele>
        <time>2014-04-13T13:30:08Z</time>
      </trkpt>
      <trkpt lat="43.62846" lon="6.8165">
        <ele>88.9</ele>
        <time>2014-04-13T13:30:09Z</time>
      </trkpt>
      <trkpt lat="43.62845" lon="6.81657">
        <ele>90.3</ele>
        <time>2014-04-13T13:31:18Z</time>
      </trkpt>
      <trkpt lat="43.62843" lon="6.81657">
        <ele>90.2</ele>
        <time>2014-04-13T13:31:19Z</time>
      </trkpt>
      <trkpt lat="43.62835" lon="6.81672">
        <ele>89</ele>
        <time>2014-04-13T13:32:10Z</time>
      </trkpt>
      <trkpt lat="43.62839" lon="6.81678">
        <ele>88.4</ele>
        <time>2014-04-13T13:32:15Z</time>
      </trkpt>
      <trkpt lat="43.62847" lon="6.81683">
        <ele>88.1</ele>
        <time>2014-04-13T13:32:18Z</time>
      </trkpt>
      <trkpt lat="43.62838" lon="6.81681">
        <ele>88.2</ele>
        <time>2014-04-13T13:32:39Z</time>
      </trkpt>
      <trkpt lat="43.62837" lon="6.8168">
        <ele>88.1</ele>
        <time>2014-04-13T13:32:40Z</time>
      </trkpt>
      <trkpt lat="43.62842" lon="6.81696">
        <ele>88.2</ele>
        <time>2014-04-13T13:34:30Z</time>
      </trkpt>
      <trkpt lat="43.62848" lon="6.81706">
        <ele>88.3</ele>
        <time>2014-04-13T13:35:27Z</time>
      </trkpt>
      <trkpt lat="43.62839" lon="6.81706">
        <ele>89.3</ele>
        <time>2014-04-13T13:36:56Z</time>
      </trkpt>
      <trkpt lat="43.62839" lon="6.81706">
        <ele>89.5</ele>
        <time>2014-04-13T13:36:57Z</time>
      </trkpt>
      <trkpt lat="43.62839" lon="6.81708">
        <ele>88.8</ele>
        <time>2014-04-13T13:37:48Z</time>
      </trkpt>
      <trkpt lat="43.62846" lon="6.81713">
        <ele>88.5</ele>
        <time>2014-04-13T13:38:04Z</time>
      </trkpt>
      <trkpt lat="43.62848" lon="6.81713">
        <ele>88.6</ele>
        <time>2014-04-13T13:38:05Z</time>
      </trkpt>
      <trkpt lat="43.62861" lon="6.81721">
        <ele>88.2</ele>
        <time>2014-04-13T13:38:36Z</time>
      </trkpt>
      <trkpt lat="43.62853" lon="6.81724">
        <ele>88.1</ele>
        <time>2014-04-13T13:40:04Z</time>
      </trkpt>
      <trkpt lat="43.62851" lon="6.81723">
        <ele>88.4</ele>
        <time>2014-04-13T13:40:05Z</time>
      </trkpt>
      <trkpt lat="43.62859" lon="6.81734">
        <ele>87.2</ele>
        <time>2014-04-13T13:41:42Z</time>
      </trkpt>
      <trkpt lat="43.62865" lon="6.81715">
        <ele>88.2</ele>
        <time>2014-04-13T13:43:49Z</time>
      </trkpt>
      <trkpt lat="43.62867" lon="6.81715">
        <ele>88.2</ele>
        <time>2014-04-13T13:43:50Z</time>
      </trkpt>
      <trkpt lat="43.62882" lon="6.81716">
        <ele>89.6</ele>
        <time>2014-04-13T13:44:11Z</time>
      </trkpt>
      <trkpt lat="43.6289" lon="6.8172">
        <ele>89.5</ele>
        <time>2014-04-13T13:44:26Z</time>
      </trkpt>
      <trkpt lat="43.62898" lon="6.81716">
        <ele>89.7</ele>
        <time>2014-04-13T13:44:59Z</time>
      </trkpt>
      <trkpt lat="43.62899" lon="6.81716">
        <ele>89.8</ele>
        <time>2014-04-13T13:45:00Z</time>
      </trkpt>
      <trkpt lat="43.62913" lon="6.81704">
        <ele>90.3</ele>
        <time>2014-04-13T13:45:57Z</time>
      </trkpt>
      <trkpt lat="43.62921" lon="6.81701">
        <ele>90.3</ele>
        <time>2014-04-13T13:46:07Z</time>
      </trkpt>
      <trkpt lat="43.62921" lon="6.81702">
        <ele>90.1</ele>
        <time>2014-04-13T13:46:08Z</time>
      </trkpt>
      <trkpt lat="43.62935" lon="6.81706">
        <ele>90.7</ele>
        <time>2014-04-13T13:46:33Z</time>
      </trkpt>
      <trkpt lat="43.62929" lon="6.81698">
        <ele>90.7</ele>
        <time>2014-04-13T13:46:41Z</time>
      </trkpt>
      <trkpt lat="43.62938" lon="6.817">
        <ele>90.6</ele>
        <time>2014-04-13T13:46:56Z</time>
      </trkpt>
      <trkpt lat="43.62945" lon="6.81706">
        <ele>90.7</ele>
        <time>2014-04-13T13:47:02Z</time>
      </trkpt>
      <trkpt lat="43.62937" lon="6.81704">
        <ele>90.9</ele>
        <time>2014-04-13T13:47:16Z</time>
      </trkpt>
      <trkpt lat="43.62934" lon="6.81703">
        <ele>90.8</ele>
        <time>2014-04-13T13:47:17Z</time>
      </trkpt>
      <trkpt lat="43.62922" lon="6.81698">
        <ele>91.2</ele>
        <time>2014-04-13T13:47:21Z</time>
      </trkpt>
      <trkpt lat="43.62929" lon="6.81692">
        <ele>90.8</ele>
        <time>2014-04-13T13:47:48Z</time>
      </trkpt>
      <trkpt lat="43.62938" lon="6.81689">
        <ele>90</ele>
        <time>2014-04-13T13:48:14Z</time>
      </trkpt>
      <trkpt lat="43.62945" lon="6.81686">
        <ele>90.3</ele>
        <time>2014-04-13T13:49:00Z</time>
      </trkpt>
      <trkpt lat="43.62947" lon="6.81686">
        <ele>90.3</ele>
        <time>2014-04-13T13:49:01Z</time>
      </trkpt>
      <trkpt lat="43.62945" lon="6.81684">
        <ele>91.6</ele>
        <time>2014-04-13T13:49:44Z</time>
      </trkpt>
      <trkpt lat="43.62951" lon="6.81694">
        <ele>90.7</ele>
        <time>2014-04-13T13:50:11Z</time>
      </trkpt>
      <trkpt lat="43.62955" lon="6.81696">
        <ele>90.5</ele>
        <time>2014-04-13T13:50:12Z</time>
      </trkpt>
      <trkpt lat="43.62962" lon="6.81705">
        <ele>90.7</ele>
        <time>2014-04-13T13:50:16Z</time>
      </trkpt>
      <trkpt lat="43.62954" lon="6.81706">
        <ele>90.6</ele>
        <time>2014-04-13T13:50:29Z</time>
      </trkpt>
      <trkpt lat="43.62946" lon="6.81699">
        <ele>90.6</ele>
        <time>2014-04-13T13:50:33Z</time>
      </trkpt>
      <trkpt lat="43.62941" lon="6.8169">
        <ele>91</ele>
        <time>2014-04-13T13:50:39Z</time>
      </trkpt>
      <trkpt lat="43.62933" lon="6.8168">
        <ele>91</ele>
        <time>2014-04-13T13:50:54Z</time>
      </trkpt>
      <trkpt lat="43.62924" lon="6.8168">
        <ele>90</ele>
        <time>2014-04-13T13:50:59Z</time>
      </trkpt>
      <trkpt lat="43.62931" lon="6.81685">
        <ele>91.5</ele>
        <time>2014-04-13T13:51:12Z</time>
      </trkpt>
      <trkpt lat="43.62934" lon="6.81685">
        <ele>91.4</ele>
        <time>2014-04-13T13:51:13Z</time>
      </trkpt>
      <trkpt lat="43.62945" lon="6.81689">
        <ele>90.2</ele>
        <time>2014-04-13T13:51:19Z</time>
      </trkpt>
      <trkpt lat="43.62952" lon="6.81696">
        <ele>91.1</ele>
        <time>2014-04-13T13:51:24Z</time>
      </trkpt>
      <trkpt lat="43.6295" lon="6.81686">
        <ele>91.3</ele>
        <time>2014-04-13T13:51:58Z</time>
      </trkpt>
      <trkpt lat="43.62945" lon="6.81679">
        <ele>91</ele>
        <time>2014-04-13T13:52:13Z</time>
      </trkpt>
      <trkpt lat="43.62942" lon="6.81677">
        <ele>90.9</ele>
        <time>2014-04-13T13:52:14Z</time>
      </trkpt>
      <trkpt lat="43.62934" lon="6.81665">
        <ele>90.9</ele>
        <time>2014-04-13T13:52:43Z</time>
      </trkpt>
      <trkpt lat="43.62941" lon="6.81672">
        <ele>91.4</ele>
        <time>2014-04-13T13:52:52Z</time>
      </trkpt>
      <trkpt lat="43.62948" lon="6.81676">
        <ele>91.2</ele>
        <time>2014-04-13T13:53:04Z</time>
      </trkpt>
      <trkpt lat="43.62956" lon="6.81671">
        <ele>91.7</ele>
        <time>2014-04-13T13:53:22Z</time>
      </trkpt>
      <trkpt lat="43.62957" lon="6.81671">
        <ele>91.6</ele>
        <time>2014-04-13T13:53:23Z</time>
      </trkpt>
      <trkpt lat="43.62939" lon="6.81664">
        <ele>91.9</ele>
        <time>2014-04-13T13:53:52Z</time>
      </trkpt>
      <trkpt lat="43.62935" lon="6.81654">
        <ele>91.7</ele>
        <time>2014-04-13T13:54:10Z</time>
      </trkpt>
      <trkpt lat="43.62933" lon="6.81643">
        <ele>93</ele>
        <time>2014-04-13T13:55:05Z</time>
      </trkpt>
      <trkpt lat="43.62932" lon="6.81641">
        <ele>92.5</ele>
        <time>2014-04-13T13:55:06Z</time>
      </trkpt>
      <trkpt lat="43.62947" lon="6.8165">
        <ele>91.4</ele>
        <time>2014-04-13T13:55:38Z</time>
      </trkpt>
      <trkpt lat="43.62953" lon="6.81659">
        <ele>91.7</ele>
        <time>2014-04-13T13:55:44Z</time>
      </trkpt>
      <trkpt lat="43.6296" lon="6.81663">
        <ele>91.9</ele>
        <time>2014-04-13T13:55:51Z</time>
      </trkpt>
      <trkpt lat="43.62965" lon="6.81654">
        <ele>92</ele>
        <time>2014-04-13T13:56:06Z</time>
      </trkpt>
      <trkpt lat="43.62965" lon="6.81652">
        <ele>92.2</ele>
        <time>2014-04-13T13:56:07Z</time>
      </trkpt>
      <trkpt lat="43.62962" lon="6.81628">
        <ele>91.6</ele>
        <time>2014-04-13T13:56:32Z</time>
      </trkpt>
      <trkpt lat="43.62956" lon="6.81618">
        <ele>92.3</ele>
        <time>2014-04-13T13:56:44Z</time>
      </trkpt>
      <trkpt lat="43.62948" lon="6.81614">
        <ele>94</ele>
        <time>2014-04-13T13:57:29Z</time>
      </trkpt>
      <trkpt lat="43.62947" lon="6.81614">
        <ele>94</ele>
        <time>2014-04-13T13:57:30Z</time>
      </trkpt>
      <trkpt lat="43.6295" lon="6.81609">
        <ele>94.6</ele>
        <time>2014-04-13T13:58:40Z</time>
      </trkpt>
      <trkpt lat="43.62952" lon="6.81611">
        <ele>94.7</ele>
        <time>2014-04-13T13:58:41Z</time>
      </trkpt>
      <trkpt lat="43.62946" lon="6.8161">
        <ele>93.1</ele>
        <time>2014-04-13T13:58:57Z</time>
      </trkpt>
      <trkpt lat="43.62939" lon="6.8161">
        <ele>93.5</ele>
        <time>2014-04-13T13:59:06Z</time>
      </trkpt>
      <trkpt lat="43.62931" lon="6.81607">
        <ele>93.9</ele>
        <time>2014-04-13T13:59:12Z</time>
      </trkpt>
      <trkpt lat="43.62923" lon="6.81605">
        <ele>93.5</ele>
        <time>2014-04-13T13:59:19Z</time>
      </trkpt>
      <trkpt lat="43.62918" lon="6.81614">
        <ele>93</ele>
        <time>2014-04-13T13:59:40Z</time>
      </trkpt>
      <trkpt lat="43.6291" lon="6.81617">
        <ele>93.3</ele>
        <time>2014-04-13T13:59:54Z</time>
      </trkpt>
      <trkpt lat="43.62909" lon="6.81617">
        <ele>92.9</ele>
        <time>2014-04-13T13:59:55Z</time>
      </trkpt>
      <trkpt lat="43.62896" lon="6.8163">
        <ele>92.9</ele>
        <time>2014-04-13T14:00:52Z</time>
      </trkpt>
      <trkpt lat="43.62888" lon="6.81627">
        <ele>92.8</ele>
        <time>2014-04-13T14:01:02Z</time>
      </trkpt>
      <trkpt lat="43.62887" lon="6.81627">
        <ele>92.9</ele>
        <time>2014-04-13T14:01:03Z</time>
      </trkpt>
      <trkpt lat="43.6288" lon="6.81632">
        <ele>93.2</ele>
        <time>2014-04-13T14:02:04Z</time>
      </trkpt>
      <trkpt lat="43.62866" lon="6.81608">
        <ele>93</ele>
        <time>2014-04-13T14:03:16Z</time>
      </trkpt>
      <trkpt lat="43.62866" lon="6.81608">
        <ele>93.8</ele>
        <time>2014-04-13T14:03:18Z</time>
      </trkpt>
      <trkpt lat="43.62869" lon="6.81609">
        <ele>94</ele>
        <time>2014-04-13T14:03:58Z</time>
      </trkpt>
      <trkpt lat="43.62879" lon="6.81619">
        <ele>93</ele>
        <time>2014-04-13T14:04:12Z</time>
      </trkpt>
      <trkpt lat="43.62869" lon="6.81618">
        <ele>95</ele>
        <time>2014-04-13T14:04:41Z</time>
      </trkpt>
      <trkpt lat="43.62869" lon="6.81619">
        <ele>95.3</ele>
        <time>2014-04-13T14:04:43Z</time>
      </trkpt>
      <trkpt lat="43.62873" lon="6.8162">
        <ele>95</ele>
        <time>2014-04-13T14:05:21Z</time>
      </trkpt>
      <trkpt lat="43.62888" lon="6.81628">
        <ele>95</ele>
        <time>2014-04-13T14:05:29Z</time>
      </trkpt>
      <trkpt lat="43.62897" lon="6.81634">
        <ele>95</ele>
        <time>2014-04-13T14:05:37Z</time>
      </trkpt>
      <trkpt lat="43.62885" lon="6.81639">
        <ele>95</ele>
        <time>2014-04-13T14:05:52Z</time>
      </trkpt>
      <trkpt lat="43.62883" lon="6.81639">
        <ele>95.5</ele>
        <time>2014-04-13T14:05:54Z</time>
      </trkpt>
      <trkpt lat="43.62866" lon="6.8164">
        <ele>97</ele>
        <time>2014-04-13T14:06:08Z</time>
      </trkpt>
      <trkpt lat="43.6285" lon="6.81643">
        <ele>96</ele>
        <time>2014-04-13T14:06:18Z</time>
      </trkpt>
      <trkpt lat="43.62842" lon="6.81646">
        <ele>97.4</ele>
        <time>2014-04-13T14:06:26Z</time>
      </trkpt>
      <trkpt lat="43.62834" lon="6.81651">
        <ele>97.4</ele>
        <time>2014-04-13T14:06:32Z</time>
      </trkpt>
      <trkpt lat="43.62826" lon="6.81653">
        <ele>97</ele>
        <time>2014-04-13T14:06:38Z</time>
      </trkpt>
      <trkpt lat="43.62818" lon="6.81655">
        <ele>98.4</ele>
        <time>2014-04-13T14:06:45Z</time>
      </trkpt>
      <trkpt lat="43.62812" lon="6.81665">
        <ele>98.3</ele>
        <time>2014-04-13T14:07:02Z</time>
      </trkpt>
      <trkpt lat="43.62813" lon="6.81665">
        <ele>98.4</ele>
        <time>2014-04-13T14:07:03Z</time>
      </trkpt>
      <trkpt lat="43.62812" lon="6.8167">
        <ele>99.1</ele>
        <time>2014-04-13T14:07:40Z</time>
      </trkpt>
      <trkpt lat="43.62804" lon="6.81672">
        <ele>98.9</ele>
        <time>2014-04-13T14:10:05Z</time>
      </trkpt>
      <trkpt lat="43.62803" lon="6.81672">
        <ele>99.1</ele>
        <time>2014-04-13T14:10:06Z</time>
      </trkpt>
      <trkpt lat="43.62814" lon="6.81691">
        <ele>98.9</ele>
        <time>2014-04-13T14:11:03Z</time>
      </trkpt>
      <trkpt lat="43.62822" lon="6.81693">
        <ele>99.3</ele>
        <time>2014-04-13T14:11:55Z</time>
      </trkpt>
      <trkpt lat="43.62823" lon="6.81693">
        <ele>99.4</ele>
        <time>2014-04-13T14:11:56Z</time>
      </trkpt>
      <trkpt lat="43.62811" lon="6.81701">
        <ele>99.8</ele>
        <time>2014-04-13T14:13:01Z</time>
      </trkpt>
      <trkpt lat="43.6281" lon="6.81702">
        <ele>99.9</ele>
        <time>2014-04-13T14:13:02Z</time>
      </trkpt>
      <trkpt lat="43.62805" lon="6.81722">
        <ele>98.6</ele>
        <time>2014-04-13T14:14:18Z</time>
      </trkpt>
      <trkpt lat="43.62805" lon="6.81723">
        <ele>98.7</ele>
        <time>2014-04-13T14:14:19Z</time>
      </trkpt>
      <trkpt lat="43.62797" lon="6.81717">
        <ele>98.9</ele>
        <time>2014-04-13T14:15:32Z</time>
      </trkpt>
      <trkpt lat="43.62798" lon="6.81718">
        <ele>98.6</ele>
        <time>2014-04-13T14:15:33Z</time>
      </trkpt>
      <trkpt lat="43.62802" lon="6.81727">
        <ele>99.1</ele>
        <time>2014-04-13T14:16:36Z</time>
      </trkpt>
      <trkpt lat="43.62799" lon="6.81722">
        <ele>98.7</ele>
        <time>2014-04-13T14:17:30Z</time>
      </trkpt>
      <trkpt lat="43.62808" lon="6.81724">
        <ele>98</ele>
        <time>2014-04-13T14:17:49Z</time>
      </trkpt>
      <trkpt lat="43.62809" lon="6.81724">
        <ele>98.3</ele>
        <time>2014-04-13T14:17:51Z</time>
      </trkpt>
      <trkpt lat="43.6279" lon="6.81728">
        <ele>99</ele>
        <time>2014-04-13T14:19:52Z</time>
      </trkpt>
      <trkpt lat="43.62789" lon="6.8173">
        <ele>99.2</ele>
        <time>2014-04-13T14:19:54Z</time>
      </trkpt>
      <trkpt lat="43.62778" lon="6.81735">
        <ele>98.8</ele>
        <time>2014-04-13T14:20:12Z</time>
      </trkpt>
      <trkpt lat="43.6277" lon="6.8173">
        <ele>99.8</ele>
        <time>2014-04-13T14:20:16Z</time>
      </trkpt>
      <trkpt lat="43.62762" lon="6.81733">
        <ele>99.6</ele>
        <time>2014-04-13T14:20:24Z</time>
      </trkpt>
      <trkpt lat="43.62754" lon="6.81737">
        <ele>99.2</ele>
        <time>2014-04-13T14:20:32Z</time>
      </trkpt>
      <trkpt lat="43.62745" lon="6.81743">
        <ele>99</ele>
        <time>2014-04-13T14:20:36Z</time>
      </trkpt>
    </trkseg>
  </trk>
</gpx>